PWSweather.com
Personal Weather Stations
Station Observations
98619
Glenwood, WA 98619

Glenwood, WA 98619

Lat: 46.016, Lon: -121.275

Elevation: 1885

Station Type: Davis Vantage Pro2

Latest ConditionsUpdated 3:30:03 PM PDT Thursday, Jul 20, 2017
Currently Today's Max Today's Min Today's Average
Temperature 68.7°F20.4°C 69.8°F21.0°C 54.6°F12.6°C 61.8°F16.6°C
Dew Point 51.4°F10.8°C 53.0°F11.7°C 47.9°F8.8°C 49.9°F9.9°C
Winds 3.0 mph SSW4.8 kmh SSW 19.0 mph SW30.6 kmh SW - 7.1 mph 11.4 kmh
Wind Gusts 11.0 mph17.7 kmh 20.0 mph32.2 kmh - -
Humidity 54% 79% 49% 66%
Pressure 30.03 in1016.9 mb 30.04 in1017.3 mb 29.92 in1013.2 mb -
Hour Temp Dew Point Humidity Winds Wind Gusts Pressure Precip Precip Rate Daily Precip Total
03:30 PM 68.7°F20.4°C 51.4°F10.8°C 54% 3.0 mph SSW4.8 kmh SSW 11.0 mph17.7 kmh 30.03 in1016.9 mb 0.00 in0.0 mm 0.00 in0.0 mm 0.00 in0.0 mm
03:29 PM 68.7°F20.4°C 51.4°F10.8°C 54% 5.0 mph SSW8.0 kmh SSW 11.0 mph17.7 kmh 30.03 in1016.9 mb 0.00 in0.0 mm 0.00 in0.0 mm 0.00 in0.0 mm
03:28 PM 68.7°F20.4°C 51.4°F10.8°C 54% 6.0 mph W9.7 kmh W 14.0 mph22.5 kmh 30.03 in1016.9 mb 0.00 in0.0 mm 0.00 in0.0 mm 0.00 in0.0 mm
03:27 PM 68.7°F20.4°C 51.9°F11.1°C 55% 1.0 mph SSW1.6 kmh SSW 14.0 mph22.5 kmh 30.03 in1016.9 mb 0.00 in0.0 mm 0.00 in0.0 mm 0.00 in0.0 mm
03:26 PM 68.7°F20.4°C 51.9°F11.1°C 55% 2.0 mph SSW3.2 kmh SSW 14.0 mph22.5 kmh 30.03 in1016.9 mb 0.00 in0.0 mm 0.00 in0.0 mm 0.00 in0.0 mm
03:25 PM 68.7°F20.4°C 52.4°F11.3°C 56% 1.0 mph SSW1.6 kmh SSW 14.0 mph22.5 kmh 30.03 in1016.9 mb 0.00 in0.0 mm 0.00 in0.0 mm 0.00 in0.0 mm
03:24 PM 68.7°F20.4°C 51.4°F10.8°C 54% 3.0 mph SW4.8 kmh SW 14.0 mph22.5 kmh 30.03 in1016.9 mb 0.00 in0.0 mm 0.00 in0.0 mm 0.00 in0.0 mm
03:23 PM 68.8°F20.4°C 51.5°F10.8°C 54% 5.0 mph SSE8.0 kmh SSE 14.0 mph22.5 kmh 30.03 in1016.9 mb 0.00 in0.0 mm 0.00 in0.0 mm 0.00 in0.0 mm
03:22 PM 68.8°F20.4°C 51.5°F10.8°C 54% Calm Calm 14.0 mph22.5 kmh 30.03 in1016.9 mb 0.00 in0.0 mm 0.00 in0.0 mm 0.00 in0.0 mm
03:21 PM 68.9°F20.5°C 51.6°F10.9°C 54% 4.0 mph S6.4 kmh S 14.0 mph22.5 kmh 30.03 in1016.9 mb 0.00 in0.0 mm 0.00 in0.0 mm 0.00 in0.0 mm
03:20 PM 69.0°F20.6°C 51.1°F10.6°C 53% 7.0 mph S11.3 kmh S 14.0 mph22.5 kmh 30.03 in1016.9 mb 0.00 in0.0 mm 0.00 in0.0 mm 0.00 in0.0 mm
03:19 PM 69.1°F20.6°C 51.2°F10.7°C 53% 7.0 mph S11.3 kmh S 14.0 mph22.5 kmh 30.03 in1016.9 mb 0.00 in0.0 mm 0.00 in0.0 mm 0.00 in0.0 mm
03:18 PM 69.2°F20.7°C 51.3°F10.7°C 53% 7.0 mph S11.3 kmh S 14.0 mph22.5 kmh 30.03 in1016.9 mb 0.00 in0.0 mm 0.00 in0.0 mm 0.00 in0.0 mm
03:17 PM 69.3°F20.7°C 51.4°F10.8°C 53% 9.0 mph S14.5 kmh S 14.0 mph22.5 kmh 30.03 in1016.9 mb 0.00 in0.0 mm 0.00 in0.0 mm 0.00 in0.0 mm
03:16 PM 69.5°F20.8°C 51.6°F10.9°C 53% 11.0 mph SSW17.7 kmh SSW 14.0 mph22.5 kmh 30.03 in1016.9 mb 0.00 in0.0 mm 0.00 in0.0 mm 0.00 in0.0 mm
03:15 PM 69.5°F20.8°C 51.6°F10.9°C 53% 7.0 mph SSW11.3 kmh SSW 14.0 mph22.5 kmh 30.03 in1016.9 mb 0.00 in0.0 mm 0.00 in0.0 mm 0.00 in0.0 mm
03:14 PM 69.6°F20.9°C 51.7°F10.9°C 53% 9.0 mph SW14.5 kmh SW 14.0 mph22.5 kmh 30.03 in1016.9 mb 0.00 in0.0 mm 0.00 in0.0 mm 0.00 in0.0 mm
03:13 PM 69.6°F20.9°C 51.2°F10.7°C 52% 4.0 mph WNW6.4 kmh WNW 14.0 mph22.5 kmh 30.03 in1016.9 mb 0.00 in0.0 mm 0.00 in0.0 mm 0.00 in0.0 mm
03:12 PM 69.6°F20.9°C 51.7°F10.9°C 53% 3.0 mph SW4.8 kmh SW 14.0 mph22.5 kmh 30.03 in1016.9 mb 0.00 in0.0 mm 0.00 in0.0 mm 0.00 in0.0 mm
03:11 PM 69.6°F20.9°C 51.2°F10.7°C 52% 7.0 mph SSW11.3 kmh SSW 14.0 mph22.5 kmh 30.03 in1016.9 mb 0.00 in0.0 mm 0.00 in0.0 mm 0.00 in0.0 mm
03:10 PM 69.5°F20.8°C 51.6°F10.9°C 53% 5.0 mph S8.0 kmh S 14.0 mph22.5 kmh 30.03 in1016.9 mb 0.00 in0.0 mm 0.00 in0.0 mm 0.00 in0.0 mm
03:09 PM 69.4°F20.8°C 53.0°F11.7°C 56% 3.0 mph S4.8 kmh S 14.0 mph22.5 kmh 30.03 in1016.9 mb 0.00 in0.0 mm 0.00 in0.0 mm 0.00 in0.0 mm
03:08 PM 69.3°F20.7°C 51.4°F10.8°C 53% 4.0 mph S6.4 kmh S 14.0 mph22.5 kmh 30.03 in1016.9 mb 0.00 in0.0 mm 0.00 in0.0 mm 0.00 in0.0 mm
03:07 PM 69.1°F20.6°C 51.2°F10.7°C 53% 5.0 mph SSW8.0 kmh SSW 14.0 mph22.5 kmh 30.04 in1017.3 mb 0.00 in0.0 mm 0.00 in0.0 mm 0.00 in0.0 mm
03:06 PM 68.9°F20.5°C 51.6°F10.9°C 54% 2.0 mph S3.2 kmh S 14.0 mph22.5 kmh 30.04 in1017.3 mb 0.00 in0.0 mm 0.00 in0.0 mm 0.00 in0.0 mm
03:05 PM 68.9°F20.5°C 50.5°F10.3°C 52% 4.0 mph SSW6.4 kmh SSW 14.0 mph22.5 kmh 30.04 in1017.3 mb 0.00 in0.0 mm 0.00 in0.0 mm 0.00 in0.0 mm
03:04 PM 68.9°F20.5°C 51.1°F10.6°C 53% 8.0 mph S12.9 kmh S 14.0 mph22.5 kmh 30.04 in1017.3 mb 0.00 in0.0 mm 0.00 in0.0 mm 0.00 in0.0 mm
03:03 PM 69.0°F20.6°C 50.1°F10.1°C 51% 7.0 mph S11.3 kmh S 14.0 mph22.5 kmh 30.04 in1017.3 mb 0.00 in0.0 mm 0.00 in0.0 mm 0.00 in0.0 mm
03:02 PM 69.0°F20.6°C 50.1°F10.1°C 51% 4.0 mph SSW6.4 kmh SSW 14.0 mph22.5 kmh 30.04 in1017.3 mb 0.00 in0.0 mm 0.00 in0.0 mm 0.00 in0.0 mm
03:01 PM 69.2°F20.7°C 50.3°F10.2°C 51% 9.0 mph S14.5 kmh S 14.0 mph22.5 kmh 30.04 in1017.3 mb 0.00 in0.0 mm 0.00 in0.0 mm 0.00 in0.0 mm
03:00 PM 69.4°F20.8°C 51.0°F10.6°C 52% 5.0 mph S8.0 kmh S 14.0 mph22.5 kmh 30.04 in1017.3 mb 0.00 in0.0 mm 0.00 in0.0 mm 0.00 in0.0 mm
02:59 PM 69.3°F20.7°C 51.4°F10.8°C 53% 7.0 mph S11.3 kmh S 14.0 mph22.5 kmh 30.04 in1017.3 mb 0.00 in0.0 mm 0.00 in0.0 mm 0.00 in0.0 mm
02:58 PM 69.1°F20.6°C 52.7°F11.5°C 56% 11.0 mph S17.7 kmh S 13.0 mph20.9 kmh 30.04 in1017.3 mb 0.00 in0.0 mm 0.00 in0.0 mm 0.00 in0.0 mm
02:57 PM 68.9°F20.5°C 51.1°F10.6°C 53% 5.0 mph SSE8.0 kmh SSE 13.0 mph20.9 kmh 30.04 in1017.3 mb 0.00 in0.0 mm 0.00 in0.0 mm 0.00 in0.0 mm
02:56 PM 68.8°F20.4°C 51.5°F10.8°C 54% 6.0 mph SW9.7 kmh SW 13.0 mph20.9 kmh 30.04 in1017.3 mb 0.00 in0.0 mm 0.00 in0.0 mm 0.00 in0.0 mm
02:55 PM 68.6°F20.3°C 51.8°F11.0°C 55% 4.0 mph S6.4 kmh S 13.0 mph20.9 kmh 30.04 in1017.3 mb 0.00 in0.0 mm 0.00 in0.0 mm 0.00 in0.0 mm
02:54 PM 68.5°F20.3°C 51.2°F10.7°C 54% 1.0 mph WSW1.6 kmh WSW 13.0 mph20.9 kmh 30.04 in1017.3 mb 0.00 in0.0 mm 0.00 in0.0 mm 0.00 in0.0 mm
02:53 PM 68.5°F20.3°C 51.2°F10.7°C 54% 7.0 mph WSW11.3 kmh WSW 13.0 mph20.9 kmh 30.04 in1017.3 mb 0.00 in0.0 mm 0.00 in0.0 mm 0.00 in0.0 mm
02:52 PM 68.4°F20.2°C 51.1°F10.6°C 54% 4.0 mph WSW6.4 kmh WSW 13.0 mph20.9 kmh 30.04 in1017.3 mb 0.00 in0.0 mm 0.00 in0.0 mm 0.00 in0.0 mm
02:51 PM 68.4°F20.2°C 50.6°F10.3°C 53% 4.0 mph S6.4 kmh S 13.0 mph20.9 kmh 30.04 in1017.3 mb 0.00 in0.0 mm 0.00 in0.0 mm 0.00 in0.0 mm
02:50 PM 68.4°F20.2°C 50.6°F10.3°C 53% 5.0 mph WSW8.0 kmh WSW 13.0 mph20.9 kmh 30.04 in1017.3 mb 0.00 in0.0 mm 0.00 in0.0 mm 0.00 in0.0 mm
02:49 PM 68.4°F20.2°C 50.6°F10.3°C 53% 3.0 mph SW4.8 kmh SW 13.0 mph20.9 kmh 30.04 in1017.3 mb 0.00 in0.0 mm 0.00 in0.0 mm 0.00 in0.0 mm
02:48 PM 68.4°F20.2°C 50.6°F10.3°C 53% 8.0 mph SSW12.9 kmh SSW 13.0 mph20.9 kmh 30.04 in1017.3 mb 0.00 in0.0 mm 0.00 in0.0 mm 0.00 in0.0 mm
02:47 PM 68.5°F20.3°C 50.7°F10.4°C 53% 7.0 mph SSW11.3 kmh SSW 13.0 mph20.9 kmh 30.04 in1017.3 mb 0.00 in0.0 mm 0.00 in0.0 mm 0.00 in0.0 mm
02:46 PM 68.5°F20.3°C 50.7°F10.4°C 53% 7.0 mph S11.3 kmh S 13.0 mph20.9 kmh 30.04 in1017.3 mb 0.00 in0.0 mm 0.00 in0.0 mm 0.00 in0.0 mm
02:45 PM 68.5°F20.3°C 50.7°F10.4°C 53% 6.0 mph SW9.7 kmh SW 13.0 mph20.9 kmh 30.04 in1017.3 mb 0.00 in0.0 mm 0.00 in0.0 mm 0.00 in0.0 mm
02:44 PM 68.5°F20.3°C 50.7°F10.4°C 53% 10.0 mph SW16.1 kmh SW 13.0 mph20.9 kmh 30.04 in1017.3 mb 0.00 in0.0 mm 0.00 in0.0 mm 0.00 in0.0 mm
02:43 PM 68.6°F20.3°C 50.8°F10.4°C 53% 3.0 mph SW4.8 kmh SW 13.0 mph20.9 kmh 30.04 in1017.3 mb 0.00 in0.0 mm 0.00 in0.0 mm 0.00 in0.0 mm
02:42 PM 68.5°F20.3°C 51.2°F10.7°C 54% 3.0 mph S4.8 kmh S 13.0 mph20.9 kmh 30.04 in1017.3 mb 0.00 in0.0 mm 0.00 in0.0 mm 0.00 in0.0 mm
02:41 PM 68.5°F20.3°C 50.2°F10.1°C 52% 5.0 mph W8.0 kmh W 13.0 mph20.9 kmh 30.04 in1017.3 mb 0.00 in0.0 mm 0.00 in0.0 mm 0.00 in0.0 mm
02:40 PM 68.4°F20.2°C 50.6°F10.3°C 53% 5.0 mph SW8.0 kmh SW 13.0 mph20.9 kmh 30.04 in1017.3 mb 0.00 in0.0 mm 0.00 in0.0 mm 0.00 in0.0 mm
02:39 PM 68.3°F20.2°C 50.5°F10.3°C 53% 7.0 mph SSW11.3 kmh SSW 13.0 mph20.9 kmh 30.04 in1017.3 mb 0.00 in0.0 mm 0.00 in0.0 mm 0.00 in0.0 mm
02:38 PM 68.3°F20.2°C 50.5°F10.3°C 53% 7.0 mph SSW11.3 kmh SSW 13.0 mph20.9 kmh 30.04 in1017.3 mb 0.00 in0.0 mm 0.00 in0.0 mm 0.00 in0.0 mm
02:37 PM 68.2°F20.1°C 50.4°F10.2°C 53% 7.0 mph S11.3 kmh S 13.0 mph20.9 kmh 30.03 in1016.9 mb 0.00 in0.0 mm 0.00 in0.0 mm 0.00 in0.0 mm
02:36 PM 68.2°F20.1°C 50.4°F10.2°C 53% 9.0 mph S14.5 kmh S 13.0 mph20.9 kmh 30.03 in1016.9 mb 0.00 in0.0 mm 0.00 in0.0 mm 0.00 in0.0 mm
02:35 PM 68.2°F20.1°C 51.4°F10.8°C 55% 7.0 mph S11.3 kmh S 13.0 mph20.9 kmh 30.03 in1016.9 mb 0.00 in0.0 mm 0.00 in0.0 mm 0.00 in0.0 mm
02:34 PM 68.2°F20.1°C 50.4°F10.2°C 53% 6.0 mph SW9.7 kmh SW 13.0 mph20.9 kmh 30.04 in1017.3 mb 0.00 in0.0 mm 0.00 in0.0 mm 0.00 in0.0 mm
02:33 PM 68.3°F20.2°C 51.0°F10.6°C 54% 7.0 mph S11.3 kmh S 13.0 mph20.9 kmh 30.04 in1017.3 mb 0.00 in0.0 mm 0.00 in0.0 mm 0.00 in0.0 mm
02:32 PM 68.4°F20.2°C 51.1°F10.6°C 54% 3.0 mph S4.8 kmh S 14.0 mph22.5 kmh 30.04 in1017.3 mb 0.00 in0.0 mm 0.00 in0.0 mm 0.00 in0.0 mm
02:31 PM 68.5°F20.3°C 50.7°F10.4°C 53% 4.0 mph WSW6.4 kmh WSW 14.0 mph22.5 kmh 30.04 in1017.3 mb 0.00 in0.0 mm 0.00 in0.0 mm 0.00 in0.0 mm
02:30 PM 68.6°F20.3°C 50.8°F10.4°C 53% 9.0 mph SSW14.5 kmh SSW 14.0 mph22.5 kmh 30.04 in1017.3 mb 0.00 in0.0 mm 0.00 in0.0 mm 0.00 in0.0 mm
02:29 PM 68.7°F20.4°C 50.9°F10.5°C 53% 7.0 mph S11.3 kmh S 14.0 mph22.5 kmh 30.04 in1017.3 mb 0.00 in0.0 mm 0.00 in0.0 mm 0.00 in0.0 mm
02:28 PM 68.7°F20.4°C 50.9°F10.5°C 53% 8.0 mph S12.9 kmh S 14.0 mph22.5 kmh 30.04 in1017.3 mb 0.00 in0.0 mm 0.00 in0.0 mm 0.00 in0.0 mm
02:27 PM 68.6°F20.3°C 51.8°F11.0°C 55% 6.0 mph WSW9.7 kmh WSW 14.0 mph22.5 kmh 30.04 in1017.3 mb 0.00 in0.0 mm 0.00 in0.0 mm 0.00 in0.0 mm
02:26 PM 68.5°F20.3°C 51.2°F10.7°C 54% 5.0 mph S8.0 kmh S 14.0 mph22.5 kmh 30.04 in1017.3 mb 0.00 in0.0 mm 0.00 in0.0 mm 0.00 in0.0 mm
02:25 PM 68.4°F20.2°C 51.6°F10.9°C 55% 10.0 mph WSW16.1 kmh WSW 14.0 mph22.5 kmh 30.04 in1017.3 mb 0.00 in0.0 mm 0.00 in0.0 mm 0.00 in0.0 mm
02:24 PM 68.3°F20.2°C 51.5°F10.8°C 55% 4.0 mph SSW6.4 kmh SSW 14.0 mph22.5 kmh 30.04 in1017.3 mb 0.00 in0.0 mm 0.00 in0.0 mm 0.00 in0.0 mm
02:23 PM 68.3°F20.2°C 50.5°F10.3°C 53% 6.0 mph S9.7 kmh S 14.0 mph22.5 kmh 30.03 in1016.9 mb 0.00 in0.0 mm 0.00 in0.0 mm 0.00 in0.0 mm
02:22 PM 68.3°F20.2°C 50.5°F10.3°C 53% 8.0 mph S12.9 kmh S 14.0 mph22.5 kmh 30.04 in1017.3 mb 0.00 in0.0 mm 0.00 in0.0 mm 0.00 in0.0 mm
02:21 PM 68.3°F20.2°C 51.0°F10.6°C 54% 5.0 mph SW8.0 kmh SW 14.0 mph22.5 kmh 30.04 in1017.3 mb 0.00 in0.0 mm 0.00 in0.0 mm 0.00 in0.0 mm
02:20 PM 68.3°F20.2°C 52.0°F11.1°C 56% 6.0 mph S9.7 kmh S 14.0 mph22.5 kmh 30.04 in1017.3 mb 0.00 in0.0 mm 0.00 in0.0 mm 0.00 in0.0 mm
02:19 PM 68.2°F20.1°C 50.4°F10.2°C 53% 1.0 mph S1.6 kmh S 14.0 mph22.5 kmh 30.04 in1017.3 mb 0.00 in0.0 mm 0.00 in0.0 mm 0.00 in0.0 mm
02:18 PM 68.1°F20.1°C 50.3°F10.2°C 53% 8.0 mph S12.9 kmh S 14.0 mph22.5 kmh 30.04 in1017.3 mb 0.00 in0.0 mm 0.00 in0.0 mm 0.00 in0.0 mm
02:17 PM 68.1°F20.1°C 49.8°F9.9°C 52% 5.0 mph S8.0 kmh S 14.0 mph22.5 kmh 30.04 in1017.3 mb 0.00 in0.0 mm 0.00 in0.0 mm 0.00 in0.0 mm
02:16 PM 68.1°F20.1°C 50.3°F10.2°C 53% 4.0 mph SSW6.4 kmh SSW 14.0 mph22.5 kmh 30.03 in1016.9 mb 0.00 in0.0 mm 0.00 in0.0 mm 0.00 in0.0 mm
02:15 PM 68.1°F20.1°C 50.8°F10.4°C 54% 9.0 mph SW14.5 kmh SW 14.0 mph22.5 kmh 30.04 in1017.3 mb 0.00 in0.0 mm 0.00 in0.0 mm 0.00 in0.0 mm
02:14 PM 68.0°F20.0°C 50.2°F10.1°C 53% 7.0 mph S11.3 kmh S 14.0 mph22.5 kmh 30.04 in1017.3 mb 0.00 in0.0 mm 0.00 in0.0 mm 0.00 in0.0 mm
02:13 PM 67.9°F19.9°C 50.1°F10.1°C 53% 10.0 mph SSW16.1 kmh SSW 14.0 mph22.5 kmh 30.04 in1017.3 mb 0.00 in0.0 mm 0.00 in0.0 mm 0.00 in0.0 mm
02:12 PM 67.9°F19.9°C 51.1°F10.6°C 55% 5.0 mph S8.0 kmh S 13.0 mph20.9 kmh 30.04 in1017.3 mb 0.00 in0.0 mm 0.00 in0.0 mm 0.00 in0.0 mm
02:11 PM 67.9°F19.9°C 51.1°F10.6°C 55% 9.0 mph S14.5 kmh S 17.0 mph27.4 kmh 30.04 in1017.3 mb 0.00 in0.0 mm 0.00 in0.0 mm 0.00 in0.0 mm
02:10 PM 67.9°F19.9°C 51.1°F10.6°C 55% 7.0 mph S11.3 kmh S 17.0 mph27.4 kmh 30.04 in1017.3 mb 0.00 in0.0 mm 0.00 in0.0 mm 0.00 in0.0 mm
02:09 PM 67.8°F19.9°C 50.5°F10.3°C 54% 5.0 mph SSW8.0 kmh SSW 17.0 mph27.4 kmh 30.04 in1017.3 mb 0.00 in0.0 mm 0.00 in0.0 mm 0.00 in0.0 mm
02:08 PM 67.7°F19.8°C 50.4°F10.2°C 54% 4.0 mph S6.4 kmh S 17.0 mph27.4 kmh 30.04 in1017.3 mb 0.00 in0.0 mm 0.00 in0.0 mm 0.00 in0.0 mm
02:07 PM 67.6°F19.8°C 50.4°F10.2°C 54% 5.0 mph SW8.0 kmh SW 17.0 mph27.4 kmh 30.03 in1016.9 mb 0.00 in0.0 mm 0.00 in0.0 mm 0.00 in0.0 mm
02:06 PM 67.6°F19.8°C 50.4°F10.2°C 54% 7.0 mph S11.3 kmh S 17.0 mph27.4 kmh 30.04 in1017.3 mb 0.00 in0.0 mm 0.00 in0.0 mm 0.00 in0.0 mm
02:05 PM 67.6°F19.8°C 50.4°F10.2°C 54% 10.0 mph SW16.1 kmh SW 17.0 mph27.4 kmh 30.04 in1017.3 mb 0.00 in0.0 mm 0.00 in0.0 mm 0.00 in0.0 mm
02:04 PM 67.6°F19.8°C 50.4°F10.2°C 54% 5.0 mph S8.0 kmh S 17.0 mph27.4 kmh 30.04 in1017.3 mb 0.00 in0.0 mm 0.00 in0.0 mm 0.00 in0.0 mm
02:03 PM 67.5°F19.7°C 50.3°F10.2°C 54% 4.0 mph SSW6.4 kmh SSW 17.0 mph27.4 kmh 30.03 in1016.9 mb 0.00 in0.0 mm 0.00 in0.0 mm 0.00 in0.0 mm
02:02 PM 67.5°F19.7°C 50.3°F10.2°C 54% 6.0 mph SSW9.7 kmh SSW 17.0 mph27.4 kmh 30.04 in1017.3 mb 0.00 in0.0 mm 0.00 in0.0 mm 0.00 in0.0 mm
02:01 PM 67.6°F19.8°C 50.4°F10.2°C 54% 7.0 mph SSE11.3 kmh SSE 19.0 mph30.6 kmh 30.04 in1017.3 mb 0.00 in0.0 mm 0.00 in0.0 mm 0.00 in0.0 mm
02:00 PM 67.6°F19.8°C 49.9°F9.9°C 53% 8.0 mph SSW12.9 kmh SSW 19.0 mph30.6 kmh 30.04 in1017.3 mb 0.00 in0.0 mm 0.00 in0.0 mm 0.00 in0.0 mm
01:59 PM 67.5°F19.7°C 49.2°F9.6°C 52% 5.0 mph SSW8.0 kmh SSW 19.0 mph30.6 kmh 30.03 in1016.9 mb 0.00 in0.0 mm 0.00 in0.0 mm 0.00 in0.0 mm
01:58 PM 67.6°F19.8°C 50.4°F10.2°C 54% 7.0 mph SSW11.3 kmh SSW 19.0 mph30.6 kmh 30.03 in1016.9 mb 0.00 in0.0 mm 0.00 in0.0 mm 0.00 in0.0 mm
01:57 PM 67.5°F19.7°C 49.8°F9.9°C 53% 5.0 mph SSW8.0 kmh SSW 19.0 mph30.6 kmh 30.03 in1016.9 mb 0.00 in0.0 mm 0.00 in0.0 mm 0.00 in0.0 mm
01:56 PM 67.5°F19.7°C 49.8°F9.9°C 53% 2.0 mph SSW3.2 kmh SSW 19.0 mph30.6 kmh 30.03 in1016.9 mb 0.00 in0.0 mm 0.00 in0.0 mm 0.00 in0.0 mm
01:55 PM 67.5°F19.7°C 50.3°F10.2°C 54% 6.0 mph S9.7 kmh S 19.0 mph30.6 kmh 30.03 in1016.9 mb 0.00 in0.0 mm 0.00 in0.0 mm 0.00 in0.0 mm
01:54 PM 67.5°F19.7°C 49.8°F9.9°C 53% 2.0 mph S3.2 kmh S 19.0 mph30.6 kmh 30.03 in1016.9 mb 0.00 in0.0 mm 0.00 in0.0 mm 0.00 in0.0 mm
01:53 PM 67.7°F19.8°C 50.4°F10.2°C 54% 8.0 mph SSW12.9 kmh SSW 19.0 mph30.6 kmh 30.03 in1016.9 mb 0.00 in0.0 mm 0.00 in0.0 mm 0.00 in0.0 mm
01:52 PM 67.7°F19.8°C 49.9°F9.9°C 53% 12.0 mph S19.3 kmh S 19.0 mph30.6 kmh 30.03 in1016.9 mb 0.00 in0.0 mm 0.00 in0.0 mm 0.00 in0.0 mm
01:51 PM 67.9°F19.9°C 50.6°F10.3°C 54% 8.0 mph S12.9 kmh S 19.0 mph30.6 kmh 30.03 in1016.9 mb 0.00 in0.0 mm 0.00 in0.0 mm 0.00 in0.0 mm
01:50 PM 68.0°F20.0°C 50.7°F10.4°C 54% 10.0 mph SSW16.1 kmh SSW 19.0 mph30.6 kmh 30.03 in1016.9 mb 0.00 in0.0 mm 0.00 in0.0 mm 0.00 in0.0 mm
01:49 PM 68.0°F20.0°C 50.7°F10.4°C 54% 7.0 mph SSW11.3 kmh SSW 19.0 mph30.6 kmh 30.03 in1016.9 mb 0.00 in0.0 mm 0.00 in0.0 mm 0.00 in0.0 mm
01:48 PM 68.0°F20.0°C 50.7°F10.4°C 54% 5.0 mph S8.0 kmh S 19.0 mph30.6 kmh 30.03 in1016.9 mb 0.00 in0.0 mm 0.00 in0.0 mm 0.00 in0.0 mm
01:47 PM 67.9°F19.9°C 51.6°F10.9°C 56% 3.0 mph SW4.8 kmh SW 19.0 mph30.6 kmh 30.04 in1017.3 mb 0.00 in0.0 mm 0.00 in0.0 mm 0.00 in0.0 mm
01:46 PM 67.9°F19.9°C 51.6°F10.9°C 56% 2.0 mph S3.2 kmh S 19.0 mph30.6 kmh 30.04 in1017.3 mb 0.00 in0.0 mm 0.00 in0.0 mm 0.00 in0.0 mm
01:45 PM 67.8°F19.9°C 51.0°F10.6°C 55% 3.0 mph SSW4.8 kmh SSW 19.0 mph30.6 kmh 30.04 in1017.3 mb 0.00 in0.0 mm 0.00 in0.0 mm 0.00 in0.0 mm
01:44 PM 67.8°F19.9°C 51.5°F10.8°C 56% 9.0 mph SW14.5 kmh SW 19.0 mph30.6 kmh 30.04 in1017.3 mb 0.00 in0.0 mm 0.00 in0.0 mm 0.00 in0.0 mm
01:43 PM 67.8°F19.9°C 51.0°F10.6°C 55% 9.0 mph SSW14.5 kmh SSW 19.0 mph30.6 kmh 30.03 in1016.9 mb 0.00 in0.0 mm 0.00 in0.0 mm 0.00 in0.0 mm
01:42 PM 67.8°F19.9°C 50.5°F10.3°C 54% 19.0 mph SW30.6 kmh SW 19.0 mph30.6 kmh 30.04 in1017.3 mb 0.00 in0.0 mm 0.00 in0.0 mm 0.00 in0.0 mm
01:41 PM 67.9°F19.9°C 50.6°F10.3°C 54% 13.0 mph S20.9 kmh S 18.0 mph29.0 kmh 30.03 in1016.9 mb 0.00 in0.0 mm 0.00 in0.0 mm 0.00 in0.0 mm
01:40 PM 67.8°F19.9°C 51.0°F10.6°C 55% 8.0 mph SSE12.9 kmh SSE 18.0 mph29.0 kmh 30.03 in1016.9 mb 0.00 in0.0 mm 0.00 in0.0 mm 0.00 in0.0 mm
01:39 PM 67.7°F19.8°C 50.9°F10.5°C 55% 10.0 mph SW16.1 kmh SW 18.0 mph29.0 kmh 30.03 in1016.9 mb 0.00 in0.0 mm 0.00 in0.0 mm 0.00 in0.0 mm
01:38 PM 67.6°F19.8°C 49.9°F9.9°C 53% 10.0 mph SSW16.1 kmh SSW 18.0 mph29.0 kmh 30.03 in1016.9 mb 0.00 in0.0 mm 0.00 in0.0 mm 0.00 in0.0 mm
01:37 PM 67.5°F19.7°C 51.2°F10.7°C 56% 11.0 mph S17.7 kmh S 18.0 mph29.0 kmh 30.03 in1016.9 mb 0.00 in0.0 mm 0.00 in0.0 mm 0.00 in0.0 mm
01:36 PM 67.4°F19.7°C 49.7°F9.8°C 53% 9.0 mph S14.5 kmh S 18.0 mph29.0 kmh 30.03 in1016.9 mb 0.00 in0.0 mm 0.00 in0.0 mm 0.00 in0.0 mm
01:35 PM 67.3°F19.6°C 50.1°F10.1°C 54% 3.0 mph S4.8 kmh S 18.0 mph29.0 kmh 30.03 in1016.9 mb 0.00 in0.0 mm 0.00 in0.0 mm 0.00 in0.0 mm
01:34 PM 67.3°F19.6°C 50.1°F10.1°C 54% 11.0 mph SSW17.7 kmh SSW 18.0 mph29.0 kmh 30.04 in1017.3 mb 0.00 in0.0 mm 0.00 in0.0 mm 0.00 in0.0 mm
01:33 PM 67.3°F19.6°C 50.6°F10.3°C 55% 7.0 mph S11.3 kmh S 18.0 mph29.0 kmh 30.03 in1016.9 mb 0.00 in0.0 mm 0.00 in0.0 mm 0.00 in0.0 mm
01:32 PM 67.3°F19.6°C 50.1°F10.1°C 54% 4.0 mph S6.4 kmh S 18.0 mph29.0 kmh 30.03 in1016.9 mb 0.00 in0.0 mm 0.00 in0.0 mm 0.00 in0.0 mm
01:31 PM 67.4°F19.7°C 49.7°F9.8°C 53% 8.0 mph SW12.9 kmh SW 18.0 mph29.0 kmh 30.04 in1017.3 mb 0.00 in0.0 mm 0.00 in0.0 mm 0.00 in0.0 mm
01:30 PM 67.4°F19.7°C 49.7°F9.8°C 53% 6.0 mph SW9.7 kmh SW 18.0 mph29.0 kmh 30.04 in1017.3 mb 0.00 in0.0 mm 0.00 in0.0 mm 0.00 in0.0 mm
01:29 PM 67.5°F19.7°C 49.2°F9.6°C 52% 6.0 mph SW9.7 kmh SW 18.0 mph29.0 kmh 30.03 in1016.9 mb 0.00 in0.0 mm 0.00 in0.0 mm 0.00 in0.0 mm
01:28 PM 67.6°F19.8°C 48.8°F9.3°C 51% 6.0 mph SSW9.7 kmh SSW 18.0 mph29.0 kmh 30.03 in1016.9 mb 0.00 in0.0 mm 0.00 in0.0 mm 0.00 in0.0 mm
01:27 PM 67.8°F19.9°C 49.0°F9.4°C 51% 13.0 mph S20.9 kmh S 18.0 mph29.0 kmh 30.03 in1016.9 mb 0.00 in0.0 mm 0.00 in0.0 mm 0.00 in0.0 mm
01:26 PM 67.9°F19.9°C 49.1°F9.5°C 51% 8.0 mph S12.9 kmh S 18.0 mph29.0 kmh 30.03 in1016.9 mb 0.00 in0.0 mm 0.00 in0.0 mm 0.00 in0.0 mm
01:25 PM 68.1°F20.1°C 49.3°F9.6°C 51% 13.0 mph SW20.9 kmh SW 14.0 mph22.5 kmh 30.03 in1016.9 mb 0.00 in0.0 mm 0.00 in0.0 mm 0.00 in0.0 mm
01:24 PM 68.2°F20.1°C 48.3°F9.1°C 49% 8.0 mph SSW12.9 kmh SSW 14.0 mph22.5 kmh 30.03 in1016.9 mb 0.00 in0.0 mm 0.00 in0.0 mm 0.00 in0.0 mm
01:23 PM 68.3°F20.2°C 50.0°F10.0°C 52% 7.0 mph S11.3 kmh S 14.0 mph22.5 kmh 30.03 in1016.9 mb 0.00 in0.0 mm 0.00 in0.0 mm 0.00 in0.0 mm
01:22 PM 68.4°F20.2°C 50.6°F10.3°C 53% 3.0 mph NW4.8 kmh NW 14.0 mph22.5 kmh 30.03 in1016.9 mb 0.00 in0.0 mm 0.00 in0.0 mm 0.00 in0.0 mm
01:21 PM 68.4°F20.2°C 51.6°F10.9°C 55% 7.0 mph SSW11.3 kmh SSW 14.0 mph22.5 kmh 30.04 in1017.3 mb 0.00 in0.0 mm 0.00 in0.0 mm 0.00 in0.0 mm
01:20 PM 68.3°F20.2°C 51.0°F10.6°C 54% 5.0 mph SW8.0 kmh SW 14.0 mph22.5 kmh 30.04 in1017.3 mb 0.00 in0.0 mm 0.00 in0.0 mm 0.00 in0.0 mm
01:19 PM 68.2°F20.1°C 50.9°F10.5°C 54% 3.0 mph WSW4.8 kmh WSW 14.0 mph22.5 kmh 30.04 in1017.3 mb 0.00 in0.0 mm 0.00 in0.0 mm 0.00 in0.0 mm
01:18 PM 68.1°F20.1°C 51.3°F10.7°C 55% 5.0 mph SW8.0 kmh SW 14.0 mph22.5 kmh 30.03 in1016.9 mb 0.00 in0.0 mm 0.00 in0.0 mm 0.00 in0.0 mm
01:17 PM 68.0°F20.0°C 50.7°F10.4°C 54% 5.0 mph SSW8.0 kmh SSW 14.0 mph22.5 kmh 30.03 in1016.9 mb 0.00 in0.0 mm 0.00 in0.0 mm 0.00 in0.0 mm
01:16 PM 67.9°F19.9°C 50.1°F10.1°C 53% 4.0 mph S6.4 kmh S 14.0 mph22.5 kmh 30.03 in1016.9 mb 0.00 in0.0 mm 0.00 in0.0 mm 0.00 in0.0 mm
01:15 PM 67.8°F19.9°C 50.5°F10.3°C 54% 4.0 mph SSW6.4 kmh SSW 14.0 mph22.5 kmh 30.03 in1016.9 mb 0.00 in0.0 mm 0.00 in0.0 mm 0.00 in0.0 mm
01:14 PM 67.7°F19.8°C 51.4°F10.8°C 56% 6.0 mph S9.7 kmh S 14.0 mph22.5 kmh 30.03 in1016.9 mb 0.00 in0.0 mm 0.00 in0.0 mm 0.00 in0.0 mm
01:13 PM 67.5°F19.7°C 50.8°F10.4°C 55% 5.0 mph S8.0 kmh S 14.0 mph22.5 kmh 30.03 in1016.9 mb 0.00 in0.0 mm 0.00 in0.0 mm 0.00 in0.0 mm
01:12 PM 67.4°F19.7°C 50.2°F10.1°C 54% 6.0 mph SSW9.7 kmh SSW 14.0 mph22.5 kmh 30.04 in1017.3 mb 0.00 in0.0 mm 0.00 in0.0 mm 0.00 in0.0 mm
01:11 PM 67.3°F19.6°C 50.6°F10.3°C 55% 12.0 mph SW19.3 kmh SW 14.0 mph22.5 kmh 30.03 in1016.9 mb 0.00 in0.0 mm 0.00 in0.0 mm 0.00 in0.0 mm
01:10 PM 67.2°F19.6°C 50.5°F10.3°C 55% 3.0 mph SW4.8 kmh SW 14.0 mph22.5 kmh 30.04 in1017.3 mb 0.00 in0.0 mm 0.00 in0.0 mm 0.00 in0.0 mm
01:09 PM 67.3°F19.6°C 50.1°F10.1°C 54% 8.0 mph S12.9 kmh S 14.0 mph22.5 kmh 30.04 in1017.3 mb 0.00 in0.0 mm 0.00 in0.0 mm 0.00 in0.0 mm
01:08 PM 67.3°F19.6°C 49.6°F9.8°C 53% 6.0 mph SW9.7 kmh SW 13.0 mph20.9 kmh 30.04 in1017.3 mb 0.00 in0.0 mm 0.00 in0.0 mm 0.00 in0.0 mm
01:07 PM 67.2°F19.6°C 50.0°F10.0°C 54% 7.0 mph S11.3 kmh S 13.0 mph20.9 kmh 30.04 in1017.3 mb 0.00 in0.0 mm 0.00 in0.0 mm 0.00 in0.0 mm
01:06 PM 67.2°F19.6°C 50.5°F10.3°C 55% 1.0 mph S1.6 kmh S 18.0 mph29.0 kmh 30.04 in1017.3 mb 0.00 in0.0 mm 0.00 in0.0 mm 0.00 in0.0 mm
01:05 PM 67.1°F19.5°C 49.4°F9.7°C 53% 3.0 mph S4.8 kmh S 18.0 mph29.0 kmh 30.04 in1017.3 mb 0.00 in0.0 mm 0.00 in0.0 mm 0.00 in0.0 mm
01:04 PM 67.1°F19.5°C 49.9°F9.9°C 54% 3.0 mph SW4.8 kmh SW 18.0 mph29.0 kmh 30.04 in1017.3 mb 0.00 in0.0 mm 0.00 in0.0 mm 0.00 in0.0 mm
01:03 PM 67.0°F19.4°C 48.8°F9.3°C 52% 3.0 mph S4.8 kmh S 18.0 mph29.0 kmh 30.03 in1016.9 mb 0.00 in0.0 mm 0.00 in0.0 mm 0.00 in0.0 mm
01:02 PM 67.0°F19.4°C 49.3°F9.6°C 53% 6.0 mph SW9.7 kmh SW 18.0 mph29.0 kmh 30.04 in1017.3 mb 0.00 in0.0 mm 0.00 in0.0 mm 0.00 in0.0 mm
01:01 PM 67.0°F19.4°C 49.3°F9.6°C 53% 5.0 mph SSW8.0 kmh SSW 18.0 mph29.0 kmh 30.03 in1016.9 mb 0.00 in0.0 mm 0.00 in0.0 mm 0.00 in0.0 mm
01:00 PM 67.0°F19.4°C 49.8°F9.9°C 54% 8.0 mph S12.9 kmh S 18.0 mph29.0 kmh 30.04 in1017.3 mb 0.00 in0.0 mm 0.00 in0.0 mm 0.00 in0.0 mm
12:59 PM 67.0°F19.4°C 49.8°F9.9°C 54% 3.0 mph SW4.8 kmh SW 18.0 mph29.0 kmh 30.03 in1016.9 mb 0.00 in0.0 mm 0.00 in0.0 mm 0.00 in0.0 mm
12:58 PM 67.1°F19.5°C 49.4°F9.7°C 53% 4.0 mph S6.4 kmh S 18.0 mph29.0 kmh 30.03 in1016.9 mb 0.00 in0.0 mm 0.00 in0.0 mm 0.00 in0.0 mm
12:57 PM 67.2°F19.6°C 49.5°F9.7°C 53% 7.0 mph SSW11.3 kmh SSW 18.0 mph29.0 kmh 30.03 in1016.9 mb 0.00 in0.0 mm 0.00 in0.0 mm 0.00 in0.0 mm
12:56 PM 67.4°F19.7°C 49.2°F9.6°C 52% 9.0 mph SW14.5 kmh SW 18.0 mph29.0 kmh 30.03 in1016.9 mb 0.00 in0.0 mm 0.00 in0.0 mm 0.00 in0.0 mm
12:55 PM 67.5°F19.7°C 50.3°F10.2°C 54% 8.0 mph SSW12.9 kmh SSW 18.0 mph29.0 kmh 30.03 in1016.9 mb 0.00 in0.0 mm 0.00 in0.0 mm 0.00 in0.0 mm
12:54 PM 67.6°F19.8°C 49.9°F9.9°C 53% 4.0 mph W6.4 kmh W 18.0 mph29.0 kmh 30.03 in1016.9 mb 0.00 in0.0 mm 0.00 in0.0 mm 0.00 in0.0 mm
12:53 PM 67.6°F19.8°C 50.4°F10.2°C 54% 3.0 mph S4.8 kmh S 18.0 mph29.0 kmh 30.03 in1016.9 mb 0.00 in0.0 mm 0.00 in0.0 mm 0.00 in0.0 mm
12:52 PM 67.7°F19.8°C 49.9°F9.9°C 53% 5.0 mph S8.0 kmh S 18.0 mph29.0 kmh 30.03 in1016.9 mb 0.00 in0.0 mm 0.00 in0.0 mm 0.00 in0.0 mm
12:51 PM 67.8°F19.9°C 49.5°F9.7°C 52% 5.0 mph S8.0 kmh S 18.0 mph29.0 kmh 30.03 in1016.9 mb 0.00 in0.0 mm 0.00 in0.0 mm 0.00 in0.0 mm
12:50 PM 68.1°F20.1°C 49.8°F9.9°C 52% 12.0 mph SSW19.3 kmh SSW 18.0 mph29.0 kmh 30.03 in1016.9 mb 0.00 in0.0 mm 0.00 in0.0 mm 0.00 in0.0 mm
12:49 PM 68.3°F20.2°C 50.5°F10.3°C 53% 6.0 mph SW9.7 kmh SW 18.0 mph29.0 kmh 30.03 in1016.9 mb 0.00 in0.0 mm 0.00 in0.0 mm 0.00 in0.0 mm
12:48 PM 68.4°F20.2°C 50.1°F10.1°C 52% 9.0 mph SSW14.5 kmh SSW 18.0 mph29.0 kmh 30.03 in1016.9 mb 0.00 in0.0 mm 0.00 in0.0 mm 0.00 in0.0 mm
12:47 PM 68.5°F20.3°C 50.7°F10.4°C 53% 10.0 mph SW16.1 kmh SW 18.0 mph29.0 kmh 30.03 in1016.9 mb 0.00 in0.0 mm 0.00 in0.0 mm 0.00 in0.0 mm
12:46 PM 68.5°F20.3°C 50.2°F10.1°C 52% 7.0 mph SW11.3 kmh SW 17.0 mph27.4 kmh 30.03 in1016.9 mb 0.00 in0.0 mm 0.00 in0.0 mm 0.00 in0.0 mm
12:45 PM 68.7°F20.4°C 50.4°F10.2°C 52% 9.0 mph S14.5 kmh S 17.0 mph27.4 kmh 30.03 in1016.9 mb 0.00 in0.0 mm 0.00 in0.0 mm 0.00 in0.0 mm
12:44 PM 68.8°F20.4°C 50.4°F10.2°C 52% 9.0 mph S14.5 kmh S 17.0 mph27.4 kmh 30.03 in1016.9 mb 0.00 in0.0 mm 0.00 in0.0 mm 0.00 in0.0 mm
12:43 PM 68.9°F20.5°C 50.5°F10.3°C 52% 8.0 mph S12.9 kmh S 17.0 mph27.4 kmh 30.03 in1016.9 mb 0.00 in0.0 mm 0.00 in0.0 mm 0.00 in0.0 mm
12:42 PM 68.8°F20.4°C 51.0°F10.6°C 53% 3.0 mph SSW4.8 kmh SSW 17.0 mph27.4 kmh 30.03 in1016.9 mb 0.00 in0.0 mm 0.00 in0.0 mm 0.00 in0.0 mm
12:41 PM 68.8°F20.4°C 50.4°F10.2°C 52% 4.0 mph SSW6.4 kmh SSW 17.0 mph27.4 kmh 30.03 in1016.9 mb 0.00 in0.0 mm 0.00 in0.0 mm 0.00 in0.0 mm
12:40 PM 68.8°F20.4°C 50.4°F10.2°C 52% 5.0 mph ESE8.0 kmh ESE 17.0 mph27.4 kmh 30.03 in1016.9 mb 0.00 in0.0 mm 0.00 in0.0 mm 0.00 in0.0 mm
12:39 PM 68.7°F20.4°C 49.8°F9.9°C 51% 8.0 mph WSW12.9 kmh WSW 17.0 mph27.4 kmh 30.03 in1016.9 mb 0.00 in0.0 mm 0.00 in0.0 mm 0.00 in0.0 mm
12:38 PM 68.7°F20.4°C 50.4°F10.2°C 52% 10.0 mph S16.1 kmh S 17.0 mph27.4 kmh 30.03 in1016.9 mb 0.00 in0.0 mm 0.00 in0.0 mm 0.00 in0.0 mm
12:37 PM 68.7°F20.4°C 50.4°F10.2°C 52% 3.0 mph SW4.8 kmh SW 17.0 mph27.4 kmh 30.03 in1016.9 mb 0.00 in0.0 mm 0.00 in0.0 mm 0.00 in0.0 mm
12:36 PM 68.7°F20.4°C 50.9°F10.5°C 53% 6.0 mph SW9.7 kmh SW 17.0 mph27.4 kmh 30.03 in1016.9 mb 0.00 in0.0 mm 0.00 in0.0 mm 0.00 in0.0 mm
12:35 PM 68.7°F20.4°C 50.4°F10.2°C 52% 7.0 mph SW11.3 kmh SW 17.0 mph27.4 kmh 30.03 in1016.9 mb 0.00 in0.0 mm 0.00 in0.0 mm 0.00 in0.0 mm
12:34 PM 68.9°F20.5°C 50.5°F10.3°C 52% 12.0 mph S19.3 kmh S 14.0 mph22.5 kmh 30.03 in1016.9 mb 0.00 in0.0 mm 0.00 in0.0 mm 0.00 in0.0 mm
12:33 PM 69.0°F20.6°C 50.6°F10.3°C 52% 6.0 mph SSW9.7 kmh SSW 14.0 mph22.5 kmh 30.03 in1016.9 mb 0.00 in0.0 mm 0.00 in0.0 mm 0.00 in0.0 mm
12:32 PM 69.0°F20.6°C 50.6°F10.3°C 52% 5.0 mph S8.0 kmh S 14.0 mph22.5 kmh 30.03 in1016.9 mb 0.00 in0.0 mm 0.00 in0.0 mm 0.00 in0.0 mm
12:31 PM 69.1°F20.6°C 51.7°F10.9°C 54% 6.0 mph NW9.7 kmh NW 13.0 mph20.9 kmh 30.03 in1016.9 mb 0.00 in0.0 mm 0.00 in0.0 mm 0.00 in0.0 mm
12:30 PM 69.2°F20.7°C 50.8°F10.4°C 52% 4.0 mph ENE6.4 kmh ENE 13.0 mph20.9 kmh 30.03 in1016.9 mb 0.00 in0.0 mm 0.00 in0.0 mm 0.00 in0.0 mm
12:29 PM 69.3°F20.7°C 50.9°F10.5°C 52% 8.0 mph S12.9 kmh S 13.0 mph20.9 kmh 30.03 in1016.9 mb 0.00 in0.0 mm 0.00 in0.0 mm 0.00 in0.0 mm
12:28 PM 69.4°F20.8°C 52.0°F11.1°C 54% 4.0 mph S6.4 kmh S 13.0 mph20.9 kmh 30.03 in1016.9 mb 0.00 in0.0 mm 0.00 in0.0 mm 0.00 in0.0 mm
12:27 PM 69.4°F20.8°C 52.0°F11.1°C 54% 7.0 mph S11.3 kmh S 13.0 mph20.9 kmh 30.03 in1016.9 mb 0.00 in0.0 mm 0.00 in0.0 mm 0.00 in0.0 mm
12:26 PM 69.4°F20.8°C 51.0°F10.6°C 52% 8.0 mph S12.9 kmh S 13.0 mph20.9 kmh 30.03 in1016.9 mb 0.00 in0.0 mm 0.00 in0.0 mm 0.00 in0.0 mm
12:25 PM 69.5°F20.8°C 50.6°F10.3°C 51% 6.0 mph SW9.7 kmh SW 13.0 mph20.9 kmh 30.03 in1016.9 mb 0.00 in0.0 mm 0.00 in0.0 mm 0.00 in0.0 mm
12:24 PM 69.6°F20.9°C 52.2°F11.2°C 54% 4.0 mph S6.4 kmh S 14.0 mph22.5 kmh 30.03 in1016.9 mb 0.00 in0.0 mm 0.00 in0.0 mm 0.00 in0.0 mm
12:23 PM 69.7°F20.9°C 50.8°F10.4°C 51% 8.0 mph S12.9 kmh S 14.0 mph22.5 kmh 30.03 in1016.9 mb 0.00 in0.0 mm 0.00 in0.0 mm 0.00 in0.0 mm
12:22 PM 69.8°F21.0°C 52.4°F11.3°C 54% 9.0 mph SW14.5 kmh SW 14.0 mph22.5 kmh 30.03 in1016.9 mb 0.00 in0.0 mm 0.00 in0.0 mm 0.00 in0.0 mm
12:21 PM 69.7°F20.9°C 51.8°F11.0°C 53% 3.0 mph SSW4.8 kmh SSW 14.0 mph22.5 kmh 30.03 in1016.9 mb 0.00 in0.0 mm 0.00 in0.0 mm 0.00 in0.0 mm
12:20 PM 69.6°F20.9°C 51.2°F10.7°C 52% Calm Calm 14.0 mph22.5 kmh 30.03 in1016.9 mb 0.00 in0.0 mm 0.00 in0.0 mm 0.00 in0.0 mm
12:19 PM 69.5°F20.8°C 51.6°F10.9°C 53% 4.0 mph SE6.4 kmh SE 14.0 mph22.5 kmh 30.03 in1016.9 mb 0.00 in0.0 mm 0.00 in0.0 mm 0.00 in0.0 mm
12:18 PM 69.4°F20.8°C 51.5°F10.8°C 53% 2.0 mph S3.2 kmh S 14.0 mph22.5 kmh 30.03 in1016.9 mb 0.00 in0.0 mm 0.00 in0.0 mm 0.00 in0.0 mm
12:17 PM 69.4°F20.8°C 52.0°F11.1°C 54% 3.0 mph SSW4.8 kmh SSW 14.0 mph22.5 kmh 30.03 in1016.9 mb 0.00 in0.0 mm 0.00 in0.0 mm 0.00 in0.0 mm
12:16 PM 69.2°F20.7°C 51.8°F11.0°C 54% 3.0 mph S4.8 kmh S 14.0 mph22.5 kmh 30.03 in1016.9 mb 0.00 in0.0 mm 0.00 in0.0 mm 0.00 in0.0 mm
12:15 PM 69.1°F20.6°C 50.7°F10.4°C 52% 1.0 mph W1.6 kmh W 14.0 mph22.5 kmh 30.03 in1016.9 mb 0.00 in0.0 mm 0.00 in0.0 mm 0.00 in0.0 mm
12:14 PM 69.0°F20.6°C 51.7°F10.9°C 54% 11.0 mph NW17.7 kmh NW 14.0 mph22.5 kmh 30.03 in1016.9 mb 0.00 in0.0 mm 0.00 in0.0 mm 0.00 in0.0 mm
12:13 PM 68.9°F20.5°C 52.1°F11.2°C 55% 5.0 mph SSW8.0 kmh SSW 14.0 mph22.5 kmh 30.03 in1016.9 mb 0.00 in0.0 mm 0.00 in0.0 mm 0.00 in0.0 mm
12:12 PM 68.8°F20.4°C 51.5°F10.8°C 54% 2.0 mph SSW3.2 kmh SSW 14.0 mph22.5 kmh 30.03 in1016.9 mb 0.00 in0.0 mm 0.00 in0.0 mm 0.00 in0.0 mm
12:11 PM 68.8°F20.4°C 52.0°F11.1°C 55% 7.0 mph S11.3 kmh S 14.0 mph22.5 kmh 30.03 in1016.9 mb 0.00 in0.0 mm 0.00 in0.0 mm 0.00 in0.0 mm
12:10 PM 68.7°F20.4°C 50.9°F10.5°C 53% 4.0 mph SW6.4 kmh SW 14.0 mph22.5 kmh 30.03 in1016.9 mb 0.00 in0.0 mm 0.00 in0.0 mm 0.00 in0.0 mm
12:09 PM 68.7°F20.4°C 50.9°F10.5°C 53% 7.0 mph SSW11.3 kmh SSW 14.0 mph22.5 kmh 30.03 in1016.9 mb 0.00 in0.0 mm 0.00 in0.0 mm 0.00 in0.0 mm
12:08 PM 68.7°F20.4°C 50.9°F10.5°C 53% 4.0 mph S6.4 kmh S 14.0 mph22.5 kmh 30.03 in1016.9 mb 0.00 in0.0 mm 0.00 in0.0 mm 0.00 in0.0 mm
12:07 PM 68.7°F20.4°C 51.4°F10.8°C 54% 7.0 mph S11.3 kmh S 14.0 mph22.5 kmh 30.03 in1016.9 mb 0.00 in0.0 mm 0.00 in0.0 mm 0.00 in0.0 mm
12:06 PM 68.6°F20.3°C 51.8°F11.0°C 55% 5.0 mph SW8.0 kmh SW 14.0 mph22.5 kmh 30.03 in1016.9 mb 0.00 in0.0 mm 0.00 in0.0 mm 0.00 in0.0 mm
12:05 PM 68.5°F20.3°C 50.2°F10.1°C 52% 4.0 mph S6.4 kmh S 14.0 mph22.5 kmh 30.03 in1016.9 mb 0.00 in0.0 mm 0.00 in0.0 mm 0.00 in0.0 mm
12:04 PM 68.5°F20.3°C 50.7°F10.4°C 53% 8.0 mph S12.9 kmh S 13.0 mph20.9 kmh 30.03 in1016.9 mb 0.00 in0.0 mm 0.00 in0.0 mm 0.00 in0.0 mm
12:03 PM 68.5°F20.3°C 51.2°F10.7°C 54% 6.0 mph S9.7 kmh S 13.0 mph20.9 kmh 30.03 in1016.9 mb 0.00 in0.0 mm 0.00 in0.0 mm 0.00 in0.0 mm
12:02 PM 68.4°F20.2°C 51.1°F10.6°C 54% 6.0 mph SSW9.7 kmh SSW 13.0 mph20.9 kmh 30.03 in1016.9 mb 0.00 in0.0 mm 0.00 in0.0 mm 0.00 in0.0 mm
12:01 PM 68.4°F20.2°C 51.1°F10.6°C 54% 7.0 mph SSW11.3 kmh SSW 13.0 mph20.9 kmh 30.03 in1016.9 mb 0.00 in0.0 mm 0.00 in0.0 mm 0.00 in0.0 mm
12:00 PM 68.4°F20.2°C 50.6°F10.3°C 53% 7.0 mph WSW11.3 kmh WSW 13.0 mph20.9 kmh 30.03 in1016.9 mb 0.00 in0.0 mm 0.00 in0.0 mm 0.00 in0.0 mm
11:59 AM 68.4°F20.2°C 50.6°F10.3°C 53% 5.0 mph SSW8.0 kmh SSW 13.0 mph20.9 kmh 30.03 in1016.9 mb 0.00 in0.0 mm 0.00 in0.0 mm 0.00 in0.0 mm
11:58 AM 68.4°F20.2°C 50.6°F10.3°C 53% 10.0 mph SSW16.1 kmh SSW 13.0 mph20.9 kmh 30.03 in1016.9 mb 0.00 in0.0 mm 0.00 in0.0 mm 0.00 in0.0 mm
11:57 AM 68.4°F20.2°C 51.1°F10.6°C 54% 5.0 mph SSW8.0 kmh SSW 19.0 mph30.6 kmh 30.03 in1016.9 mb 0.00 in0.0 mm 0.00 in0.0 mm 0.00 in0.0 mm
11:56 AM 68.3°F20.2°C 50.5°F10.3°C 53% 3.0 mph S4.8 kmh S 19.0 mph30.6 kmh 30.03 in1016.9 mb 0.00 in0.0 mm 0.00 in0.0 mm 0.00 in0.0 mm
11:55 AM 68.3°F20.2°C 50.0°F10.0°C 52% 2.0 mph W3.2 kmh W 19.0 mph30.6 kmh 30.03 in1016.9 mb 0.00 in0.0 mm 0.00 in0.0 mm 0.00 in0.0 mm
11:54 AM 68.3°F20.2°C 50.5°F10.3°C 53% 10.0 mph SW16.1 kmh SW 19.0 mph30.6 kmh 30.03 in1016.9 mb 0.00 in0.0 mm 0.00 in0.0 mm 0.00 in0.0 mm
11:53 AM 68.2°F20.1°C 51.4°F10.8°C 55% 6.0 mph SE9.7 kmh SE 19.0 mph30.6 kmh 30.03 in1016.9 mb 0.00 in0.0 mm 0.00 in0.0 mm 0.00 in0.0 mm
11:52 AM 68.1°F20.1°C 51.3°F10.7°C 55% 11.0 mph SSW17.7 kmh SSW 19.0 mph30.6 kmh 30.03 in1016.9 mb 0.00 in0.0 mm 0.00 in0.0 mm 0.00 in0.0 mm
11:51 AM 68.0°F20.0°C 51.2°F10.7°C 55% 4.0 mph W6.4 kmh W 19.0 mph30.6 kmh 30.03 in1016.9 mb 0.00 in0.0 mm 0.00 in0.0 mm 0.00 in0.0 mm
11:50 AM 67.9°F19.9°C 50.1°F10.1°C 53% 4.0 mph S6.4 kmh S 19.0 mph30.6 kmh 30.03 in1016.9 mb 0.00 in0.0 mm 0.00 in0.0 mm 0.00 in0.0 mm
11:49 AM 67.9°F19.9°C 50.1°F10.1°C 53% 5.0 mph S8.0 kmh S 19.0 mph30.6 kmh 30.03 in1016.9 mb 0.00 in0.0 mm 0.00 in0.0 mm 0.00 in0.0 mm
11:48 AM 67.9°F19.9°C 50.1°F10.1°C 53% 3.0 mph W4.8 kmh W 19.0 mph30.6 kmh 30.03 in1016.9 mb 0.00 in0.0 mm 0.00 in0.0 mm 0.00 in0.0 mm
11:47 AM 67.8°F19.9°C 51.5°F10.8°C 56% 5.0 mph S8.0 kmh S 19.0 mph30.6 kmh 30.03 in1016.9 mb 0.00 in0.0 mm 0.00 in0.0 mm 0.00 in0.0 mm
11:46 AM 67.7°F19.8°C 51.9°F11.1°C 57% 6.0 mph SSW9.7 kmh SSW 19.0 mph30.6 kmh 30.03 in1016.9 mb 0.00 in0.0 mm 0.00 in0.0 mm 0.00 in0.0 mm
11:45 AM 67.6°F19.8°C 50.4°F10.2°C 54% 7.0 mph S11.3 kmh S 19.0 mph30.6 kmh 30.03 in1016.9 mb 0.00 in0.0 mm 0.00 in0.0 mm 0.00 in0.0 mm
11:44 AM 67.5°F19.7°C 50.8°F10.4°C 55% 6.0 mph WSW9.7 kmh WSW 19.0 mph30.6 kmh 30.03 in1016.9 mb 0.00 in0.0 mm 0.00 in0.0 mm 0.00 in0.0 mm
11:43 AM 67.5°F19.7°C 51.2°F10.7°C 56% 7.0 mph SSW11.3 kmh SSW 19.0 mph30.6 kmh 30.03 in1016.9 mb 0.00 in0.0 mm 0.00 in0.0 mm 0.00 in0.0 mm
11:42 AM 67.5°F19.7°C 51.2°F10.7°C 56% 9.0 mph S14.5 kmh S 19.0 mph30.6 kmh 30.03 in1016.9 mb 0.00 in0.0 mm 0.00 in0.0 mm 0.00 in0.0 mm
11:41 AM 67.4°F19.7°C 51.6°F10.9°C 57% 3.0 mph S4.8 kmh S 19.0 mph30.6 kmh 30.03 in1016.9 mb 0.00 in0.0 mm 0.00 in0.0 mm 0.00 in0.0 mm
11:40 AM 67.4°F19.7°C 50.7°F10.4°C 55% 3.0 mph S4.8 kmh S 19.0 mph30.6 kmh 30.03 in1016.9 mb 0.00 in0.0 mm 0.00 in0.0 mm 0.00 in0.0 mm
11:39 AM 67.4°F19.7°C 49.2°F9.6°C 52% 7.0 mph S11.3 kmh S 19.0 mph30.6 kmh 30.03 in1016.9 mb 0.00 in0.0 mm 0.00 in0.0 mm 0.00 in0.0 mm
11:38 AM 67.5°F19.7°C 50.3°F10.2°C 54% 10.0 mph SSW16.1 kmh SSW 19.0 mph30.6 kmh 30.03 in1016.9 mb 0.00 in0.0 mm 0.00 in0.0 mm 0.00 in0.0 mm
11:37 AM 67.6°F19.8°C 50.8°F10.4°C 55% 14.0 mph SSW22.5 kmh SSW 15.0 mph24.1 kmh 30.03 in1016.9 mb 0.00 in0.0 mm 0.00 in0.0 mm 0.00 in0.0 mm
11:36 AM 67.6°F19.8°C 52.3°F11.3°C 58% 9.0 mph S14.5 kmh S 15.0 mph24.1 kmh 30.03 in1016.9 mb 0.00 in0.0 mm 0.00 in0.0 mm 0.00 in0.0 mm
11:35 AM 67.4°F19.7°C 51.6°F10.9°C 57% 7.0 mph S11.3 kmh S 15.0 mph24.1 kmh 30.03 in1016.9 mb 0.00 in0.0 mm 0.00 in0.0 mm 0.00 in0.0 mm
11:34 AM 67.3°F19.6°C 51.1°F10.6°C 56% 7.0 mph SSE11.3 kmh SSE 17.0 mph27.4 kmh 30.03 in1016.9 mb 0.00 in0.0 mm 0.00 in0.0 mm 0.00 in0.0 mm
11:33 AM 67.2°F19.6°C 51.0°F10.6°C 56% 6.0 mph SW9.7 kmh SW 17.0 mph27.4 kmh 30.03 in1016.9 mb 0.00 in0.0 mm 0.00 in0.0 mm 0.00 in0.0 mm
11:32 AM 67.0°F19.4°C 51.3°F10.7°C 57% 8.0 mph SSW12.9 kmh SSW 17.0 mph27.4 kmh 30.03 in1016.9 mb 0.00 in0.0 mm 0.00 in0.0 mm 0.00 in0.0 mm
11:31 AM 66.8°F19.3°C 51.5°F10.8°C 58% 4.0 mph S6.4 kmh S 17.0 mph27.4 kmh 30.03 in1016.9 mb 0.00 in0.0 mm 0.00 in0.0 mm 0.00 in0.0 mm
11:30 AM 66.7°F19.3°C 50.5°F10.3°C 56% 7.0 mph SSW11.3 kmh SSW 17.0 mph27.4 kmh 30.03 in1016.9 mb 0.00 in0.0 mm 0.00 in0.0 mm 0.00 in0.0 mm
11:29 AM 66.6°F19.2°C 50.9°F10.5°C 57% 7.0 mph SSW11.3 kmh SSW 17.0 mph27.4 kmh 30.03 in1016.9 mb 0.00 in0.0 mm 0.00 in0.0 mm 0.00 in0.0 mm
11:28 AM 66.6°F19.2°C 50.9°F10.5°C 57% 8.0 mph SW12.9 kmh SW 17.0 mph27.4 kmh 30.03 in1016.9 mb 0.00 in0.0 mm 0.00 in0.0 mm 0.00 in0.0 mm
11:27 AM 66.6°F19.2°C 50.4°F10.2°C 56% 10.0 mph SW16.1 kmh SW 17.0 mph27.4 kmh 30.03 in1016.9 mb 0.00 in0.0 mm 0.00 in0.0 mm 0.00 in0.0 mm
11:26 AM 66.7°F19.3°C 50.5°F10.3°C 56% 11.0 mph S17.7 kmh S 17.0 mph27.4 kmh 30.03 in1016.9 mb 0.00 in0.0 mm 0.00 in0.0 mm 0.00 in0.0 mm
11:25 AM 66.8°F19.3°C 50.1°F10.1°C 55% 9.0 mph S14.5 kmh S 17.0 mph27.4 kmh 30.03 in1016.9 mb 0.00 in0.0 mm 0.00 in0.0 mm 0.00 in0.0 mm
11:24 AM 66.9°F19.4°C 50.2°F10.1°C 55% 12.0 mph SW19.3 kmh SW 17.0 mph27.4 kmh 30.03 in1016.9 mb 0.00 in0.0 mm 0.00 in0.0 mm 0.00 in0.0 mm
11:23 AM 67.0°F19.4°C 50.8°F10.4°C 56% 6.0 mph SW9.7 kmh SW 17.0 mph27.4 kmh 30.03 in1016.9 mb 0.00 in0.0 mm 0.00 in0.0 mm 0.00 in0.0 mm
11:22 AM 67.0°F19.4°C 50.3°F10.2°C 55% 4.0 mph S6.4 kmh S 17.0 mph27.4 kmh 30.03 in1016.9 mb 0.00 in0.0 mm 0.00 in0.0 mm 0.00 in0.0 mm
11:21 AM 66.9°F19.4°C 52.1°F11.2°C 59% 7.0 mph SSW11.3 kmh SSW 17.0 mph27.4 kmh 30.03 in1016.9 mb 0.00 in0.0 mm 0.00 in0.0 mm 0.00 in0.0 mm
11:20 AM 66.8°F19.3°C 51.5°F10.8°C 58% 2.0 mph SSW3.2 kmh SSW 17.0 mph27.4 kmh 30.03 in1016.9 mb 0.00 in0.0 mm 0.00 in0.0 mm 0.00 in0.0 mm
11:19 AM 66.7°F19.3°C 51.9°F11.1°C 59% 7.0 mph SSW11.3 kmh SSW 17.0 mph27.4 kmh 30.03 in1016.9 mb 0.00 in0.0 mm 0.00 in0.0 mm 0.00 in0.0 mm
11:18 AM 66.6°F19.2°C 51.4°F10.8°C 58% 3.0 mph SSW4.8 kmh SSW 17.0 mph27.4 kmh 30.03 in1016.9 mb 0.00 in0.0 mm 0.00 in0.0 mm 0.00 in0.0 mm
11:17 AM 66.6°F19.2°C 51.4°F10.8°C 58% 11.0 mph S17.7 kmh S 17.0 mph27.4 kmh 30.03 in1016.9 mb 0.00 in0.0 mm 0.00 in0.0 mm 0.00 in0.0 mm
11:16 AM 66.5°F19.2°C 50.8°F10.4°C 57% 6.0 mph S9.7 kmh S 17.0 mph27.4 kmh 30.03 in1016.9 mb 0.00 in0.0 mm 0.00 in0.0 mm 0.00 in0.0 mm
11:15 AM 66.7°F19.3°C 51.0°F10.6°C 57% 5.0 mph S8.0 kmh S 17.0 mph27.4 kmh 30.03 in1016.9 mb 0.00 in0.0 mm 0.00 in0.0 mm 0.00 in0.0 mm
11:14 AM 66.8°F19.3°C 51.1°F10.6°C 57% 8.0 mph S12.9 kmh S 15.0 mph24.1 kmh 30.03 in1016.9 mb 0.00 in0.0 mm 0.00 in0.0 mm 0.00 in0.0 mm
11:13 AM 66.7°F19.3°C 51.4°F10.8°C 58% 6.0 mph SW9.7 kmh SW 15.0 mph24.1 kmh 30.03 in1016.9 mb 0.00 in0.0 mm 0.00 in0.0 mm 0.00 in0.0 mm
11:12 AM 66.8°F19.3°C 51.1°F10.6°C 57% 6.0 mph S9.7 kmh S 15.0 mph24.1 kmh 30.03 in1016.9 mb 0.00 in0.0 mm 0.00 in0.0 mm 0.00 in0.0 mm
11:11 AM 66.8°F19.3°C 51.1°F10.6°C 57% 9.0 mph S14.5 kmh S 14.0 mph22.5 kmh 30.03 in1016.9 mb 0.00 in0.0 mm 0.00 in0.0 mm 0.00 in0.0 mm
11:10 AM 66.9°F19.4°C 51.2°F10.7°C 57% 9.0 mph S14.5 kmh S 14.0 mph22.5 kmh 30.03 in1016.9 mb 0.00 in0.0 mm 0.00 in0.0 mm 0.00 in0.0 mm
11:09 AM 66.9°F19.4°C 50.7°F10.4°C 56% 5.0 mph SW8.0 kmh SW 13.0 mph20.9 kmh 30.03 in1016.9 mb 0.00 in0.0 mm 0.00 in0.0 mm 0.00 in0.0 mm
11:08 AM 66.8°F19.3°C 51.1°F10.6°C 57% 2.0 mph WSW3.2 kmh WSW 13.0 mph20.9 kmh 30.03 in1016.9 mb 0.00 in0.0 mm 0.00 in0.0 mm 0.00 in0.0 mm
11:07 AM 66.8°F19.3°C 52.9°F11.6°C 61% 3.0 mph WSW4.8 kmh WSW 13.0 mph20.9 kmh 30.03 in1016.9 mb 0.00 in0.0 mm 0.00 in0.0 mm 0.00 in0.0 mm
11:06 AM 66.6°F19.2°C 50.9°F10.5°C 57% 3.0 mph SSW4.8 kmh SSW 13.0 mph20.9 kmh 30.03 in1016.9 mb 0.00 in0.0 mm 0.00 in0.0 mm 0.00 in0.0 mm
11:05 AM 66.5°F19.2°C 51.3°F10.7°C 58% 2.0 mph SW3.2 kmh SW 13.0 mph20.9 kmh 30.03 in1016.9 mb 0.00 in0.0 mm 0.00 in0.0 mm 0.00 in0.0 mm
11:04 AM 66.4°F19.1°C 51.2°F10.7°C 58% 3.0 mph W4.8 kmh W 13.0 mph20.9 kmh 30.03 in1016.9 mb 0.00 in0.0 mm 0.00 in0.0 mm 0.00 in0.0 mm
11:03 AM 66.3°F19.1°C 51.1°F10.6°C 58% 4.0 mph W6.4 kmh W 13.0 mph20.9 kmh 30.03 in1016.9 mb 0.00 in0.0 mm 0.00 in0.0 mm 0.00 in0.0 mm
11:02 AM 66.3°F19.1°C 51.1°F10.6°C 58% 1.0 mph SSW1.6 kmh SSW 13.0 mph20.9 kmh 30.03 in1016.9 mb 0.00 in0.0 mm 0.00 in0.0 mm 0.00 in0.0 mm
11:01 AM 66.3°F19.1°C 51.1°F10.6°C 58% 3.0 mph SW4.8 kmh SW 13.0 mph20.9 kmh 30.03 in1016.9 mb 0.00 in0.0 mm 0.00 in0.0 mm 0.00 in0.0 mm
11:00 AM 66.3°F19.1°C 51.5°F10.8°C 59% 9.0 mph SW14.5 kmh SW 13.0 mph20.9 kmh 30.03 in1016.9 mb 0.00 in0.0 mm 0.00 in0.0 mm 0.00 in0.0 mm
10:59 AM 66.2°F19.0°C 51.0°F10.6°C 58% 7.0 mph SSW11.3 kmh SSW 13.0 mph20.9 kmh 30.03 in1016.9 mb 0.00 in0.0 mm 0.00 in0.0 mm 0.00 in0.0 mm
10:58 AM 66.2°F19.0°C 51.4°F10.8°C 59% 5.0 mph S8.0 kmh S 13.0 mph20.9 kmh 30.03 in1016.9 mb 0.00 in0.0 mm 0.00 in0.0 mm 0.00 in0.0 mm
10:57 AM 66.1°F18.9°C 50.9°F10.5°C 58% 7.0 mph SSW11.3 kmh SSW 13.0 mph20.9 kmh 30.03 in1016.9 mb 0.00 in0.0 mm 0.00 in0.0 mm 0.00 in0.0 mm
10:56 AM 66.1°F18.9°C 50.9°F10.5°C 58% 7.0 mph S11.3 kmh S 13.0 mph20.9 kmh 30.03 in1016.9 mb 0.00 in0.0 mm 0.00 in0.0 mm 0.00 in0.0 mm
10:55 AM 66.1°F18.9°C 51.3°F10.7°C 59% 7.0 mph S11.3 kmh S 13.0 mph20.9 kmh 30.03 in1016.9 mb 0.00 in0.0 mm 0.00 in0.0 mm 0.00 in0.0 mm
10:54 AM 66.0°F18.9°C 50.8°F10.4°C 58% 7.0 mph S11.3 kmh S 13.0 mph20.9 kmh 30.03 in1016.9 mb 0.00 in0.0 mm 0.00 in0.0 mm 0.00 in0.0 mm
10:53 AM 66.0°F18.9°C 51.7°F10.9°C 60% 6.0 mph SSW9.7 kmh SSW 13.0 mph20.9 kmh 30.03 in1016.9 mb 0.00 in0.0 mm 0.00 in0.0 mm 0.00 in0.0 mm
10:52 AM 66.0°F18.9°C 50.8°F10.4°C 58% 9.0 mph SSW14.5 kmh SSW 13.0 mph20.9 kmh 30.03 in1016.9 mb 0.00 in0.0 mm 0.00 in0.0 mm 0.00 in0.0 mm
10:51 AM 66.1°F18.9°C 51.3°F10.7°C 59% 6.0 mph WSW9.7 kmh WSW 13.0 mph20.9 kmh 30.03 in1016.9 mb 0.00 in0.0 mm 0.00 in0.0 mm 0.00 in0.0 mm
10:50 AM 66.1°F18.9°C 50.9°F10.5°C 58% 2.0 mph SSW3.2 kmh SSW 13.0 mph20.9 kmh 30.03 in1016.9 mb 0.00 in0.0 mm 0.00 in0.0 mm 0.00 in0.0 mm
10:49 AM 66.1°F18.9°C 50.9°F10.5°C 58% 5.0 mph SSE8.0 kmh SSE 14.0 mph22.5 kmh 30.03 in1016.9 mb 0.00 in0.0 mm 0.00 in0.0 mm 0.00 in0.0 mm
10:48 AM 66.1°F18.9°C 51.3°F10.7°C 59% 7.0 mph S11.3 kmh S 14.0 mph22.5 kmh 30.03 in1016.9 mb 0.00 in0.0 mm 0.00 in0.0 mm 0.00 in0.0 mm
10:47 AM 66.1°F18.9°C 51.3°F10.7°C 59% 8.0 mph S12.9 kmh S 14.0 mph22.5 kmh 30.03 in1016.9 mb 0.00 in0.0 mm 0.00 in0.0 mm 0.00 in0.0 mm
10:46 AM 66.0°F18.9°C 52.2°F11.2°C 61% 7.0 mph SW11.3 kmh SW 14.0 mph22.5 kmh 30.03 in1016.9 mb 0.00 in0.0 mm 0.00 in0.0 mm 0.00 in0.0 mm
10:45 AM 65.8°F18.8°C 52.0°F11.1°C 61% 7.0 mph SW11.3 kmh SW 14.0 mph22.5 kmh 30.03 in1016.9 mb 0.00 in0.0 mm 0.00 in0.0 mm 0.00 in0.0 mm
10:44 AM 65.8°F18.8°C 51.1°F10.6°C 59% 9.0 mph SW14.5 kmh SW 14.0 mph22.5 kmh 30.03 in1016.9 mb 0.00 in0.0 mm 0.00 in0.0 mm 0.00 in0.0 mm
10:43 AM 65.7°F18.7°C 51.4°F10.8°C 60% 5.0 mph S8.0 kmh S 14.0 mph22.5 kmh 30.03 in1016.9 mb 0.00 in0.0 mm 0.00 in0.0 mm 0.00 in0.0 mm
10:42 AM 65.7°F18.7°C 51.9°F11.1°C 61% 10.0 mph SW16.1 kmh SW 14.0 mph22.5 kmh 30.03 in1016.9 mb 0.00 in0.0 mm 0.00 in0.0 mm 0.00 in0.0 mm
10:41 AM 65.5°F18.6°C 52.6°F11.4°C 63% 4.0 mph S6.4 kmh S 14.0 mph22.5 kmh 30.03 in1016.9 mb 0.00 in0.0 mm 0.00 in0.0 mm 0.00 in0.0 mm
10:40 AM 65.2°F18.4°C 51.8°F11.0°C 62% 4.0 mph S6.4 kmh S 14.0 mph22.5 kmh 30.03 in1016.9 mb 0.00 in0.0 mm 0.00 in0.0 mm 0.00 in0.0 mm
10:39 AM 65.0°F18.3°C 51.2°F10.7°C 61% 7.0 mph SSW11.3 kmh SSW 18.0 mph29.0 kmh 30.03 in1016.9 mb 0.00 in0.0 mm 0.00 in0.0 mm 0.00 in0.0 mm
10:38 AM 64.9°F18.3°C 51.1°F10.6°C 61% 7.0 mph S11.3 kmh S 18.0 mph29.0 kmh 30.03 in1016.9 mb 0.00 in0.0 mm 0.00 in0.0 mm 0.00 in0.0 mm
10:37 AM 64.8°F18.2°C 50.6°F10.3°C 60% 6.0 mph S9.7 kmh S 18.0 mph29.0 kmh 30.03 in1016.9 mb 0.00 in0.0 mm 0.00 in0.0 mm 0.00 in0.0 mm
10:36 AM 64.7°F18.2°C 50.9°F10.5°C 61% 7.0 mph S11.3 kmh S 18.0 mph29.0 kmh 30.03 in1016.9 mb 0.00 in0.0 mm 0.00 in0.0 mm 0.00 in0.0 mm
10:35 AM 64.6°F18.1°C 50.8°F10.4°C 61% 4.0 mph SSW6.4 kmh SSW 18.0 mph29.0 kmh 30.03 in1016.9 mb 0.00 in0.0 mm 0.00 in0.0 mm 0.00 in0.0 mm
10:34 AM 64.4°F18.0°C 50.7°F10.4°C 61% 4.0 mph S6.4 kmh S 18.0 mph29.0 kmh 30.03 in1016.9 mb 0.00 in0.0 mm 0.00 in0.0 mm 0.00 in0.0 mm
10:33 AM 64.2°F17.9°C 51.3°F10.7°C 63% 8.0 mph SW12.9 kmh SW 18.0 mph29.0 kmh 30.03 in1016.9 mb 0.00 in0.0 mm 0.00 in0.0 mm 0.00 in0.0 mm
10:32 AM 64.0°F17.8°C 51.6°F10.9°C 64% 8.0 mph SSW12.9 kmh SSW 18.0 mph29.0 kmh 30.03 in1016.9 mb 0.00 in0.0 mm 0.00 in0.0 mm 0.00 in0.0 mm
10:31 AM 63.8°F17.7°C 50.5°F10.3°C 62% 6.0 mph S9.7 kmh S 18.0 mph29.0 kmh 30.03 in1016.9 mb 0.00 in0.0 mm 0.00 in0.0 mm 0.00 in0.0 mm
10:30 AM 63.5°F17.5°C 51.1°F10.6°C 64% 10.0 mph S16.1 kmh S 18.0 mph29.0 kmh 30.03 in1016.9 mb 0.00 in0.0 mm 0.00 in0.0 mm 0.00 in0.0 mm
10:29 AM 63.2°F17.3°C 50.4°F10.2°C 63% 6.0 mph SW9.7 kmh SW 18.0 mph29.0 kmh 30.03 in1016.9 mb 0.00 in0.0 mm 0.00 in0.0 mm 0.00 in0.0 mm
10:28 AM 63.0°F17.2°C 49.3°F9.6°C 61% 8.0 mph SW12.9 kmh SW 18.0 mph29.0 kmh 30.03 in1016.9 mb 0.00 in0.0 mm 0.00 in0.0 mm 0.00 in0.0 mm
10:27 AM 62.9°F17.2°C 49.7°F9.8°C 62% 12.0 mph S19.3 kmh S 18.0 mph29.0 kmh 30.03 in1016.9 mb 0.00 in0.0 mm 0.00 in0.0 mm 0.00 in0.0 mm
10:26 AM 62.7°F17.1°C 49.5°F9.7°C 62% 8.0 mph SSW12.9 kmh SSW 18.0 mph29.0 kmh 30.03 in1016.9 mb 0.00 in0.0 mm 0.00 in0.0 mm 0.00 in0.0 mm
10:25 AM 62.7°F17.1°C 49.5°F9.7°C 62% 8.0 mph SSW12.9 kmh SSW 18.0 mph29.0 kmh 30.03 in1016.9 mb 0.00 in0.0 mm 0.00 in0.0 mm 0.00 in0.0 mm
10:24 AM 62.7°F17.1°C 49.5°F9.7°C 62% 9.0 mph S14.5 kmh S 18.0 mph29.0 kmh 30.03 in1016.9 mb 0.00 in0.0 mm 0.00 in0.0 mm 0.00 in0.0 mm
10:23 AM 62.7°F17.1°C 49.5°F9.7°C 62% 8.0 mph SSW12.9 kmh SSW 18.0 mph29.0 kmh 30.03 in1016.9 mb 0.00 in0.0 mm 0.00 in0.0 mm 0.00 in0.0 mm
10:22 AM 62.6°F17.0°C 49.4°F9.7°C 62% 7.0 mph S11.3 kmh S 18.0 mph29.0 kmh 30.03 in1016.9 mb 0.00 in0.0 mm 0.00 in0.0 mm 0.00 in0.0 mm
10:21 AM 62.6°F17.0°C 49.4°F9.7°C 62% 9.0 mph SSW14.5 kmh SSW 18.0 mph29.0 kmh 30.03 in1016.9 mb 0.00 in0.0 mm 0.00 in0.0 mm 0.00 in0.0 mm
10:20 AM 62.6°F17.0°C 49.4°F9.7°C 62% 9.0 mph SE14.5 kmh SE 18.0 mph29.0 kmh 30.03 in1016.9 mb 0.00 in0.0 mm 0.00 in0.0 mm 0.00 in0.0 mm
10:19 AM 62.5°F16.9°C 49.3°F9.6°C 62% 12.0 mph SSW19.3 kmh SSW 16.0 mph25.7 kmh 30.03 in1016.9 mb 0.00 in0.0 mm 0.00 in0.0 mm 0.00 in0.0 mm
10:18 AM 62.6°F17.0°C 49.4°F9.7°C 62% 5.0 mph W8.0 kmh W 16.0 mph25.7 kmh 30.03 in1016.9 mb 0.00 in0.0 mm 0.00 in0.0 mm 0.00 in0.0 mm
10:17 AM 62.7°F17.1°C 49.5°F9.7°C 62% 6.0 mph S9.7 kmh S 16.0 mph25.7 kmh 30.03 in1016.9 mb 0.00 in0.0 mm 0.00 in0.0 mm 0.00 in0.0 mm
10:16 AM 62.9°F17.2°C 50.1°F10.1°C 63% 7.0 mph SSW11.3 kmh SSW 16.0 mph25.7 kmh 30.03 in1016.9 mb 0.00 in0.0 mm 0.00 in0.0 mm 0.00 in0.0 mm
10:15 AM 62.8°F17.1°C 50.4°F10.2°C 64% 7.0 mph SSW11.3 kmh SSW 16.0 mph25.7 kmh 30.03 in1016.9 mb 0.00 in0.0 mm 0.00 in0.0 mm 0.00 in0.0 mm
10:14 AM 62.8°F17.1°C 50.0°F10.0°C 63% 6.0 mph SSW9.7 kmh SSW 16.0 mph25.7 kmh 30.03 in1016.9 mb 0.00 in0.0 mm 0.00 in0.0 mm 0.00 in0.0 mm
10:13 AM 62.8°F17.1°C 50.0°F10.0°C 63% 10.0 mph SSW16.1 kmh SSW 16.0 mph25.7 kmh 30.03 in1016.9 mb 0.00 in0.0 mm 0.00 in0.0 mm 0.00 in0.0 mm
10:12 AM 62.8°F17.1°C 50.4°F10.2°C 64% 8.0 mph SSW12.9 kmh SSW 16.0 mph25.7 kmh 30.03 in1016.9 mb 0.00 in0.0 mm 0.00 in0.0 mm 0.00 in0.0 mm
10:11 AM 62.7°F17.1°C 50.8°F10.4°C 65% 8.0 mph SW12.9 kmh SW 16.0 mph25.7 kmh 30.03 in1016.9 mb 0.00 in0.0 mm 0.00 in0.0 mm 0.00 in0.0 mm
10:10 AM 62.6°F17.0°C 51.1°F10.6°C 66% 6.0 mph SW9.7 kmh SW 16.0 mph25.7 kmh 30.03 in1016.9 mb 0.00 in0.0 mm 0.00 in0.0 mm 0.00 in0.0 mm
10:09 AM 62.5°F16.9°C 51.4°F10.8°C 67% 7.0 mph SW11.3 kmh SW 16.0 mph25.7 kmh 30.03 in1016.9 mb 0.00 in0.0 mm 0.00 in0.0 mm 0.00 in0.0 mm
10:08 AM 62.4°F16.9°C 50.9°F10.5°C 66% 10.0 mph SSW16.1 kmh SSW 16.0 mph25.7 kmh 30.03 in1016.9 mb 0.00 in0.0 mm 0.00 in0.0 mm 0.00 in0.0 mm
10:07 AM 62.2°F16.8°C 50.7°F10.4°C 66% 10.0 mph S16.1 kmh S 16.0 mph25.7 kmh 30.03 in1016.9 mb 0.00 in0.0 mm 0.00 in0.0 mm 0.00 in0.0 mm
10:06 AM 62.1°F16.7°C 50.2°F10.1°C 65% 9.0 mph S14.5 kmh S 13.0 mph20.9 kmh 30.03 in1016.9 mb 0.00 in0.0 mm 0.00 in0.0 mm 0.00 in0.0 mm
10:05 AM 62.1°F16.7°C 50.2°F10.1°C 65% 7.0 mph SSW11.3 kmh SSW 13.0 mph20.9 kmh 30.03 in1016.9 mb 0.00 in0.0 mm 0.00 in0.0 mm 0.00 in0.0 mm
10:04 AM 62.1°F16.7°C 49.8°F9.9°C 64% 7.0 mph S11.3 kmh S 13.0 mph20.9 kmh 30.03 in1016.9 mb 0.00 in0.0 mm 0.00 in0.0 mm 0.00 in0.0 mm
10:03 AM 62.1°F16.7°C 49.8°F9.9°C 64% 7.0 mph S11.3 kmh S 19.0 mph30.6 kmh 30.03 in1016.9 mb 0.00 in0.0 mm 0.00 in0.0 mm 0.00 in0.0 mm
10:02 AM 62.1°F16.7°C 50.2°F10.1°C 65% 7.0 mph S11.3 kmh S 19.0 mph30.6 kmh 30.03 in1016.9 mb 0.00 in0.0 mm 0.00 in0.0 mm 0.00 in0.0 mm
10:01 AM 62.0°F16.7°C 50.1°F10.1°C 65% 6.0 mph SW9.7 kmh SW 19.0 mph30.6 kmh 30.03 in1016.9 mb 0.00 in0.0 mm 0.00 in0.0 mm 0.00 in0.0 mm
10:00 AM 61.9°F16.6°C 50.0°F10.0°C 65% 7.0 mph S11.3 kmh S 19.0 mph30.6 kmh 30.03 in1016.9 mb 0.00 in0.0 mm 0.00 in0.0 mm 0.00 in0.0 mm
09:59 AM 61.8°F16.6°C 50.7°F10.4°C 67% 6.0 mph S9.7 kmh S 19.0 mph30.6 kmh 30.03 in1016.9 mb 0.00 in0.0 mm 0.00 in0.0 mm 0.00 in0.0 mm
09:58 AM 61.7°F16.5°C 50.2°F10.1°C 66% 3.0 mph SSW4.8 kmh SSW 19.0 mph30.6 kmh 30.03 in1016.9 mb 0.00 in0.0 mm 0.00 in0.0 mm 0.00 in0.0 mm
09:57 AM 61.6°F16.4°C 50.1°F10.1°C 66% 4.0 mph SSW6.4 kmh SSW 19.0 mph30.6 kmh 30.03 in1016.9 mb 0.00 in0.0 mm 0.00 in0.0 mm 0.00 in0.0 mm
09:56 AM 61.5°F16.4°C 49.6°F9.8°C 65% 7.0 mph S11.3 kmh S 19.0 mph30.6 kmh 30.03 in1016.9 mb 0.00 in0.0 mm 0.00 in0.0 mm 0.00 in0.0 mm
09:55 AM 61.4°F16.3°C 49.5°F9.7°C 65% 8.0 mph SSE12.9 kmh SSE 19.0 mph30.6 kmh 30.03 in1016.9 mb 0.00 in0.0 mm 0.00 in0.0 mm 0.00 in0.0 mm
09:54 AM 61.4°F16.3°C 49.9°F9.9°C 66% 4.0 mph S6.4 kmh S 19.0 mph30.6 kmh 30.03 in1016.9 mb 0.00 in0.0 mm 0.00 in0.0 mm 0.00 in0.0 mm
09:53 AM 61.3°F16.3°C 49.8°F9.9°C 66% 4.0 mph S6.4 kmh S 19.0 mph30.6 kmh 30.03 in1016.9 mb 0.00 in0.0 mm 0.00 in0.0 mm 0.00 in0.0 mm
09:52 AM 61.3°F16.3°C 49.8°F9.9°C 66% 10.0 mph S16.1 kmh S 19.0 mph30.6 kmh 30.03 in1016.9 mb 0.00 in0.0 mm 0.00 in0.0 mm 0.00 in0.0 mm
09:51 AM 61.3°F16.3°C 50.2°F10.1°C 67% 8.0 mph S12.9 kmh S 19.0 mph30.6 kmh 30.03 in1016.9 mb 0.00 in0.0 mm 0.00 in0.0 mm 0.00 in0.0 mm
09:50 AM 61.3°F16.3°C 49.8°F9.9°C 66% 7.0 mph SSW11.3 kmh SSW 19.0 mph30.6 kmh 30.03 in1016.9 mb 0.00 in0.0 mm 0.00 in0.0 mm 0.00 in0.0 mm
09:49 AM 61.3°F16.3°C 49.4°F9.7°C 65% 7.0 mph SSW11.3 kmh SSW 19.0 mph30.6 kmh 30.03 in1016.9 mb 0.00 in0.0 mm 0.00 in0.0 mm 0.00 in0.0 mm
09:48 AM 61.3°F16.3°C 49.4°F9.7°C 65% 9.0 mph SSW14.5 kmh SSW 19.0 mph30.6 kmh 30.03 in1016.9 mb 0.00 in0.0 mm 0.00 in0.0 mm 0.00 in0.0 mm
09:47 AM 61.3°F16.3°C 49.8°F9.9°C 66% 13.0 mph SW20.9 kmh SW 19.0 mph30.6 kmh 30.03 in1016.9 mb 0.00 in0.0 mm 0.00 in0.0 mm 0.00 in0.0 mm
09:46 AM 61.2°F16.2°C 49.7°F9.8°C 66% 8.0 mph S12.9 kmh S 19.0 mph30.6 kmh 30.03 in1016.9 mb 0.00 in0.0 mm 0.00 in0.0 mm 0.00 in0.0 mm
09:45 AM 61.2°F16.2°C 49.3°F9.6°C 65% 5.0 mph S8.0 kmh S 19.0 mph30.6 kmh 30.03 in1016.9 mb 0.00 in0.0 mm 0.00 in0.0 mm 0.00 in0.0 mm
09:44 AM 61.1°F16.2°C 49.2°F9.6°C 65% 12.0 mph SSW19.3 kmh SSW 19.0 mph30.6 kmh 30.03 in1016.9 mb 0.00 in0.0 mm 0.00 in0.0 mm 0.00 in0.0 mm
09:43 AM 61.1°F16.2°C 49.7°F9.8°C 66% 16.0 mph SSW25.7 kmh SSW 17.0 mph27.4 kmh 30.03 in1016.9 mb 0.00 in0.0 mm 0.00 in0.0 mm 0.00 in0.0 mm
09:42 AM 61.1°F16.2°C 49.7°F9.8°C 66% 6.0 mph SSW9.7 kmh SSW 15.0 mph24.1 kmh 30.03 in1016.9 mb 0.00 in0.0 mm 0.00 in0.0 mm 0.00 in0.0 mm
09:41 AM 61.1°F16.2°C 49.7°F9.8°C 66% 7.0 mph SW11.3 kmh SW 15.0 mph24.1 kmh 30.03 in1016.9 mb 0.00 in0.0 mm 0.00 in0.0 mm 0.00 in0.0 mm
09:40 AM 61.1°F16.2°C 49.7°F9.8°C 66% 9.0 mph S14.5 kmh S 15.0 mph24.1 kmh 30.03 in1016.9 mb 0.00 in0.0 mm 0.00 in0.0 mm 0.00 in0.0 mm
09:39 AM 61.0°F16.1°C 49.1°F9.5°C 65% 7.0 mph S11.3 kmh S 15.0 mph24.1 kmh 30.03 in1016.9 mb 0.00 in0.0 mm 0.00 in0.0 mm 0.00 in0.0 mm
09:38 AM 61.0°F16.1°C 49.6°F9.8°C 66% 9.0 mph S14.5 kmh S 15.0 mph24.1 kmh 30.03 in1016.9 mb 0.00 in0.0 mm 0.00 in0.0 mm 0.00 in0.0 mm
09:37 AM 61.0°F16.1°C 49.1°F9.5°C 65% 13.0 mph SSW20.9 kmh SSW 15.0 mph24.1 kmh 30.03 in1016.9 mb 0.00 in0.0 mm 0.00 in0.0 mm 0.00 in0.0 mm
09:36 AM 61.1°F16.2°C 49.2°F9.6°C 65% 12.0 mph SSW19.3 kmh SSW 15.0 mph24.1 kmh 30.03 in1016.9 mb 0.00 in0.0 mm 0.00 in0.0 mm 0.00 in0.0 mm
09:35 AM 61.1°F16.2°C 48.8°F9.3°C 64% 7.0 mph SSW11.3 kmh SSW 15.0 mph24.1 kmh 30.03 in1016.9 mb 0.00 in0.0 mm 0.00 in0.0 mm 0.00 in0.0 mm
09:34 AM 61.1°F16.2°C 49.2°F9.6°C 65% 15.0 mph S24.1 kmh S 15.0 mph24.1 kmh 30.03 in1016.9 mb 0.00 in0.0 mm 0.00 in0.0 mm 0.00 in0.0 mm
09:33 AM 61.1°F16.2°C 49.7°F9.8°C 66% 4.0 mph WSW6.4 kmh WSW 15.0 mph24.1 kmh 30.03 in1016.9 mb 0.00 in0.0 mm 0.00 in0.0 mm 0.00 in0.0 mm
09:32 AM 61.1°F16.2°C 49.2°F9.6°C 65% 6.0 mph S9.7 kmh S 15.0 mph24.1 kmh 30.03 in1016.9 mb 0.00 in0.0 mm 0.00 in0.0 mm 0.00 in0.0 mm
09:31 AM 61.1°F16.2°C 49.7°F9.8°C 66% 4.0 mph S6.4 kmh S 15.0 mph24.1 kmh 30.03 in1016.9 mb 0.00 in0.0 mm 0.00 in0.0 mm 0.00 in0.0 mm
09:30 AM 61.0°F16.1°C 49.6°F9.8°C 66% 10.0 mph S16.1 kmh S 15.0 mph24.1 kmh 30.03 in1016.9 mb 0.00 in0.0 mm 0.00 in0.0 mm 0.00 in0.0 mm
09:29 AM 61.0°F16.1°C 49.1°F9.5°C 65% 8.0 mph SSE12.9 kmh SSE 15.0 mph24.1 kmh 30.03 in1016.9 mb 0.00 in0.0 mm 0.00 in0.0 mm 0.00 in0.0 mm
09:28 AM 61.0°F16.1°C 49.6°F9.8°C 66% 8.0 mph SSW12.9 kmh SSW 15.0 mph24.1 kmh 30.03 in1016.9 mb 0.00 in0.0 mm 0.00 in0.0 mm 0.00 in0.0 mm
09:27 AM 61.0°F16.1°C 49.6°F9.8°C 66% 5.0 mph SSW8.0 kmh SSW 15.0 mph24.1 kmh 30.03 in1016.9 mb 0.00 in0.0 mm 0.00 in0.0 mm 0.00 in0.0 mm
09:26 AM 61.0°F16.1°C 49.6°F9.8°C 66% 8.0 mph S12.9 kmh S 15.0 mph24.1 kmh 30.03 in1016.9 mb 0.00 in0.0 mm 0.00 in0.0 mm 0.00 in0.0 mm
09:25 AM 60.9°F16.1°C 49.5°F9.7°C 66% 12.0 mph SSW19.3 kmh SSW 17.0 mph27.4 kmh 30.03 in1016.9 mb 0.00 in0.0 mm 0.00 in0.0 mm 0.00 in0.0 mm
09:24 AM 60.9°F16.1°C 49.5°F9.7°C 66% 7.0 mph S11.3 kmh S 17.0 mph27.4 kmh 30.03 in1016.9 mb 0.00 in0.0 mm 0.00 in0.0 mm 0.00 in0.0 mm
09:23 AM 60.8°F16.0°C 49.0°F9.4°C 65% 5.0 mph SSW8.0 kmh SSW 17.0 mph27.4 kmh 30.03 in1016.9 mb 0.00 in0.0 mm 0.00 in0.0 mm 0.00 in0.0 mm
09:22 AM 60.8°F16.0°C 49.0°F9.4°C 65% 11.0 mph SW17.7 kmh SW 17.0 mph27.4 kmh 30.03 in1016.9 mb 0.00 in0.0 mm 0.00 in0.0 mm 0.00 in0.0 mm
09:21 AM 60.8°F16.0°C 49.4°F9.7°C 66% 11.0 mph WSW17.7 kmh WSW 17.0 mph27.4 kmh 30.03 in1016.9 mb 0.00 in0.0 mm 0.00 in0.0 mm 0.00 in0.0 mm
09:20 AM 60.8°F16.0°C 49.4°F9.7°C 66% 8.0 mph S12.9 kmh S 17.0 mph27.4 kmh 30.03 in1016.9 mb 0.00 in0.0 mm 0.00 in0.0 mm 0.00 in0.0 mm
09:19 AM 60.8°F16.0°C 49.4°F9.7°C 66% 7.0 mph SSW11.3 kmh SSW 17.0 mph27.4 kmh 30.03 in1016.9 mb 0.00 in0.0 mm 0.00 in0.0 mm 0.00 in0.0 mm
09:18 AM 60.8°F16.0°C 49.0°F9.4°C 65% 6.0 mph S9.7 kmh S 17.0 mph27.4 kmh 30.03 in1016.9 mb 0.00 in0.0 mm 0.00 in0.0 mm 0.00 in0.0 mm
09:17 AM 60.7°F15.9°C 49.3°F9.6°C 66% 7.0 mph SW11.3 kmh SW 17.0 mph27.4 kmh 30.03 in1016.9 mb 0.00 in0.0 mm 0.00 in0.0 mm 0.00 in0.0 mm
09:16 AM 60.7°F15.9°C 48.9°F9.4°C 65% 11.0 mph S17.7 kmh S 17.0 mph27.4 kmh 30.03 in1016.9 mb 0.00 in0.0 mm 0.00 in0.0 mm 0.00 in0.0 mm
09:15 AM 60.7°F15.9°C 48.9°F9.4°C 65% 10.0 mph SSW16.1 kmh SSW 17.0 mph27.4 kmh 30.03 in1016.9 mb 0.00 in0.0 mm 0.00 in0.0 mm 0.00 in0.0 mm
09:14 AM 60.7°F15.9°C 48.9°F9.4°C 65% 4.0 mph SSW6.4 kmh SSW 17.0 mph27.4 kmh 30.03 in1016.9 mb 0.00 in0.0 mm 0.00 in0.0 mm 0.00 in0.0 mm
09:13 AM 60.7°F15.9°C 49.3°F9.6°C 66% 10.0 mph S16.1 kmh S 17.0 mph27.4 kmh 30.03 in1016.9 mb 0.00 in0.0 mm 0.00 in0.0 mm 0.00 in0.0 mm
09:12 AM 60.7°F15.9°C 49.3°F9.6°C 66% 7.0 mph S11.3 kmh S 17.0 mph27.4 kmh 30.03 in1016.9 mb 0.00 in0.0 mm 0.00 in0.0 mm 0.00 in0.0 mm
09:11 AM 60.7°F15.9°C 49.3°F9.6°C 66% 6.0 mph S9.7 kmh S 17.0 mph27.4 kmh 30.03 in1016.9 mb 0.00 in0.0 mm 0.00 in0.0 mm 0.00 in0.0 mm
09:10 AM 60.7°F15.9°C 49.3°F9.6°C 66% 5.0 mph SSW8.0 kmh SSW 17.0 mph27.4 kmh 30.03 in1016.9 mb 0.00 in0.0 mm 0.00 in0.0 mm 0.00 in0.0 mm
09:09 AM 60.7°F15.9°C 49.3°F9.6°C 66% 5.0 mph SSW8.0 kmh SSW 17.0 mph27.4 kmh 30.03 in1016.9 mb 0.00 in0.0 mm 0.00 in0.0 mm 0.00 in0.0 mm
09:08 AM 60.7°F15.9°C 48.9°F9.4°C 65% 7.0 mph S11.3 kmh S 17.0 mph27.4 kmh 30.03 in1016.9 mb 0.00 in0.0 mm 0.00 in0.0 mm 0.00 in0.0 mm
09:07 AM 60.7°F15.9°C 49.3°F9.6°C 66% 7.0 mph S11.3 kmh S 17.0 mph27.4 kmh 30.03 in1016.9 mb 0.00 in0.0 mm 0.00 in0.0 mm 0.00 in0.0 mm
09:06 AM 60.8°F16.0°C 49.8°F9.9°C 67% 6.0 mph W9.7 kmh W 17.0 mph27.4 kmh 30.03 in1016.9 mb 0.00 in0.0 mm 0.00 in0.0 mm 0.00 in0.0 mm
09:05 AM 60.7°F15.9°C 49.3°F9.6°C 66% 4.0 mph SSW6.4 kmh SSW 14.0 mph22.5 kmh 30.03 in1016.9 mb 0.00 in0.0 mm 0.00 in0.0 mm 0.00 in0.0 mm
09:04 AM 60.7°F15.9°C 49.7°F9.8°C 67% 4.0 mph N6.4 kmh N 14.0 mph22.5 kmh 30.03 in1016.9 mb 0.00 in0.0 mm 0.00 in0.0 mm 0.00 in0.0 mm
09:03 AM 60.8°F16.0°C 49.4°F9.7°C 66% 4.0 mph SSW6.4 kmh SSW 14.0 mph22.5 kmh 30.03 in1016.9 mb 0.00 in0.0 mm 0.00 in0.0 mm 0.00 in0.0 mm
09:02 AM 60.8°F16.0°C 49.4°F9.7°C 66% 3.0 mph S4.8 kmh S 17.0 mph27.4 kmh 30.03 in1016.9 mb 0.00 in0.0 mm 0.00 in0.0 mm 0.00 in0.0 mm
09:01 AM 60.8°F16.0°C 49.4°F9.7°C 66% 5.0 mph S8.0 kmh S 17.0 mph27.4 kmh 30.03 in1016.9 mb 0.00 in0.0 mm 0.00 in0.0 mm 0.00 in0.0 mm
08:59 AM 60.9°F16.1°C 49.1°F9.5°C 65% 6.0 mph S9.7 kmh S 17.0 mph27.4 kmh 30.03 in1016.9 mb 0.00 in0.0 mm 0.00 in0.0 mm 0.00 in0.0 mm
08:58 AM 60.9°F16.1°C 49.9°F9.9°C 67% 8.0 mph SW12.9 kmh SW 17.0 mph27.4 kmh 30.02 in1016.6 mb 0.00 in0.0 mm 0.00 in0.0 mm 0.00 in0.0 mm
08:57 AM 60.8°F16.0°C 49.4°F9.7°C 66% 8.0 mph SSW12.9 kmh SSW 17.0 mph27.4 kmh 30.02 in1016.6 mb 0.00 in0.0 mm 0.00 in0.0 mm 0.00 in0.0 mm
08:56 AM 60.8°F16.0°C 49.4°F9.7°C 66% 7.0 mph S11.3 kmh S 17.0 mph27.4 kmh 30.02 in1016.6 mb 0.00 in0.0 mm 0.00 in0.0 mm 0.00 in0.0 mm
08:55 AM 60.7°F15.9°C 49.3°F9.6°C 66% 7.0 mph S11.3 kmh S 17.0 mph27.4 kmh 30.02 in1016.6 mb 0.00 in0.0 mm 0.00 in0.0 mm 0.00 in0.0 mm
08:54 AM 60.7°F15.9°C 49.3°F9.6°C 66% 6.0 mph SSW9.7 kmh SSW 17.0 mph27.4 kmh 30.02 in1016.6 mb 0.00 in0.0 mm 0.00 in0.0 mm 0.00 in0.0 mm
08:53 AM 60.7°F15.9°C 48.9°F9.4°C 65% 7.0 mph S11.3 kmh S 17.0 mph27.4 kmh 30.02 in1016.6 mb 0.00 in0.0 mm 0.00 in0.0 mm 0.00 in0.0 mm
08:52 AM 60.7°F15.9°C 48.9°F9.4°C 65% 7.0 mph S11.3 kmh S 17.0 mph27.4 kmh 30.02 in1016.6 mb 0.00 in0.0 mm 0.00 in0.0 mm 0.00 in0.0 mm
08:51 AM 60.7°F15.9°C 49.3°F9.6°C 66% 8.0 mph S12.9 kmh S 17.0 mph27.4 kmh 30.02 in1016.6 mb 0.00 in0.0 mm 0.00 in0.0 mm 0.00 in0.0 mm
08:50 AM 60.7°F15.9°C 49.3°F9.6°C 66% 6.0 mph SSW9.7 kmh SSW 17.0 mph27.4 kmh 30.02 in1016.6 mb 0.00 in0.0 mm 0.00 in0.0 mm 0.00 in0.0 mm
08:49 AM 60.7°F15.9°C 49.3°F9.6°C 66% 6.0 mph SSW9.7 kmh SSW 17.0 mph27.4 kmh 30.02 in1016.6 mb 0.00 in0.0 mm 0.00 in0.0 mm 0.00 in0.0 mm
08:48 AM 60.7°F15.9°C 49.7°F9.8°C 67% 5.0 mph SSW8.0 kmh SSW 17.0 mph27.4 kmh 30.02 in1016.6 mb 0.00 in0.0 mm 0.00 in0.0 mm 0.00 in0.0 mm
08:47 AM 60.7°F15.9°C 49.7°F9.8°C 67% 7.0 mph S11.3 kmh S 17.0 mph27.4 kmh 30.02 in1016.6 mb 0.00 in0.0 mm 0.00 in0.0 mm 0.00 in0.0 mm
08:46 AM 60.6°F15.9°C 49.6°F9.8°C 67% 3.0 mph S4.8 kmh S 17.0 mph27.4 kmh 30.02 in1016.6 mb 0.00 in0.0 mm 0.00 in0.0 mm 0.00 in0.0 mm
08:45 AM 60.7°F15.9°C 49.7°F9.8°C 67% 5.0 mph SW8.0 kmh SW 17.0 mph27.4 kmh 30.02 in1016.6 mb 0.00 in0.0 mm 0.00 in0.0 mm 0.00 in0.0 mm
08:44 AM 60.7°F15.9°C 49.3°F9.6°C 66% 4.0 mph SW6.4 kmh SW 17.0 mph27.4 kmh 30.02 in1016.6 mb 0.00 in0.0 mm 0.00 in0.0 mm 0.00 in0.0 mm
08:43 AM 60.8°F16.0°C 49.8°F9.9°C 67% 7.0 mph SSW11.3 kmh SSW 17.0 mph27.4 kmh 30.02 in1016.6 mb 0.00 in0.0 mm 0.00 in0.0 mm 0.00 in0.0 mm
08:42 AM 60.8°F16.0°C 49.8°F9.9°C 67% 9.0 mph SSW14.5 kmh SSW 17.0 mph27.4 kmh 30.02 in1016.6 mb 0.00 in0.0 mm 0.00 in0.0 mm 0.00 in0.0 mm
08:41 AM 60.7°F15.9°C 49.7°F9.8°C 67% 17.0 mph SSW27.4 kmh SSW 17.0 mph27.4 kmh 30.02 in1016.6 mb 0.00 in0.0 mm 0.00 in0.0 mm 0.00 in0.0 mm
08:40 AM 60.7°F15.9°C 50.5°F10.3°C 69% 9.0 mph SW14.5 kmh SW 13.0 mph20.9 kmh 30.02 in1016.6 mb 0.00 in0.0 mm 0.00 in0.0 mm 0.00 in0.0 mm
08:39 AM 60.6°F15.9°C 50.0°F10.0°C 68% 2.0 mph SSW3.2 kmh SSW 13.0 mph20.9 kmh 30.02 in1016.6 mb 0.00 in0.0 mm 0.00 in0.0 mm 0.00 in0.0 mm
08:38 AM 60.5°F15.8°C 49.5°F9.7°C 67% 7.0 mph SW11.3 kmh SW 13.0 mph20.9 kmh 30.02 in1016.6 mb 0.00 in0.0 mm 0.00 in0.0 mm 0.00 in0.0 mm
08:37 AM 60.5°F15.8°C 49.5°F9.7°C 67% 7.0 mph S11.3 kmh S 13.0 mph20.9 kmh 30.02 in1016.6 mb 0.00 in0.0 mm 0.00 in0.0 mm 0.00 in0.0 mm
08:36 AM 60.5°F15.8°C 49.5°F9.7°C 67% 4.0 mph S6.4 kmh S 13.0 mph20.9 kmh 30.02 in1016.6 mb 0.00 in0.0 mm 0.00 in0.0 mm 0.00 in0.0 mm
08:35 AM 60.4°F15.8°C 49.4°F9.7°C 67% 7.0 mph S11.3 kmh S 13.0 mph20.9 kmh 30.02 in1016.6 mb 0.00 in0.0 mm 0.00 in0.0 mm 0.00 in0.0 mm
08:34 AM 60.4°F15.8°C 49.8°F9.9°C 68% 4.0 mph SSW6.4 kmh SSW 14.0 mph22.5 kmh 30.02 in1016.6 mb 0.00 in0.0 mm 0.00 in0.0 mm 0.00 in0.0 mm
08:33 AM 60.4°F15.8°C 49.4°F9.7°C 67% 7.0 mph S11.3 kmh S 14.0 mph22.5 kmh 30.02 in1016.6 mb 0.00 in0.0 mm 0.00 in0.0 mm 0.00 in0.0 mm
08:32 AM 60.4°F15.8°C 49.4°F9.7°C 67% 5.0 mph SSW8.0 kmh SSW 14.0 mph22.5 kmh 30.02 in1016.6 mb 0.00 in0.0 mm 0.00 in0.0 mm 0.00 in0.0 mm
08:31 AM 60.3°F15.7°C 49.7°F9.8°C 68% 7.0 mph S11.3 kmh S 14.0 mph22.5 kmh 30.02 in1016.6 mb 0.00 in0.0 mm 0.00 in0.0 mm 0.00 in0.0 mm
08:30 AM 60.3°F15.7°C 49.7°F9.8°C 68% 8.0 mph S12.9 kmh S 14.0 mph22.5 kmh 30.02 in1016.6 mb 0.00 in0.0 mm 0.00 in0.0 mm 0.00 in0.0 mm
08:29 AM 60.2°F15.7°C 49.6°F9.8°C 68% 7.0 mph SSW11.3 kmh SSW 14.0 mph22.5 kmh 30.02 in1016.6 mb 0.00 in0.0 mm 0.00 in0.0 mm 0.00 in0.0 mm
08:28 AM 60.2°F15.7°C 50.0°F10.0°C 69% 5.0 mph S8.0 kmh S 14.0 mph22.5 kmh 30.02 in1016.6 mb 0.00 in0.0 mm 0.00 in0.0 mm 0.00 in0.0 mm
08:27 AM 60.1°F15.6°C 49.5°F9.7°C 68% 5.0 mph SW8.0 kmh SW 14.0 mph22.5 kmh 30.02 in1016.6 mb 0.00 in0.0 mm 0.00 in0.0 mm 0.00 in0.0 mm
08:26 AM 60.0°F15.6°C 49.4°F9.7°C 68% 7.0 mph SW11.3 kmh SW 14.0 mph22.5 kmh 30.02 in1016.6 mb 0.00 in0.0 mm 0.00 in0.0 mm 0.00 in0.0 mm
08:25 AM 60.0°F15.6°C 49.4°F9.7°C 68% 4.0 mph S6.4 kmh S 14.0 mph22.5 kmh 30.02 in1016.6 mb 0.00 in0.0 mm 0.00 in0.0 mm 0.00 in0.0 mm
08:24 AM 59.9°F15.5°C 49.7°F9.8°C 69% 7.0 mph SW11.3 kmh SW 14.0 mph22.5 kmh 30.02 in1016.6 mb 0.00 in0.0 mm 0.00 in0.0 mm 0.00 in0.0 mm
08:23 AM 59.8°F15.4°C 49.2°F9.6°C 68% 3.0 mph S4.8 kmh S 14.0 mph22.5 kmh 30.02 in1016.6 mb 0.00 in0.0 mm 0.00 in0.0 mm 0.00 in0.0 mm
08:22 AM 59.7°F15.4°C 49.5°F9.7°C 69% 8.0 mph S12.9 kmh S 14.0 mph22.5 kmh 30.02 in1016.6 mb 0.00 in0.0 mm 0.00 in0.0 mm 0.00 in0.0 mm
08:21 AM 59.6°F15.3°C 49.8°F9.9°C 70% 4.0 mph NW6.4 kmh NW 14.0 mph22.5 kmh 30.02 in1016.6 mb 0.00 in0.0 mm 0.00 in0.0 mm 0.00 in0.0 mm
08:20 AM 59.5°F15.3°C 49.3°F9.6°C 69% 7.0 mph SSW11.3 kmh SSW 14.0 mph22.5 kmh 30.02 in1016.6 mb 0.00 in0.0 mm 0.00 in0.0 mm 0.00 in0.0 mm
08:19 AM 59.5°F15.3°C 49.7°F9.8°C 70% 4.0 mph S6.4 kmh S 14.0 mph22.5 kmh 30.02 in1016.6 mb 0.00 in0.0 mm 0.00 in0.0 mm 0.00 in0.0 mm
08:18 AM 59.3°F15.2°C 49.5°F9.7°C 70% 6.0 mph S9.7 kmh S 14.0 mph22.5 kmh 30.02 in1016.6 mb 0.00 in0.0 mm 0.00 in0.0 mm 0.00 in0.0 mm
08:17 AM 59.2°F15.1°C 49.4°F9.7°C 70% 1.0 mph S1.6 kmh S 14.0 mph22.5 kmh 30.02 in1016.6 mb 0.00 in0.0 mm 0.00 in0.0 mm 0.00 in0.0 mm
08:16 AM 59.2°F15.1°C 49.0°F9.4°C 69% 4.0 mph SSW6.4 kmh SSW 14.0 mph22.5 kmh 30.01 in1016.3 mb 0.00 in0.0 mm 0.00 in0.0 mm 0.00 in0.0 mm
08:15 AM 59.1°F15.1°C 48.9°F9.4°C 69% 6.0 mph SSW9.7 kmh SSW 14.0 mph22.5 kmh 30.01 in1016.3 mb 0.00 in0.0 mm 0.00 in0.0 mm 0.00 in0.0 mm
08:14 AM 59.1°F15.1°C 48.9°F9.4°C 69% 5.0 mph SSW8.0 kmh SSW 12.0 mph19.3 kmh 30.01 in1016.3 mb 0.00 in0.0 mm 0.00 in0.0 mm 0.00 in0.0 mm
08:13 AM 59.0°F15.0°C 49.2°F9.6°C 70% 3.0 mph SE4.8 kmh SE 12.0 mph19.3 kmh 30.01 in1016.3 mb 0.00 in0.0 mm 0.00 in0.0 mm 0.00 in0.0 mm
08:12 AM 59.0°F15.0°C 48.8°F9.3°C 69% 5.0 mph S8.0 kmh S 12.0 mph19.3 kmh 30.01 in1016.3 mb 0.00 in0.0 mm 0.00 in0.0 mm 0.00 in0.0 mm
08:11 AM 59.0°F15.0°C 48.8°F9.3°C 69% 7.0 mph SSW11.3 kmh SSW 12.0 mph19.3 kmh 30.01 in1016.3 mb 0.00 in0.0 mm 0.00 in0.0 mm 0.00 in0.0 mm
08:10 AM 59.1°F15.1°C 48.9°F9.4°C 69% 6.0 mph SW9.7 kmh SW 12.0 mph19.3 kmh 30.01 in1016.3 mb 0.00 in0.0 mm 0.00 in0.0 mm 0.00 in0.0 mm
08:09 AM 59.1°F15.1°C 48.9°F9.4°C 69% 2.0 mph NW3.2 kmh NW 12.0 mph19.3 kmh 30.01 in1016.3 mb 0.00 in0.0 mm 0.00 in0.0 mm 0.00 in0.0 mm
08:08 AM 59.2°F15.1°C 49.4°F9.7°C 70% Calm Calm 11.0 mph17.7 kmh 30.01 in1016.3 mb 0.00 in0.0 mm 0.00 in0.0 mm 0.00 in0.0 mm
08:07 AM 59.2°F15.1°C 49.8°F9.9°C 71% 3.0 mph SSE4.8 kmh SSE 11.0 mph17.7 kmh 30.01 in1016.3 mb 0.00 in0.0 mm 0.00 in0.0 mm 0.00 in0.0 mm
08:06 AM 59.3°F15.2°C 49.9°F9.9°C 71% Calm Calm 11.0 mph17.7 kmh 30.01 in1016.3 mb 0.00 in0.0 mm 0.00 in0.0 mm 0.00 in0.0 mm
08:05 AM 59.3°F15.2°C 49.5°F9.7°C 70% Calm Calm 11.0 mph17.7 kmh 30.01 in1016.3 mb 0.00 in0.0 mm 0.00 in0.0 mm 0.00 in0.0 mm
08:04 AM 59.3°F15.2°C 49.5°F9.7°C 70% 2.0 mph SSE3.2 kmh SSE 11.0 mph17.7 kmh 30.01 in1016.3 mb 0.00 in0.0 mm 0.00 in0.0 mm 0.00 in0.0 mm
08:03 AM 59.3°F15.2°C 49.5°F9.7°C 70% 3.0 mph S4.8 kmh S 11.0 mph17.7 kmh 30.01 in1016.3 mb 0.00 in0.0 mm 0.00 in0.0 mm 0.00 in0.0 mm
08:02 AM 59.3°F15.2°C 49.5°F9.7°C 70% 6.0 mph NW9.7 kmh NW 9.0 mph14.5 kmh 30.01 in1016.3 mb 0.00 in0.0 mm 0.00 in0.0 mm 0.00 in0.0 mm
08:01 AM 59.3°F15.2°C 49.9°F9.9°C 71% 5.0 mph W8.0 kmh W 8.0 mph12.9 kmh 30.01 in1016.3 mb 0.00 in0.0 mm 0.00 in0.0 mm 0.00 in0.0 mm
08:00 AM 59.3°F15.2°C 49.9°F9.9°C 71% 1.0 mph S1.6 kmh S 8.0 mph12.9 kmh 30.01 in1016.3 mb 0.00 in0.0 mm 0.00 in0.0 mm 0.00 in0.0 mm
07:59 AM 59.2°F15.1°C 50.2°F10.1°C 72% 5.0 mph S8.0 kmh S 8.0 mph12.9 kmh 30.01 in1016.3 mb 0.00 in0.0 mm 0.00 in0.0 mm 0.00 in0.0 mm
07:58 AM 59.1°F15.1°C 50.1°F10.1°C 72% 3.0 mph NW4.8 kmh NW 8.0 mph12.9 kmh 30.01 in1016.3 mb 0.00 in0.0 mm 0.00 in0.0 mm 0.00 in0.0 mm
07:57 AM 58.9°F14.9°C 49.9°F9.9°C 72% 1.0 mph NW1.6 kmh NW 8.0 mph12.9 kmh 30.01 in1016.3 mb 0.00 in0.0 mm 0.00 in0.0 mm 0.00 in0.0 mm
07:56 AM 58.9°F14.9°C 49.5°F9.7°C 71% 6.0 mph NW9.7 kmh NW 8.0 mph12.9 kmh 30.01 in1016.3 mb 0.00 in0.0 mm 0.00 in0.0 mm 0.00 in0.0 mm
07:55 AM 58.8°F14.9°C 49.4°F9.7°C 71% 1.0 mph W1.6 kmh W 8.0 mph12.9 kmh 30.01 in1016.3 mb 0.00 in0.0 mm 0.00 in0.0 mm 0.00 in0.0 mm
07:54 AM 58.8°F14.9°C 49.8°F9.9°C 72% 3.0 mph W4.8 kmh W 14.0 mph22.5 kmh 30.01 in1016.3 mb 0.00 in0.0 mm 0.00 in0.0 mm 0.00 in0.0 mm
07:53 AM 58.7°F14.8°C 49.7°F9.8°C 72% 6.0 mph WNW9.7 kmh WNW 14.0 mph22.5 kmh 30.01 in1016.3 mb 0.00 in0.0 mm 0.00 in0.0 mm 0.00 in0.0 mm
07:52 AM 58.7°F14.8°C 50.1°F10.1°C 73% 3.0 mph NNW4.8 kmh NNW 14.0 mph22.5 kmh 30.01 in1016.3 mb 0.00 in0.0 mm 0.00 in0.0 mm 0.00 in0.0 mm
07:51 AM 58.7°F14.8°C 49.3°F9.6°C 71% 3.0 mph W4.8 kmh W 14.0 mph22.5 kmh 30.00 in1015.9 mb 0.00 in0.0 mm 0.00 in0.0 mm 0.00 in0.0 mm
07:50 AM 58.7°F14.8°C 49.3°F9.6°C 71% 5.0 mph WSW8.0 kmh WSW 14.0 mph22.5 kmh 30.00 in1015.9 mb 0.00 in0.0 mm 0.00 in0.0 mm 0.00 in0.0 mm
07:49 AM 58.8°F14.9°C 49.0°F9.4°C 70% 1.0 mph S1.6 kmh S 14.0 mph22.5 kmh 30.00 in1015.9 mb 0.00 in0.0 mm 0.00 in0.0 mm 0.00 in0.0 mm
07:48 AM 58.8°F14.9°C 49.0°F9.4°C 70% 3.0 mph WNW4.8 kmh WNW 14.0 mph22.5 kmh 30.00 in1015.9 mb 0.00 in0.0 mm 0.00 in0.0 mm 0.00 in0.0 mm
07:47 AM 58.8°F14.9°C 49.0°F9.4°C 70% 4.0 mph SW6.4 kmh SW 14.0 mph22.5 kmh 30.00 in1015.9 mb 0.00 in0.0 mm 0.00 in0.0 mm 0.00 in0.0 mm
07:46 AM 58.9°F14.9°C 49.1°F9.5°C 70% 7.0 mph S11.3 kmh S 14.0 mph22.5 kmh 30.00 in1015.9 mb 0.00 in0.0 mm 0.00 in0.0 mm 0.00 in0.0 mm
07:45 AM 58.8°F14.9°C 49.0°F9.4°C 70% 6.0 mph SSW9.7 kmh SSW 14.0 mph22.5 kmh 30.00 in1015.9 mb 0.00 in0.0 mm 0.00 in0.0 mm 0.00 in0.0 mm
07:44 AM 58.8°F14.9°C 49.4°F9.7°C 71% 5.0 mph WSW8.0 kmh WSW 14.0 mph22.5 kmh 30.00 in1015.9 mb 0.00 in0.0 mm 0.00 in0.0 mm 0.00 in0.0 mm
07:43 AM 58.7°F14.8°C 49.3°F9.6°C 71% 1.0 mph NW1.6 kmh NW 14.0 mph22.5 kmh 30.00 in1015.9 mb 0.00 in0.0 mm 0.00 in0.0 mm 0.00 in0.0 mm
07:42 AM 58.7°F14.8°C 49.3°F9.6°C 71% 3.0 mph WNW4.8 kmh WNW 14.0 mph22.5 kmh 30.00 in1015.9 mb 0.00 in0.0 mm 0.00 in0.0 mm 0.00 in0.0 mm
07:41 AM 58.6°F14.8°C 49.2°F9.6°C 71% 4.0 mph W6.4 kmh W 14.0 mph22.5 kmh 30.00 in1015.9 mb 0.00 in0.0 mm 0.00 in0.0 mm 0.00 in0.0 mm
07:40 AM 58.6°F14.8°C 49.2°F9.6°C 71% 2.0 mph SW3.2 kmh SW 14.0 mph22.5 kmh 30.00 in1015.9 mb 0.00 in0.0 mm 0.00 in0.0 mm 0.00 in0.0 mm
07:39 AM 58.5°F14.7°C 49.1°F9.5°C 71% 3.0 mph S4.8 kmh S 14.0 mph22.5 kmh 30.00 in1015.9 mb 0.00 in0.0 mm 0.00 in0.0 mm 0.00 in0.0 mm
07:38 AM 58.5°F14.7°C 49.1°F9.5°C 71% 1.0 mph S1.6 kmh S 14.0 mph22.5 kmh 30.00 in1015.9 mb 0.00 in0.0 mm 0.00 in0.0 mm 0.00 in0.0 mm
07:37 AM 58.4°F14.7°C 49.0°F9.4°C 71% 3.0 mph SSW4.8 kmh SSW 14.0 mph22.5 kmh 30.00 in1015.9 mb 0.00 in0.0 mm 0.00 in0.0 mm 0.00 in0.0 mm
07:36 AM 58.4°F14.7°C 49.0°F9.4°C 71% 5.0 mph SSW8.0 kmh SSW 14.0 mph22.5 kmh 30.00 in1015.9 mb 0.00 in0.0 mm 0.00 in0.0 mm 0.00 in0.0 mm
07:35 AM 58.4°F14.7°C 49.0°F9.4°C 71% 7.0 mph SSW11.3 kmh SSW 14.0 mph22.5 kmh 30.00 in1015.9 mb 0.00 in0.0 mm 0.00 in0.0 mm 0.00 in0.0 mm
07:34 AM 58.3°F14.6°C 48.9°F9.4°C 71% 7.0 mph S11.3 kmh S 13.0 mph20.9 kmh 30.00 in1015.9 mb 0.00 in0.0 mm 0.00 in0.0 mm 0.00 in0.0 mm
07:33 AM 58.3°F14.6°C 48.9°F9.4°C 71% 6.0 mph S9.7 kmh S 13.0 mph20.9 kmh 30.00 in1015.9 mb 0.00 in0.0 mm 0.00 in0.0 mm 0.00 in0.0 mm
07:32 AM 58.2°F14.6°C 48.8°F9.3°C 71% 7.0 mph SW11.3 kmh SW 13.0 mph20.9 kmh 30.00 in1015.9 mb 0.00 in0.0 mm 0.00 in0.0 mm 0.00 in0.0 mm
07:31 AM 58.2°F14.6°C 48.8°F9.3°C 71% 13.0 mph S20.9 kmh S 17.0 mph27.4 kmh 30.00 in1015.9 mb 0.00 in0.0 mm 0.00 in0.0 mm 0.00 in0.0 mm
07:30 AM 58.2°F14.6°C 48.8°F9.3°C 71% 4.0 mph SW6.4 kmh SW 17.0 mph27.4 kmh 30.00 in1015.9 mb 0.00 in0.0 mm 0.00 in0.0 mm 0.00 in0.0 mm
07:29 AM 58.2°F14.6°C 48.8°F9.3°C 71% 4.0 mph S6.4 kmh S 17.0 mph27.4 kmh 30.00 in1015.9 mb 0.00 in0.0 mm 0.00 in0.0 mm 0.00 in0.0 mm
07:28 AM 58.1°F14.5°C 48.7°F9.3°C 71% 6.0 mph SSW9.7 kmh SSW 17.0 mph27.4 kmh 30.00 in1015.9 mb 0.00 in0.0 mm 0.00 in0.0 mm 0.00 in0.0 mm
07:27 AM 58.1°F14.5°C 48.7°F9.3°C 71% 7.0 mph SW11.3 kmh SW 17.0 mph27.4 kmh 29.99 in1015.6 mb 0.00 in0.0 mm 0.00 in0.0 mm 0.00 in0.0 mm
07:26 AM 58.0°F14.4°C 49.0°F9.4°C 72% 5.0 mph S8.0 kmh S 17.0 mph27.4 kmh 29.99 in1015.6 mb 0.00 in0.0 mm 0.00 in0.0 mm 0.00 in0.0 mm
07:25 AM 58.0°F14.4°C 48.6°F9.2°C 71% 2.0 mph S3.2 kmh S 17.0 mph27.4 kmh 29.99 in1015.6 mb 0.00 in0.0 mm 0.00 in0.0 mm 0.00 in0.0 mm
07:24 AM 57.9°F14.4°C 48.9°F9.4°C 72% 6.0 mph SSE9.7 kmh SSE 17.0 mph27.4 kmh 29.99 in1015.6 mb 0.00 in0.0 mm 0.00 in0.0 mm 0.00 in0.0 mm
07:23 AM 57.8°F14.3°C 48.8°F9.3°C 72% 10.0 mph SW16.1 kmh SW 17.0 mph27.4 kmh 29.99 in1015.6 mb 0.00 in0.0 mm 0.00 in0.0 mm 0.00 in0.0 mm
07:22 AM 57.8°F14.3°C 48.8°F9.3°C 72% 1.0 mph SSW1.6 kmh SSW 17.0 mph27.4 kmh 29.99 in1015.6 mb 0.00 in0.0 mm 0.00 in0.0 mm 0.00 in0.0 mm
07:21 AM 57.8°F14.3°C 48.8°F9.3°C 72% 5.0 mph SSW8.0 kmh SSW 17.0 mph27.4 kmh 29.99 in1015.6 mb 0.00 in0.0 mm 0.00 in0.0 mm 0.00 in0.0 mm
07:20 AM 57.7°F14.3°C 48.7°F9.3°C 72% 7.0 mph S11.3 kmh S 17.0 mph27.4 kmh 29.99 in1015.6 mb 0.00 in0.0 mm 0.00 in0.0 mm 0.00 in0.0 mm
07:19 AM 57.7°F14.3°C 49.1°F9.5°C 73% 7.0 mph SSW11.3 kmh SSW 17.0 mph27.4 kmh 30.00 in1015.9 mb 0.00 in0.0 mm 0.00 in0.0 mm 0.00 in0.0 mm
07:18 AM 57.7°F14.3°C 49.1°F9.5°C 73% 8.0 mph SSE12.9 kmh SSE 17.0 mph27.4 kmh 30.00 in1015.9 mb 0.00 in0.0 mm 0.00 in0.0 mm 0.00 in0.0 mm
07:17 AM 57.6°F14.2°C 49.0°F9.4°C 73% 9.0 mph SSW14.5 kmh SSW 17.0 mph27.4 kmh 30.00 in1015.9 mb 0.00 in0.0 mm 0.00 in0.0 mm 0.00 in0.0 mm
07:16 AM 57.6°F14.2°C 48.6°F9.2°C 72% 3.0 mph SSW4.8 kmh SSW 17.0 mph27.4 kmh 30.00 in1015.9 mb 0.00 in0.0 mm 0.00 in0.0 mm 0.00 in0.0 mm
07:15 AM 57.6°F14.2°C 49.0°F9.4°C 73% 5.0 mph SSW8.0 kmh SSW 17.0 mph27.4 kmh 30.00 in1015.9 mb 0.00 in0.0 mm 0.00 in0.0 mm 0.00 in0.0 mm
07:14 AM 57.5°F14.2°C 48.9°F9.4°C 73% 7.0 mph SSW11.3 kmh SSW 17.0 mph27.4 kmh 30.00 in1015.9 mb 0.00 in0.0 mm 0.00 in0.0 mm 0.00 in0.0 mm
07:13 AM 57.5°F14.2°C 48.5°F9.2°C 72% 5.0 mph S8.0 kmh S 17.0 mph27.4 kmh 30.00 in1015.9 mb 0.00 in0.0 mm 0.00 in0.0 mm 0.00 in0.0 mm
07:12 AM 57.4°F14.1°C 48.8°F9.3°C 73% 8.0 mph SW12.9 kmh SW 17.0 mph27.4 kmh 30.00 in1015.9 mb 0.00 in0.0 mm 0.00 in0.0 mm 0.00 in0.0 mm
07:11 AM 57.4°F14.1°C 48.8°F9.3°C 73% 7.0 mph SSW11.3 kmh SSW 12.0 mph19.3 kmh 30.00 in1015.9 mb 0.00 in0.0 mm 0.00 in0.0 mm 0.00 in0.0 mm
07:10 AM 57.3°F14.1°C 48.7°F9.3°C 73% 4.0 mph S6.4 kmh S 12.0 mph19.3 kmh 30.00 in1015.9 mb 0.00 in0.0 mm 0.00 in0.0 mm 0.00 in0.0 mm
07:09 AM 57.3°F14.1°C 48.7°F9.3°C 73% 5.0 mph SW8.0 kmh SW 12.0 mph19.3 kmh 30.00 in1015.9 mb 0.00 in0.0 mm 0.00 in0.0 mm 0.00 in0.0 mm
07:08 AM 57.2°F14.0°C 49.0°F9.4°C 74% 5.0 mph SSW8.0 kmh SSW 12.0 mph19.3 kmh 30.00 in1015.9 mb 0.00 in0.0 mm 0.00 in0.0 mm 0.00 in0.0 mm
07:07 AM 57.2°F14.0°C 49.0°F9.4°C 74% 4.0 mph S6.4 kmh S 12.0 mph19.3 kmh 30.00 in1015.9 mb 0.00 in0.0 mm 0.00 in0.0 mm 0.00 in0.0 mm
07:06 AM 57.1°F13.9°C 48.9°F9.4°C 74% 6.0 mph S9.7 kmh S 12.0 mph19.3 kmh 30.00 in1015.9 mb 0.00 in0.0 mm 0.00 in0.0 mm 0.00 in0.0 mm
07:05 AM 57.1°F13.9°C 48.9°F9.4°C 74% 5.0 mph SSW8.0 kmh SSW 12.0 mph19.3 kmh 30.00 in1015.9 mb 0.00 in0.0 mm 0.00 in0.0 mm 0.00 in0.0 mm
07:04 AM 57.1°F13.9°C 48.9°F9.4°C 74% 3.0 mph SSW4.8 kmh SSW 12.0 mph19.3 kmh 30.00 in1015.9 mb 0.00 in0.0 mm 0.00 in0.0 mm 0.00 in0.0 mm
07:03 AM 57.1°F13.9°C 48.9°F9.4°C 74% 4.0 mph SSW6.4 kmh SSW 17.0 mph27.4 kmh 30.00 in1015.9 mb 0.00 in0.0 mm 0.00 in0.0 mm 0.00 in0.0 mm
07:02 AM 57.0°F13.9°C 48.8°F9.3°C 74% 2.0 mph SE3.2 kmh SE 17.0 mph27.4 kmh 30.00 in1015.9 mb 0.00 in0.0 mm 0.00 in0.0 mm 0.00 in0.0 mm
07:01 AM 57.0°F13.9°C 48.8°F9.3°C 74% 1.0 mph S1.6 kmh S 17.0 mph27.4 kmh 30.00 in1015.9 mb 0.00 in0.0 mm 0.00 in0.0 mm 0.00 in0.0 mm
07:00 AM 56.9°F13.8°C 48.7°F9.3°C 74% 2.0 mph S3.2 kmh S 17.0 mph27.4 kmh 30.00 in1015.9 mb 0.00 in0.0 mm 0.00 in0.0 mm 0.00 in0.0 mm
06:59 AM 56.9°F13.8°C 48.7°F9.3°C 74% 5.0 mph SSW8.0 kmh SSW 17.0 mph27.4 kmh 30.00 in1015.9 mb 0.00 in0.0 mm 0.00 in0.0 mm 0.00 in0.0 mm
06:58 AM 56.8°F13.8°C 48.6°F9.2°C 74% 5.0 mph SSW8.0 kmh SSW 17.0 mph27.4 kmh 30.00 in1015.9 mb 0.00 in0.0 mm 0.00 in0.0 mm 0.00 in0.0 mm
06:57 AM 56.8°F13.8°C 49.0°F9.4°C 75% 2.0 mph S3.2 kmh S 17.0 mph27.4 kmh 29.99 in1015.6 mb 0.00 in0.0 mm 0.00 in0.0 mm 0.00 in0.0 mm
06:56 AM 56.8°F13.8°C 49.0°F9.4°C 75% 5.0 mph SSW8.0 kmh SSW 17.0 mph27.4 kmh 29.99 in1015.6 mb 0.00 in0.0 mm 0.00 in0.0 mm 0.00 in0.0 mm
06:55 AM 56.7°F13.7°C 48.9°F9.4°C 75% 2.0 mph SSW3.2 kmh SSW 17.0 mph27.4 kmh 29.99 in1015.6 mb 0.00 in0.0 mm 0.00 in0.0 mm 0.00 in0.0 mm
06:54 AM 56.7°F13.7°C 48.9°F9.4°C 75% 5.0 mph SSW8.0 kmh SSW 17.0 mph27.4 kmh 29.99 in1015.6 mb 0.00 in0.0 mm 0.00 in0.0 mm 0.00 in0.0 mm
06:53 AM 56.7°F13.7°C 48.9°F9.4°C 75% 10.0 mph S16.1 kmh S 18.0 mph29.0 kmh 29.99 in1015.6 mb 0.00 in0.0 mm 0.00 in0.0 mm 0.00 in0.0 mm
06:52 AM 56.6°F13.7°C 48.8°F9.3°C 75% 7.0 mph SSW11.3 kmh SSW 18.0 mph29.0 kmh 29.99 in1015.6 mb 0.00 in0.0 mm 0.00 in0.0 mm 0.00 in0.0 mm
06:51 AM 56.5°F13.6°C 48.7°F9.3°C 75% 4.0 mph SW6.4 kmh SW 18.0 mph29.0 kmh 29.99 in1015.6 mb 0.00 in0.0 mm 0.00 in0.0 mm 0.00 in0.0 mm
06:50 AM 56.4°F13.6°C 48.2°F9.0°C 74% 6.0 mph S9.7 kmh S 18.0 mph29.0 kmh 29.99 in1015.6 mb 0.00 in0.0 mm 0.00 in0.0 mm 0.00 in0.0 mm
06:49 AM 56.3°F13.5°C 48.5°F9.2°C 75% 2.0 mph WSW3.2 kmh WSW 18.0 mph29.0 kmh 29.99 in1015.6 mb 0.00 in0.0 mm 0.00 in0.0 mm 0.00 in0.0 mm
06:48 AM 56.2°F13.4°C 48.7°F9.3°C 76% 8.0 mph SSW12.9 kmh SSW 18.0 mph29.0 kmh 29.99 in1015.6 mb 0.00 in0.0 mm 0.00 in0.0 mm 0.00 in0.0 mm
06:47 AM 56.2°F13.4°C 48.7°F9.3°C 76% 7.0 mph SW11.3 kmh SW 18.0 mph29.0 kmh 29.99 in1015.6 mb 0.00 in0.0 mm 0.00 in0.0 mm 0.00 in0.0 mm
06:46 AM 56.1°F13.4°C 48.6°F9.2°C 76% 12.0 mph SW19.3 kmh SW 18.0 mph29.0 kmh 29.99 in1015.6 mb 0.00 in0.0 mm 0.00 in0.0 mm 0.00 in0.0 mm
06:45 AM 56.0°F13.3°C 48.5°F9.2°C 76% 10.0 mph S16.1 kmh S 18.0 mph29.0 kmh 29.99 in1015.6 mb 0.00 in0.0 mm 0.00 in0.0 mm 0.00 in0.0 mm
06:44 AM 56.0°F13.3°C 48.5°F9.2°C 76% 7.0 mph SSW11.3 kmh SSW 18.0 mph29.0 kmh 29.99 in1015.6 mb 0.00 in0.0 mm 0.00 in0.0 mm 0.00 in0.0 mm
06:43 AM 55.9°F13.3°C 48.4°F9.1°C 76% 16.0 mph S25.7 kmh S 20.0 mph32.2 kmh 29.99 in1015.6 mb 0.00 in0.0 mm 0.00 in0.0 mm 0.00 in0.0 mm
06:42 AM 55.9°F13.3°C 48.4°F9.1°C 76% 8.0 mph S12.9 kmh S 20.0 mph32.2 kmh 29.99 in1015.6 mb 0.00 in0.0 mm 0.00 in0.0 mm 0.00 in0.0 mm
06:41 AM 55.8°F13.2°C 48.3°F9.1°C 76% 12.0 mph SSW19.3 kmh SSW 20.0 mph32.2 kmh 29.98 in1015.2 mb 0.00 in0.0 mm 0.00 in0.0 mm 0.00 in0.0 mm
06:40 AM 55.8°F13.2°C 48.3°F9.1°C 76% 9.0 mph S14.5 kmh S 20.0 mph32.2 kmh 29.98 in1015.2 mb 0.00 in0.0 mm 0.00 in0.0 mm 0.00 in0.0 mm
06:39 AM 55.8°F13.2°C 48.3°F9.1°C 76% 13.0 mph S20.9 kmh S 20.0 mph32.2 kmh 29.98 in1015.2 mb 0.00 in0.0 mm 0.00 in0.0 mm 0.00 in0.0 mm
06:38 AM 55.7°F13.2°C 48.3°F9.1°C 76% 12.0 mph SSW19.3 kmh SSW 20.0 mph32.2 kmh 29.99 in1015.6 mb 0.00 in0.0 mm 0.00 in0.0 mm 0.00 in0.0 mm
06:37 AM 55.7°F13.2°C 48.3°F9.1°C 76% 11.0 mph SSW17.7 kmh SSW 20.0 mph32.2 kmh 29.99 in1015.6 mb 0.00 in0.0 mm 0.00 in0.0 mm 0.00 in0.0 mm
06:36 AM 55.7°F13.2°C 48.3°F9.1°C 76% 11.0 mph S17.7 kmh S 20.0 mph32.2 kmh 29.99 in1015.6 mb 0.00 in0.0 mm 0.00 in0.0 mm 0.00 in0.0 mm
06:35 AM 55.7°F13.2°C 48.3°F9.1°C 76% 12.0 mph SW19.3 kmh SW 20.0 mph32.2 kmh 29.98 in1015.2 mb 0.00 in0.0 mm 0.00 in0.0 mm 0.00 in0.0 mm
06:34 AM 55.6°F13.1°C 48.2°F9.0°C 76% 10.0 mph S16.1 kmh S 20.0 mph32.2 kmh 29.98 in1015.2 mb 0.00 in0.0 mm 0.00 in0.0 mm 0.00 in0.0 mm
06:33 AM 55.6°F13.1°C 48.5°F9.2°C 77% 16.0 mph S25.7 kmh S 20.0 mph32.2 kmh 29.98 in1015.2 mb 0.00 in0.0 mm 0.00 in0.0 mm 0.00 in0.0 mm
06:32 AM 55.6°F13.1°C 48.2°F9.0°C 76% 10.0 mph S16.1 kmh S 20.0 mph32.2 kmh 29.98 in1015.2 mb 0.00 in0.0 mm 0.00 in0.0 mm 0.00 in0.0 mm
06:31 AM 55.6°F13.1°C 48.2°F9.0°C 76% 12.0 mph S19.3 kmh S 20.0 mph32.2 kmh 29.98 in1015.2 mb 0.00 in0.0 mm 0.00 in0.0 mm 0.00 in0.0 mm
06:30 AM 55.5°F13.1°C 48.1°F8.9°C 76% 14.0 mph S22.5 kmh S 20.0 mph32.2 kmh 29.98 in1015.2 mb 0.00 in0.0 mm 0.00 in0.0 mm 0.00 in0.0 mm
06:29 AM 55.6°F13.1°C 48.2°F9.0°C 76% 13.0 mph S20.9 kmh S 20.0 mph32.2 kmh 29.98 in1015.2 mb 0.00 in0.0 mm 0.00 in0.0 mm 0.00 in0.0 mm
06:28 AM 55.6°F13.1°C 48.2°F9.0°C 76% 11.0 mph SSW17.7 kmh SSW 20.0 mph32.2 kmh 29.98 in1015.2 mb 0.00 in0.0 mm 0.00 in0.0 mm 0.00 in0.0 mm
06:27 AM 55.5°F13.1°C 48.1°F8.9°C 76% 10.0 mph S16.1 kmh S 20.0 mph32.2 kmh 29.98 in1015.2 mb 0.00 in0.0 mm 0.00 in0.0 mm 0.00 in0.0 mm
06:26 AM 55.5°F13.1°C 48.4°F9.1°C 77% 11.0 mph S17.7 kmh S 20.0 mph32.2 kmh 29.98 in1015.2 mb 0.00 in0.0 mm 0.00 in0.0 mm 0.00 in0.0 mm
06:25 AM 55.4°F13.0°C 48.3°F9.1°C 77% 12.0 mph SSW19.3 kmh SSW 20.0 mph32.2 kmh 29.98 in1015.2 mb 0.00 in0.0 mm 0.00 in0.0 mm 0.00 in0.0 mm
06:24 AM 55.3°F12.9°C 48.2°F9.0°C 77% 12.0 mph SSW19.3 kmh SSW 20.0 mph32.2 kmh 29.98 in1015.2 mb 0.00 in0.0 mm 0.00 in0.0 mm 0.00 in0.0 mm
06:23 AM 55.3°F12.9°C 48.2°F9.0°C 77% 10.0 mph S16.1 kmh S 19.0 mph30.6 kmh 29.98 in1015.2 mb 0.00 in0.0 mm 0.00 in0.0 mm 0.00 in0.0 mm
06:22 AM 55.2°F12.9°C 48.1°F8.9°C 77% 8.0 mph SSW12.9 kmh SSW 18.0 mph29.0 kmh 29.98 in1015.2 mb 0.00 in0.0 mm 0.00 in0.0 mm 0.00 in0.0 mm
06:21 AM 55.1°F12.8°C 48.0°F8.9°C 77% 14.0 mph S22.5 kmh S 18.0 mph29.0 kmh 29.98 in1015.2 mb 0.00 in0.0 mm 0.00 in0.0 mm 0.00 in0.0 mm
06:20 AM 55.1°F12.8°C 48.0°F8.9°C 77% 11.0 mph SSW17.7 kmh SSW 18.0 mph29.0 kmh 29.98 in1015.2 mb 0.00 in0.0 mm 0.00 in0.0 mm 0.00 in0.0 mm
06:19 AM 55.1°F12.8°C 48.0°F8.9°C 77% 12.0 mph SSW19.3 kmh SSW 18.0 mph29.0 kmh 29.98 in1015.2 mb 0.00 in0.0 mm 0.00 in0.0 mm 0.00 in0.0 mm
06:18 AM 55.0°F12.8°C 47.9°F8.8°C 77% 8.0 mph SSW12.9 kmh SSW 18.0 mph29.0 kmh 29.98 in1015.2 mb 0.00 in0.0 mm 0.00 in0.0 mm 0.00 in0.0 mm
06:17 AM 55.0°F12.8°C 47.9°F8.8°C 77% 11.0 mph SW17.7 kmh SW 17.0 mph27.4 kmh 29.98 in1015.2 mb 0.00 in0.0 mm 0.00 in0.0 mm 0.00 in0.0 mm
06:16 AM 55.0°F12.8°C 48.3°F9.1°C 78% 11.0 mph S17.7 kmh S 17.0 mph27.4 kmh 29.98 in1015.2 mb 0.00 in0.0 mm 0.00 in0.0 mm 0.00 in0.0 mm
06:15 AM 55.0°F12.8°C 47.9°F8.8°C 77% 8.0 mph S12.9 kmh S 17.0 mph27.4 kmh 29.98 in1015.2 mb 0.00 in0.0 mm 0.00 in0.0 mm 0.00 in0.0 mm
06:14 AM 55.0°F12.8°C 47.9°F8.8°C 77% 11.0 mph S17.7 kmh S 17.0 mph27.4 kmh 29.98 in1015.2 mb 0.00 in0.0 mm 0.00 in0.0 mm 0.00 in0.0 mm
06:13 AM 55.0°F12.8°C 47.9°F8.8°C 77% 8.0 mph SW12.9 kmh SW 17.0 mph27.4 kmh 29.98 in1015.2 mb 0.00 in0.0 mm 0.00 in0.0 mm 0.00 in0.0 mm
06:12 AM 55.0°F12.8°C 47.9°F8.8°C 77% 10.0 mph S16.1 kmh S 17.0 mph27.4 kmh 29.98 in1015.2 mb 0.00 in0.0 mm 0.00 in0.0 mm 0.00 in0.0 mm
06:11 AM 55.1°F12.8°C 48.0°F8.9°C 77% 9.0 mph SSW14.5 kmh SSW 17.0 mph27.4 kmh 29.98 in1015.2 mb 0.00 in0.0 mm 0.00 in0.0 mm 0.00 in0.0 mm
06:10 AM 55.1°F12.8°C 48.0°F8.9°C 77% 8.0 mph S12.9 kmh S 17.0 mph27.4 kmh 29.98 in1015.2 mb 0.00 in0.0 mm 0.00 in0.0 mm 0.00 in0.0 mm
06:09 AM 55.2°F12.9°C 48.1°F8.9°C 77% 9.0 mph S14.5 kmh S 17.0 mph27.4 kmh 29.98 in1015.2 mb 0.00 in0.0 mm 0.00 in0.0 mm 0.00 in0.0 mm
06:08 AM 55.2°F12.9°C 48.1°F8.9°C 77% 13.0 mph S20.9 kmh S 17.0 mph27.4 kmh 29.98 in1015.2 mb 0.00 in0.0 mm 0.00 in0.0 mm 0.00 in0.0 mm
06:07 AM 55.2°F12.9°C 48.1°F8.9°C 77% 10.0 mph S16.1 kmh S 17.0 mph27.4 kmh 29.98 in1015.2 mb 0.00 in0.0 mm 0.00 in0.0 mm 0.00 in0.0 mm
06:06 AM 55.2°F12.9°C 48.1°F8.9°C 77% 11.0 mph SSW17.7 kmh SSW 17.0 mph27.4 kmh 29.98 in1015.2 mb 0.00 in0.0 mm 0.00 in0.0 mm 0.00 in0.0 mm
06:05 AM 55.1°F12.8°C 48.0°F8.9°C 77% 9.0 mph SSW14.5 kmh SSW 17.0 mph27.4 kmh 29.98 in1015.2 mb 0.00 in0.0 mm 0.00 in0.0 mm 0.00 in0.0 mm
06:04 AM 55.0°F12.8°C 47.9°F8.8°C 77% 10.0 mph S16.1 kmh S 17.0 mph27.4 kmh 29.98 in1015.2 mb 0.00 in0.0 mm 0.00 in0.0 mm 0.00 in0.0 mm
06:03 AM 55.0°F12.8°C 47.9°F8.8°C 77% 14.0 mph S22.5 kmh S 17.0 mph27.4 kmh 29.98 in1015.2 mb 0.00 in0.0 mm 0.00 in0.0 mm 0.00 in0.0 mm
06:02 AM 55.0°F12.8°C 47.9°F8.8°C 77% 10.0 mph S16.1 kmh S 17.0 mph27.4 kmh 29.98 in1015.2 mb 0.00 in0.0 mm 0.00 in0.0 mm 0.00 in0.0 mm
06:01 AM 55.0°F12.8°C 48.3°F9.1°C 78% 11.0 mph SSW17.7 kmh SSW 17.0 mph27.4 kmh 29.98 in1015.2 mb 0.00 in0.0 mm 0.00 in0.0 mm 0.00 in0.0 mm
06:00 AM 55.0°F12.8°C 48.3°F9.1°C 78% 12.0 mph S19.3 kmh S 17.0 mph27.4 kmh 29.98 in1015.2 mb 0.00 in0.0 mm 0.00 in0.0 mm 0.00 in0.0 mm
05:59 AM 55.0°F12.8°C 48.3°F9.1°C 78% 16.0 mph S25.7 kmh S 17.0 mph27.4 kmh 29.98 in1015.2 mb 0.00 in0.0 mm 0.00 in0.0 mm 0.00 in0.0 mm
05:58 AM 54.9°F12.7°C 48.2°F9.0°C 78% 13.0 mph S20.9 kmh S 17.0 mph27.4 kmh 29.98 in1015.2 mb 0.00 in0.0 mm 0.00 in0.0 mm 0.00 in0.0 mm
05:57 AM 54.9°F12.7°C 48.2°F9.0°C 78% 12.0 mph SSW19.3 kmh SSW 17.0 mph27.4 kmh 29.98 in1015.2 mb 0.00 in0.0 mm 0.00 in0.0 mm 0.00 in0.0 mm
05:56 AM 54.9°F12.7°C 48.2°F9.0°C 78% 11.0 mph SSW17.7 kmh SSW 17.0 mph27.4 kmh 29.98 in1015.2 mb 0.00 in0.0 mm 0.00 in0.0 mm 0.00 in0.0 mm
05:55 AM 54.7°F12.6°C 48.0°F8.9°C 78% 17.0 mph S27.4 kmh S 17.0 mph27.4 kmh 29.98 in1015.2 mb 0.00 in0.0 mm 0.00 in0.0 mm 0.00 in0.0 mm
05:54 AM 54.7°F12.6°C 48.0°F8.9°C 78% 10.0 mph S16.1 kmh S 17.0 mph27.4 kmh 29.98 in1015.2 mb 0.00 in0.0 mm 0.00 in0.0 mm 0.00 in0.0 mm
05:53 AM 54.7°F12.6°C 48.0°F8.9°C 78% 8.0 mph SSW12.9 kmh SSW 17.0 mph27.4 kmh 29.97 in1014.9 mb 0.00 in0.0 mm 0.00 in0.0 mm 0.00 in0.0 mm
05:52 AM 54.7°F12.6°C 48.3°F9.1°C 79% 11.0 mph S17.7 kmh S 19.0 mph30.6 kmh 29.97 in1014.9 mb 0.00 in0.0 mm 0.00 in0.0 mm 0.00 in0.0 mm
05:51 AM 54.6°F12.6°C 47.9°F8.8°C 78% 11.0 mph SSW17.7 kmh SSW 19.0 mph30.6 kmh 29.98 in1015.2 mb 0.00 in0.0 mm 0.00 in0.0 mm 0.00 in0.0 mm
05:50 AM 54.7°F12.6°C 48.0°F8.9°C 78% 7.0 mph S11.3 kmh S 19.0 mph30.6 kmh 29.98 in1015.2 mb 0.00 in0.0 mm 0.00 in0.0 mm 0.00 in0.0 mm
05:49 AM 54.8°F12.7°C 48.1°F8.9°C 78% 8.0 mph S12.9 kmh S 19.0 mph30.6 kmh 29.97 in1014.9 mb 0.00 in0.0 mm 0.00 in0.0 mm 0.00 in0.0 mm
05:48 AM 54.8°F12.7°C 48.1°F8.9°C 78% 9.0 mph SSW14.5 kmh SSW 19.0 mph30.6 kmh 29.98 in1015.2 mb 0.00 in0.0 mm 0.00 in0.0 mm 0.00 in0.0 mm
05:47 AM 54.8°F12.7°C 48.1°F8.9°C 78% 13.0 mph S20.9 kmh S 19.0 mph30.6 kmh 29.97 in1014.9 mb 0.00 in0.0 mm 0.00 in0.0 mm 0.00 in0.0 mm
05:46 AM 54.7°F12.6°C 48.0°F8.9°C 78% 10.0 mph S16.1 kmh S 19.0 mph30.6 kmh 29.97 in1014.9 mb 0.00 in0.0 mm 0.00 in0.0 mm 0.00 in0.0 mm
05:45 AM 54.7°F12.6°C 48.0°F8.9°C 78% 10.0 mph SSW16.1 kmh SSW 19.0 mph30.6 kmh 29.97 in1014.9 mb 0.00 in0.0 mm 0.00 in0.0 mm 0.00 in0.0 mm
05:44 AM 54.8°F12.7°C 48.1°F8.9°C 78% 10.0 mph SSW16.1 kmh SSW 19.0 mph30.6 kmh 29.97 in1014.9 mb 0.00 in0.0 mm 0.00 in0.0 mm 0.00 in0.0 mm
05:43 AM 54.9°F12.7°C 48.2°F9.0°C 78% 14.0 mph S22.5 kmh S 19.0 mph30.6 kmh 29.97 in1014.9 mb 0.00 in0.0 mm 0.00 in0.0 mm 0.00 in0.0 mm
05:42 AM 54.9°F12.7°C 48.2°F9.0°C 78% 8.0 mph S12.9 kmh S 19.0 mph30.6 kmh 29.97 in1014.9 mb 0.00 in0.0 mm 0.00 in0.0 mm 0.00 in0.0 mm
05:41 AM 55.0°F12.8°C 47.9°F8.8°C 77% 10.0 mph S16.1 kmh S 19.0 mph30.6 kmh 29.97 in1014.9 mb 0.00 in0.0 mm 0.00 in0.0 mm 0.00 in0.0 mm
05:40 AM 55.1°F12.8°C 48.0°F8.9°C 77% 8.0 mph S12.9 kmh S 19.0 mph30.6 kmh 29.97 in1014.9 mb 0.00 in0.0 mm 0.00 in0.0 mm 0.00 in0.0 mm
05:39 AM 55.2°F12.9°C 48.1°F8.9°C 77% 11.0 mph SSE17.7 kmh SSE 19.0 mph30.6 kmh 29.97 in1014.9 mb 0.00 in0.0 mm 0.00 in0.0 mm 0.00 in0.0 mm
05:38 AM 55.3°F12.9°C 48.2°F9.0°C 77% 6.0 mph S9.7 kmh S 19.0 mph30.6 kmh 29.97 in1014.9 mb 0.00 in0.0 mm 0.00 in0.0 mm 0.00 in0.0 mm
05:37 AM 55.3°F12.9°C 48.2°F9.0°C 77% 11.0 mph S17.7 kmh S 19.0 mph30.6 kmh 29.97 in1014.9 mb 0.00 in0.0 mm 0.00 in0.0 mm 0.00 in0.0 mm
05:36 AM 55.4°F13.0°C 48.3°F9.1°C 77% 8.0 mph S12.9 kmh S 19.0 mph30.6 kmh 29.97 in1014.9 mb 0.00 in0.0 mm 0.00 in0.0 mm 0.00 in0.0 mm
05:35 AM 55.4°F13.0°C 48.3°F9.1°C 77% 11.0 mph SSW17.7 kmh SSW 19.0 mph30.6 kmh 29.97 in1014.9 mb 0.00 in0.0 mm 0.00 in0.0 mm 0.00 in0.0 mm
05:34 AM 55.4°F13.0°C 48.3°F9.1°C 77% 7.0 mph S11.3 kmh S 19.0 mph30.6 kmh 29.97 in1014.9 mb 0.00 in0.0 mm 0.00 in0.0 mm 0.00 in0.0 mm
05:33 AM 55.4°F13.0°C 48.3°F9.1°C 77% 10.0 mph S16.1 kmh S 19.0 mph30.6 kmh 29.97 in1014.9 mb 0.00 in0.0 mm 0.00 in0.0 mm 0.00 in0.0 mm
05:32 AM 55.3°F12.9°C 48.2°F9.0°C 77% 13.0 mph S20.9 kmh S 15.0 mph24.1 kmh 29.97 in1014.9 mb 0.00 in0.0 mm 0.00 in0.0 mm 0.00 in0.0 mm
05:31 AM 55.4°F13.0°C 48.3°F9.1°C 77% 12.0 mph S19.3 kmh S 15.0 mph24.1 kmh 29.97 in1014.9 mb 0.00 in0.0 mm 0.00 in0.0 mm 0.00 in0.0 mm
05:30 AM 55.4°F13.0°C 48.3°F9.1°C 77% 8.0 mph S12.9 kmh S 15.0 mph24.1 kmh 29.97 in1014.9 mb 0.00 in0.0 mm 0.00 in0.0 mm 0.00 in0.0 mm
05:29 AM 55.4°F13.0°C 48.3°F9.1°C 77% 9.0 mph S14.5 kmh S 15.0 mph24.1 kmh 29.97 in1014.9 mb 0.00 in0.0 mm 0.00 in0.0 mm 0.00 in0.0 mm
05:28 AM 55.4°F13.0°C 48.3°F9.1°C 77% 8.0 mph S12.9 kmh S 15.0 mph24.1 kmh 29.97 in1014.9 mb 0.00 in0.0 mm 0.00 in0.0 mm 0.00 in0.0 mm
05:27 AM 55.3°F12.9°C 48.6°F9.2°C 78% 10.0 mph SSW16.1 kmh SSW 15.0 mph24.1 kmh 29.97 in1014.9 mb 0.00 in0.0 mm 0.00 in0.0 mm 0.00 in0.0 mm
05:26 AM 55.1°F12.8°C 48.4°F9.1°C 78% 13.0 mph SW20.9 kmh SW 15.0 mph24.1 kmh 29.97 in1014.9 mb 0.00 in0.0 mm 0.00 in0.0 mm 0.00 in0.0 mm
05:25 AM 55.1°F12.8°C 48.4°F9.1°C 78% 12.0 mph SSW19.3 kmh SSW 16.0 mph25.7 kmh 29.97 in1014.9 mb 0.00 in0.0 mm 0.00 in0.0 mm 0.00 in0.0 mm
05:24 AM 55.0°F12.8°C 48.3°F9.1°C 78% 10.0 mph S16.1 kmh S 16.0 mph25.7 kmh 29.97 in1014.9 mb 0.00 in0.0 mm 0.00 in0.0 mm 0.00 in0.0 mm
05:23 AM 55.0°F12.8°C 48.3°F9.1°C 78% 12.0 mph S19.3 kmh S 16.0 mph25.7 kmh 29.97 in1014.9 mb 0.00 in0.0 mm 0.00 in0.0 mm 0.00 in0.0 mm
05:22 AM 55.0°F12.8°C 48.3°F9.1°C 78% 8.0 mph S12.9 kmh S 16.0 mph25.7 kmh 29.97 in1014.9 mb 0.00 in0.0 mm 0.00 in0.0 mm 0.00 in0.0 mm
05:21 AM 55.0°F12.8°C 48.3°F9.1°C 78% 11.0 mph S17.7 kmh S 16.0 mph25.7 kmh 29.97 in1014.9 mb 0.00 in0.0 mm 0.00 in0.0 mm 0.00 in0.0 mm
05:20 AM 55.0°F12.8°C 48.3°F9.1°C 78% 8.0 mph SSW12.9 kmh SSW 16.0 mph25.7 kmh 29.97 in1014.9 mb 0.00 in0.0 mm 0.00 in0.0 mm 0.00 in0.0 mm
05:19 AM 55.1°F12.8°C 48.4°F9.1°C 78% 8.0 mph S12.9 kmh S 16.0 mph25.7 kmh 29.97 in1014.9 mb 0.00 in0.0 mm 0.00 in0.0 mm 0.00 in0.0 mm
05:18 AM 55.1°F12.8°C 48.4°F9.1°C 78% 10.0 mph S16.1 kmh S 16.0 mph25.7 kmh 29.97 in1014.9 mb 0.00 in0.0 mm 0.00 in0.0 mm 0.00 in0.0 mm
05:17 AM 55.1°F12.8°C 48.4°F9.1°C 78% 11.0 mph S17.7 kmh S 16.0 mph25.7 kmh 29.97 in1014.9 mb 0.00 in0.0 mm 0.00 in0.0 mm 0.00 in0.0 mm
05:16 AM 55.1°F12.8°C 48.4°F9.1°C 78% 10.0 mph S16.1 kmh S 16.0 mph25.7 kmh 29.97 in1014.9 mb 0.00 in0.0 mm 0.00 in0.0 mm 0.00 in0.0 mm
05:15 AM 55.0°F12.8°C 48.3°F9.1°C 78% 7.0 mph SSW11.3 kmh SSW 16.0 mph25.7 kmh 29.97 in1014.9 mb 0.00 in0.0 mm 0.00 in0.0 mm 0.00 in0.0 mm
05:14 AM 55.0°F12.8°C 48.3°F9.1°C 78% 8.0 mph S12.9 kmh S 16.0 mph25.7 kmh 29.97 in1014.9 mb 0.00 in0.0 mm 0.00 in0.0 mm 0.00 in0.0 mm
05:13 AM 55.0°F12.8°C 48.3°F9.1°C 78% 7.0 mph S11.3 kmh S 16.0 mph25.7 kmh 29.97 in1014.9 mb 0.00 in0.0 mm 0.00 in0.0 mm 0.00 in0.0 mm
05:12 AM 55.0°F12.8°C 48.3°F9.1°C 78% 6.0 mph S9.7 kmh S 16.0 mph25.7 kmh 29.97 in1014.9 mb 0.00 in0.0 mm 0.00 in0.0 mm 0.00 in0.0 mm
05:11 AM 55.0°F12.8°C 48.3°F9.1°C 78% 8.0 mph S12.9 kmh S 16.0 mph25.7 kmh 29.96 in1014.6 mb 0.00 in0.0 mm 0.00 in0.0 mm 0.00 in0.0 mm
05:10 AM 55.0°F12.8°C 48.3°F9.1°C 78% 10.0 mph SW16.1 kmh SW 16.0 mph25.7 kmh 29.97 in1014.9 mb 0.00 in0.0 mm 0.00 in0.0 mm 0.00 in0.0 mm
05:09 AM 55.0°F12.8°C 48.3°F9.1°C 78% 10.0 mph S16.1 kmh S 16.0 mph25.7 kmh 29.97 in1014.9 mb 0.00 in0.0 mm 0.00 in0.0 mm 0.00 in0.0 mm
05:08 AM 55.0°F12.8°C 48.3°F9.1°C 78% 7.0 mph SSW11.3 kmh SSW 16.0 mph25.7 kmh 29.96 in1014.6 mb 0.00 in0.0 mm 0.00 in0.0 mm 0.00 in0.0 mm
05:07 AM 55.0°F12.8°C 48.3°F9.1°C 78% 7.0 mph S11.3 kmh S 16.0 mph25.7 kmh 29.96 in1014.6 mb 0.00 in0.0 mm 0.00 in0.0 mm 0.00 in0.0 mm
05:06 AM 55.0°F12.8°C 48.3°F9.1°C 78% 9.0 mph SSW14.5 kmh SSW 16.0 mph25.7 kmh 29.96 in1014.6 mb 0.00 in0.0 mm 0.00 in0.0 mm 0.00 in0.0 mm
05:05 AM 55.0°F12.8°C 48.3°F9.1°C 78% 8.0 mph S12.9 kmh S 13.0 mph20.9 kmh 29.96 in1014.6 mb 0.00 in0.0 mm 0.00 in0.0 mm 0.00 in0.0 mm
05:04 AM 55.1°F12.8°C 48.4°F9.1°C 78% 7.0 mph S11.3 kmh S 13.0 mph20.9 kmh 29.96 in1014.6 mb 0.00 in0.0 mm 0.00 in0.0 mm 0.00 in0.0 mm
05:03 AM 55.1°F12.8°C 48.4°F9.1°C 78% 10.0 mph SSW16.1 kmh SSW 13.0 mph20.9 kmh 29.96 in1014.6 mb 0.00 in0.0 mm 0.00 in0.0 mm 0.00 in0.0 mm
05:02 AM 55.0°F12.8°C 48.3°F9.1°C 78% 7.0 mph S11.3 kmh S 12.0 mph19.3 kmh 29.96 in1014.6 mb 0.00 in0.0 mm 0.00 in0.0 mm 0.00 in0.0 mm
05:01 AM 55.0°F12.8°C 48.3°F9.1°C 78% 9.0 mph S14.5 kmh S 12.0 mph19.3 kmh 29.96 in1014.6 mb 0.00 in0.0 mm 0.00 in0.0 mm 0.00 in0.0 mm
05:00 AM 55.0°F12.8°C 48.3°F9.1°C 78% 10.0 mph S16.1 kmh S 15.0 mph24.1 kmh 29.96 in1014.6 mb 0.00 in0.0 mm 0.00 in0.0 mm 0.00 in0.0 mm
04:59 AM 55.0°F12.8°C 48.3°F9.1°C 78% 7.0 mph SSW11.3 kmh SSW 15.0 mph24.1 kmh 29.96 in1014.6 mb 0.00 in0.0 mm 0.00 in0.0 mm 0.00 in0.0 mm
04:58 AM 55.0°F12.8°C 48.3°F9.1°C 78% 8.0 mph S12.9 kmh S 15.0 mph24.1 kmh 29.96 in1014.6 mb 0.00 in0.0 mm 0.00 in0.0 mm 0.00 in0.0 mm
04:57 AM 55.0°F12.8°C 48.3°F9.1°C 78% 7.0 mph S11.3 kmh S 15.0 mph24.1 kmh 29.96 in1014.6 mb 0.00 in0.0 mm 0.00 in0.0 mm 0.00 in0.0 mm
04:56 AM 55.0°F12.8°C 48.3°F9.1°C 78% 8.0 mph S12.9 kmh S 15.0 mph24.1 kmh 29.96 in1014.6 mb 0.00 in0.0 mm 0.00 in0.0 mm 0.00 in0.0 mm
04:55 AM 55.1°F12.8°C 48.4°F9.1°C 78% 7.0 mph S11.3 kmh S 15.0 mph24.1 kmh 29.96 in1014.6 mb 0.00 in0.0 mm 0.00 in0.0 mm 0.00 in0.0 mm
04:54 AM 55.1°F12.8°C 48.4°F9.1°C 78% 11.0 mph S17.7 kmh S 15.0 mph24.1 kmh 29.96 in1014.6 mb 0.00 in0.0 mm 0.00 in0.0 mm 0.00 in0.0 mm
04:53 AM 55.2°F12.9°C 48.5°F9.2°C 78% 8.0 mph SSW12.9 kmh SSW 15.0 mph24.1 kmh 29.96 in1014.6 mb 0.00 in0.0 mm 0.00 in0.0 mm 0.00 in0.0 mm
04:52 AM 55.2°F12.9°C 48.5°F9.2°C 78% 11.0 mph S17.7 kmh S 15.0 mph24.1 kmh 29.96 in1014.6 mb 0.00 in0.0 mm 0.00 in0.0 mm 0.00 in0.0 mm
04:51 AM 55.2°F12.9°C 48.5°F9.2°C 78% 8.0 mph S12.9 kmh S 15.0 mph24.1 kmh 29.96 in1014.6 mb 0.00 in0.0 mm 0.00 in0.0 mm 0.00 in0.0 mm
04:50 AM 55.2°F12.9°C 48.5°F9.2°C 78% 8.0 mph S12.9 kmh S 15.0 mph24.1 kmh 29.96 in1014.6 mb 0.00 in0.0 mm 0.00 in0.0 mm 0.00 in0.0 mm
04:49 AM 55.3°F12.9°C 48.2°F9.0°C 77% 7.0 mph S11.3 kmh S 15.0 mph24.1 kmh 29.96 in1014.6 mb 0.00 in0.0 mm 0.00 in0.0 mm 0.00 in0.0 mm
04:48 AM 55.3°F12.9°C 48.2°F9.0°C 77% 7.0 mph S11.3 kmh S 15.0 mph24.1 kmh 29.96 in1014.6 mb 0.00 in0.0 mm 0.00 in0.0 mm 0.00 in0.0 mm
04:47 AM 55.4°F13.0°C 48.3°F9.1°C 77% 9.0 mph SSE14.5 kmh SSE 15.0 mph24.1 kmh 29.96 in1014.6 mb 0.00 in0.0 mm 0.00 in0.0 mm 0.00 in0.0 mm
04:46 AM 55.5°F13.1°C 48.4°F9.1°C 77% 8.0 mph S12.9 kmh S 15.0 mph24.1 kmh 29.96 in1014.6 mb 0.00 in0.0 mm 0.00 in0.0 mm 0.00 in0.0 mm
04:45 AM 55.5°F13.1°C 48.4°F9.1°C 77% 7.0 mph S11.3 kmh S 15.0 mph24.1 kmh 29.96 in1014.6 mb 0.00 in0.0 mm 0.00 in0.0 mm 0.00 in0.0 mm
04:44 AM 55.6°F13.1°C 48.5°F9.2°C 77% 8.0 mph SSE12.9 kmh SSE 15.0 mph24.1 kmh 29.96 in1014.6 mb 0.00 in0.0 mm 0.00 in0.0 mm 0.00 in0.0 mm
04:43 AM 55.6°F13.1°C 48.5°F9.2°C 77% 8.0 mph S12.9 kmh S 15.0 mph24.1 kmh 29.96 in1014.6 mb 0.00 in0.0 mm 0.00 in0.0 mm 0.00 in0.0 mm
04:42 AM 55.6°F13.1°C 48.5°F9.2°C 77% 9.0 mph S14.5 kmh S 15.0 mph24.1 kmh 29.96 in1014.6 mb 0.00 in0.0 mm 0.00 in0.0 mm 0.00 in0.0 mm
04:41 AM 55.6°F13.1°C 48.5°F9.2°C 77% 8.0 mph S12.9 kmh S 15.0 mph24.1 kmh 29.96 in1014.6 mb 0.00 in0.0 mm 0.00 in0.0 mm 0.00 in0.0 mm
04:40 AM 55.6°F13.1°C 48.5°F9.2°C 77% 9.0 mph S14.5 kmh S 14.0 mph22.5 kmh 29.96 in1014.6 mb 0.00 in0.0 mm 0.00 in0.0 mm 0.00 in0.0 mm
04:39 AM 55.6°F13.1°C 48.5°F9.2°C 77% 8.0 mph S12.9 kmh S 14.0 mph22.5 kmh 29.96 in1014.6 mb 0.00 in0.0 mm 0.00 in0.0 mm 0.00 in0.0 mm
04:38 AM 55.7°F13.2°C 48.6°F9.2°C 77% 8.0 mph S12.9 kmh S 14.0 mph22.5 kmh 29.96 in1014.6 mb 0.00 in0.0 mm 0.00 in0.0 mm 0.00 in0.0 mm
04:37 AM 55.7°F13.2°C 48.6°F9.2°C 77% 8.0 mph S12.9 kmh S 14.0 mph22.5 kmh 29.96 in1014.6 mb 0.00 in0.0 mm 0.00 in0.0 mm 0.00 in0.0 mm
04:36 AM 55.8°F13.2°C 48.7°F9.3°C 77% 8.0 mph S12.9 kmh S 14.0 mph22.5 kmh 29.96 in1014.6 mb 0.00 in0.0 mm 0.00 in0.0 mm 0.00 in0.0 mm
04:35 AM 55.8°F13.2°C 48.7°F9.3°C 77% 12.0 mph S19.3 kmh S 14.0 mph22.5 kmh 29.96 in1014.6 mb 0.00 in0.0 mm 0.00 in0.0 mm 0.00 in0.0 mm
04:34 AM 55.8°F13.2°C 48.7°F9.3°C 77% 9.0 mph S14.5 kmh S 16.0 mph25.7 kmh 29.96 in1014.6 mb 0.00 in0.0 mm 0.00 in0.0 mm 0.00 in0.0 mm
04:33 AM 55.9°F13.3°C 48.8°F9.3°C 77% 7.0 mph S11.3 kmh S 16.0 mph25.7 kmh 29.96 in1014.6 mb 0.00 in0.0 mm 0.00 in0.0 mm 0.00 in0.0 mm
04:32 AM 55.9°F13.3°C 48.8°F9.3°C 77% 10.0 mph S16.1 kmh S 16.0 mph25.7 kmh 29.96 in1014.6 mb 0.00 in0.0 mm 0.00 in0.0 mm 0.00 in0.0 mm
04:31 AM 55.9°F13.3°C 48.8°F9.3°C 77% 7.0 mph S11.3 kmh S 16.0 mph25.7 kmh 29.96 in1014.6 mb 0.00 in0.0 mm 0.00 in0.0 mm 0.00 in0.0 mm
04:30 AM 55.9°F13.3°C 48.8°F9.3°C 77% 7.0 mph SSW11.3 kmh SSW 16.0 mph25.7 kmh 29.96 in1014.6 mb 0.00 in0.0 mm 0.00 in0.0 mm 0.00 in0.0 mm
04:29 AM 55.9°F13.3°C 48.8°F9.3°C 77% 7.0 mph S11.3 kmh S 16.0 mph25.7 kmh 29.96 in1014.6 mb 0.00 in0.0 mm 0.00 in0.0 mm 0.00 in0.0 mm
04:28 AM 55.9°F13.3°C 48.8°F9.3°C 77% 8.0 mph S12.9 kmh S 16.0 mph25.7 kmh 29.96 in1014.6 mb 0.00 in0.0 mm 0.00 in0.0 mm 0.00 in0.0 mm
04:27 AM 56.0°F13.3°C 48.5°F9.2°C 76% 8.0 mph S12.9 kmh S 16.0 mph25.7 kmh 29.96 in1014.6 mb 0.00 in0.0 mm 0.00 in0.0 mm 0.00 in0.0 mm
04:26 AM 56.0°F13.3°C 48.5°F9.2°C 76% 9.0 mph S14.5 kmh S 16.0 mph25.7 kmh 29.96 in1014.6 mb 0.00 in0.0 mm 0.00 in0.0 mm 0.00 in0.0 mm
04:25 AM 56.0°F13.3°C 48.5°F9.2°C 76% 8.0 mph S12.9 kmh S 16.0 mph25.7 kmh 29.96 in1014.6 mb 0.00 in0.0 mm 0.00 in0.0 mm 0.00 in0.0 mm
04:24 AM 56.1°F13.4°C 48.6°F9.2°C 76% 8.0 mph S12.9 kmh S 16.0 mph25.7 kmh 29.96 in1014.6 mb 0.00 in0.0 mm 0.00 in0.0 mm 0.00 in0.0 mm
04:23 AM 56.2°F13.4°C 48.7°F9.3°C 76% 6.0 mph S9.7 kmh S 16.0 mph25.7 kmh 29.96 in1014.6 mb 0.00 in0.0 mm 0.00 in0.0 mm 0.00 in0.0 mm
04:22 AM 56.3°F13.5°C 48.8°F9.3°C 76% 12.0 mph S19.3 kmh S 16.0 mph25.7 kmh 29.96 in1014.6 mb 0.00 in0.0 mm 0.00 in0.0 mm 0.00 in0.0 mm
04:21 AM 56.3°F13.5°C 48.8°F9.3°C 76% 13.0 mph S20.9 kmh S 16.0 mph25.7 kmh 29.96 in1014.6 mb 0.00 in0.0 mm 0.00 in0.0 mm 0.00 in0.0 mm
04:20 AM 56.3°F13.5°C 48.8°F9.3°C 76% 9.0 mph S14.5 kmh S 16.0 mph25.7 kmh 29.96 in1014.6 mb 0.00 in0.0 mm 0.00 in0.0 mm 0.00 in0.0 mm
04:19 AM 56.4°F13.6°C 48.9°F9.4°C 76% 13.0 mph S20.9 kmh S 16.0 mph25.7 kmh 29.96 in1014.6 mb 0.00 in0.0 mm 0.00 in0.0 mm 0.00 in0.0 mm
04:18 AM 56.4°F13.6°C 48.9°F9.4°C 76% 12.0 mph SSW19.3 kmh SSW 16.0 mph25.7 kmh 29.96 in1014.6 mb 0.00 in0.0 mm 0.00 in0.0 mm 0.00 in0.0 mm
04:17 AM 56.5°F13.6°C 49.0°F9.4°C 76% 9.0 mph S14.5 kmh S 16.0 mph25.7 kmh 29.96 in1014.6 mb 0.00 in0.0 mm 0.00 in0.0 mm 0.00 in0.0 mm
04:16 AM 56.6°F13.7°C 49.1°F9.5°C 76% 10.0 mph S16.1 kmh S 16.0 mph25.7 kmh 29.96 in1014.6 mb 0.00 in0.0 mm 0.00 in0.0 mm 0.00 in0.0 mm
04:15 AM 56.6°F13.7°C 49.1°F9.5°C 76% 10.0 mph S16.1 kmh S 16.0 mph25.7 kmh 29.96 in1014.6 mb 0.00 in0.0 mm 0.00 in0.0 mm 0.00 in0.0 mm
04:14 AM 56.6°F13.7°C 49.1°F9.5°C 76% 11.0 mph S17.7 kmh S 18.0 mph29.0 kmh 29.96 in1014.6 mb 0.00 in0.0 mm 0.00 in0.0 mm 0.00 in0.0 mm
04:13 AM 56.7°F13.7°C 49.2°F9.6°C 76% 10.0 mph S16.1 kmh S 18.0 mph29.0 kmh 29.96 in1014.6 mb 0.00 in0.0 mm 0.00 in0.0 mm 0.00 in0.0 mm
04:12 AM 56.7°F13.7°C 49.2°F9.6°C 76% 9.0 mph S14.5 kmh S 18.0 mph29.0 kmh 29.96 in1014.6 mb 0.00 in0.0 mm 0.00 in0.0 mm 0.00 in0.0 mm
04:11 AM 56.8°F13.8°C 49.0°F9.4°C 75% 10.0 mph S16.1 kmh S 18.0 mph29.0 kmh 29.96 in1014.6 mb 0.00 in0.0 mm 0.00 in0.0 mm 0.00 in0.0 mm
04:10 AM 56.9°F13.8°C 49.1°F9.5°C 75% 11.0 mph S17.7 kmh S 18.0 mph29.0 kmh 29.96 in1014.6 mb 0.00 in0.0 mm 0.00 in0.0 mm 0.00 in0.0 mm
04:09 AM 56.9°F13.8°C 49.1°F9.5°C 75% 10.0 mph SSW16.1 kmh SSW 18.0 mph29.0 kmh 29.96 in1014.6 mb 0.00 in0.0 mm 0.00 in0.0 mm 0.00 in0.0 mm
04:08 AM 57.0°F13.9°C 49.2°F9.6°C 75% 10.0 mph S16.1 kmh S 18.0 mph29.0 kmh 29.96 in1014.6 mb 0.00 in0.0 mm 0.00 in0.0 mm 0.00 in0.0 mm
04:07 AM 57.1°F13.9°C 49.2°F9.6°C 75% 10.0 mph SSW16.1 kmh SSW 18.0 mph29.0 kmh 29.96 in1014.6 mb 0.00 in0.0 mm 0.00 in0.0 mm 0.00 in0.0 mm
04:06 AM 57.0°F13.9°C 49.2°F9.6°C 75% 11.0 mph S17.7 kmh S 18.0 mph29.0 kmh 29.96 in1014.6 mb 0.00 in0.0 mm 0.00 in0.0 mm 0.00 in0.0 mm
04:05 AM 57.0°F13.9°C 49.2°F9.6°C 75% 10.0 mph S16.1 kmh S 18.0 mph29.0 kmh 29.96 in1014.6 mb 0.00 in0.0 mm 0.00 in0.0 mm 0.00 in0.0 mm
04:04 AM 57.0°F13.9°C 49.2°F9.6°C 75% 10.0 mph SSE16.1 kmh SSE 18.0 mph29.0 kmh 29.96 in1014.6 mb 0.00 in0.0 mm 0.00 in0.0 mm 0.00 in0.0 mm
04:03 AM 57.1°F13.9°C 49.2°F9.6°C 75% 13.0 mph SSW20.9 kmh SSW 18.0 mph29.0 kmh 29.96 in1014.6 mb 0.00 in0.0 mm 0.00 in0.0 mm 0.00 in0.0 mm
04:02 AM 57.1°F13.9°C 49.2°F9.6°C 75% 9.0 mph S14.5 kmh S 18.0 mph29.0 kmh 29.95 in1014.2 mb 0.00 in0.0 mm 0.00 in0.0 mm 0.00 in0.0 mm
04:01 AM 57.0°F13.9°C 49.2°F9.6°C 75% 12.0 mph S19.3 kmh S 18.0 mph29.0 kmh 29.95 in1014.2 mb 0.00 in0.0 mm 0.00 in0.0 mm 0.00 in0.0 mm
04:00 AM 57.0°F13.9°C 49.5°F9.7°C 76% 8.0 mph S12.9 kmh S 18.0 mph29.0 kmh 29.95 in1014.2 mb 0.00 in0.0 mm 0.00 in0.0 mm 0.00 in0.0 mm
03:59 AM 56.9°F13.8°C 49.4°F9.7°C 76% 11.0 mph S17.7 kmh S 18.0 mph29.0 kmh 29.95 in1014.2 mb 0.00 in0.0 mm 0.00 in0.0 mm 0.00 in0.0 mm
03:58 AM 56.9°F13.8°C 49.4°F9.7°C 76% 14.0 mph SSW22.5 kmh SSW 18.0 mph29.0 kmh 29.95 in1014.2 mb 0.00 in0.0 mm 0.00 in0.0 mm 0.00 in0.0 mm
03:57 AM 57.0°F13.9°C 49.5°F9.7°C 76% 9.0 mph S14.5 kmh S 18.0 mph29.0 kmh 29.95 in1014.2 mb 0.00 in0.0 mm 0.00 in0.0 mm 0.00 in0.0 mm
03:56 AM 57.0°F13.9°C 49.5°F9.7°C 76% 13.0 mph SW20.9 kmh SW 18.0 mph29.0 kmh 29.96 in1014.6 mb 0.00 in0.0 mm 0.00 in0.0 mm 0.00 in0.0 mm
03:55 AM 57.0°F13.9°C 49.5°F9.7°C 76% 7.0 mph SSW11.3 kmh SSW 18.0 mph29.0 kmh 29.96 in1014.6 mb 0.00 in0.0 mm 0.00 in0.0 mm 0.00 in0.0 mm
03:54 AM 57.1°F13.9°C 49.6°F9.8°C 76% 11.0 mph S17.7 kmh S 18.0 mph29.0 kmh 29.95 in1014.2 mb 0.00 in0.0 mm 0.00 in0.0 mm 0.00 in0.0 mm
03:53 AM 57.1°F13.9°C 49.2°F9.6°C 75% 7.0 mph S11.3 kmh S 18.0 mph29.0 kmh 29.96 in1014.6 mb 0.00 in0.0 mm 0.00 in0.0 mm 0.00 in0.0 mm
03:52 AM 57.1°F13.9°C 49.6°F9.8°C 76% 10.0 mph S16.1 kmh S 18.0 mph29.0 kmh 29.96 in1014.6 mb 0.00 in0.0 mm 0.00 in0.0 mm 0.00 in0.0 mm
03:51 AM 57.2°F14.0°C 49.3°F9.6°C 75% 7.0 mph S11.3 kmh S 18.0 mph29.0 kmh 29.96 in1014.6 mb 0.00 in0.0 mm 0.00 in0.0 mm 0.00 in0.0 mm
03:50 AM 57.2°F14.0°C 49.3°F9.6°C 75% 9.0 mph S14.5 kmh S 18.0 mph29.0 kmh 29.95 in1014.2 mb 0.00 in0.0 mm 0.00 in0.0 mm 0.00 in0.0 mm
03:49 AM 57.3°F14.1°C 49.4°F9.7°C 75% 8.0 mph SSW12.9 kmh SSW 18.0 mph29.0 kmh 29.95 in1014.2 mb 0.00 in0.0 mm 0.00 in0.0 mm 0.00 in0.0 mm
03:48 AM 57.3°F14.1°C 49.4°F9.7°C 75% 8.0 mph SSW12.9 kmh SSW 18.0 mph29.0 kmh 29.95 in1014.2 mb 0.00 in0.0 mm 0.00 in0.0 mm 0.00 in0.0 mm
03:47 AM 57.3°F14.1°C 49.4°F9.7°C 75% 11.0 mph S17.7 kmh S 18.0 mph29.0 kmh 29.95 in1014.2 mb 0.00 in0.0 mm 0.00 in0.0 mm 0.00 in0.0 mm
03:46 AM 57.2°F14.0°C 49.7°F9.8°C 76% 11.0 mph SSW17.7 kmh SSW 18.0 mph29.0 kmh 29.95 in1014.2 mb 0.00 in0.0 mm 0.00 in0.0 mm 0.00 in0.0 mm
03:45 AM 57.1°F13.9°C 49.6°F9.8°C 76% 11.0 mph S17.7 kmh S 18.0 mph29.0 kmh 29.95 in1014.2 mb 0.00 in0.0 mm 0.00 in0.0 mm 0.00 in0.0 mm
03:44 AM 57.1°F13.9°C 49.6°F9.8°C 76% 8.0 mph SSW12.9 kmh SSW 15.0 mph24.1 kmh 29.95 in1014.2 mb 0.00 in0.0 mm 0.00 in0.0 mm 0.00 in0.0 mm
03:43 AM 57.1°F13.9°C 49.6°F9.8°C 76% 8.0 mph S12.9 kmh S 15.0 mph24.1 kmh 29.95 in1014.2 mb 0.00 in0.0 mm 0.00 in0.0 mm 0.00 in0.0 mm
03:42 AM 57.2°F14.0°C 49.7°F9.8°C 76% 8.0 mph S12.9 kmh S 15.0 mph24.1 kmh 29.95 in1014.2 mb 0.00 in0.0 mm 0.00 in0.0 mm 0.00 in0.0 mm
03:41 AM 57.2°F14.0°C 49.7°F9.8°C 76% 11.0 mph S17.7 kmh S 15.0 mph24.1 kmh 29.95 in1014.2 mb 0.00 in0.0 mm 0.00 in0.0 mm 0.00 in0.0 mm
03:40 AM 57.1°F13.9°C 49.6°F9.8°C 76% 9.0 mph SW14.5 kmh SW 15.0 mph24.1 kmh 29.95 in1014.2 mb 0.00 in0.0 mm 0.00 in0.0 mm 0.00 in0.0 mm
03:39 AM 57.2°F14.0°C 49.7°F9.8°C 76% 6.0 mph S9.7 kmh S 15.0 mph24.1 kmh 29.95 in1014.2 mb 0.00 in0.0 mm 0.00 in0.0 mm 0.00 in0.0 mm
03:38 AM 57.2°F14.0°C 49.7°F9.8°C 76% 7.0 mph S11.3 kmh S 15.0 mph24.1 kmh 29.95 in1014.2 mb 0.00 in0.0 mm 0.00 in0.0 mm 0.00 in0.0 mm
03:37 AM 57.2°F14.0°C 49.7°F9.8°C 76% 8.0 mph S12.9 kmh S 15.0 mph24.1 kmh 29.95 in1014.2 mb 0.00 in0.0 mm 0.00 in0.0 mm 0.00 in0.0 mm
03:36 AM 57.3°F14.1°C 49.8°F9.9°C 76% 9.0 mph S14.5 kmh S 15.0 mph24.1 kmh 29.95 in1014.2 mb 0.00 in0.0 mm 0.00 in0.0 mm 0.00 in0.0 mm
03:35 AM 57.4°F14.1°C 49.9°F9.9°C 76% 9.0 mph SSW14.5 kmh SSW 15.0 mph24.1 kmh 29.95 in1014.2 mb 0.00 in0.0 mm 0.00 in0.0 mm 0.00 in0.0 mm
03:34 AM 57.4°F14.1°C 49.9°F9.9°C 76% 8.0 mph S12.9 kmh S 15.0 mph24.1 kmh 29.95 in1014.2 mb 0.00 in0.0 mm 0.00 in0.0 mm 0.00 in0.0 mm
03:33 AM 57.5°F14.2°C 49.6°F9.8°C 75% 9.0 mph SSW14.5 kmh SSW 15.0 mph24.1 kmh 29.95 in1014.2 mb 0.00 in0.0 mm 0.00 in0.0 mm 0.00 in0.0 mm
03:32 AM 57.6°F14.2°C 49.7°F9.8°C 75% 7.0 mph S11.3 kmh S 15.0 mph24.1 kmh 29.95 in1014.2 mb 0.00 in0.0 mm 0.00 in0.0 mm 0.00 in0.0 mm
03:31 AM 57.7°F14.3°C 49.8°F9.9°C 75% 7.0 mph S11.3 kmh S 15.0 mph24.1 kmh 29.95 in1014.2 mb 0.00 in0.0 mm 0.00 in0.0 mm 0.00 in0.0 mm
03:30 AM 57.7°F14.3°C 49.8°F9.9°C 75% 11.0 mph SSW17.7 kmh SSW 15.0 mph24.1 kmh 29.95 in1014.2 mb 0.00 in0.0 mm 0.00 in0.0 mm 0.00 in0.0 mm
03:29 AM 57.8°F14.3°C 49.9°F9.9°C 75% 10.0 mph S16.1 kmh S 15.0 mph24.1 kmh 29.95 in1014.2 mb 0.00 in0.0 mm 0.00 in0.0 mm 0.00 in0.0 mm
03:28 AM 57.8°F14.3°C 49.9°F9.9°C 75% 8.0 mph S12.9 kmh S 14.0 mph22.5 kmh 29.95 in1014.2 mb 0.00 in0.0 mm 0.00 in0.0 mm 0.00 in0.0 mm
03:27 AM 57.9°F14.4°C 50.0°F10.0°C 75% 9.0 mph SSW14.5 kmh SSW 14.0 mph22.5 kmh 29.95 in1014.2 mb 0.00 in0.0 mm 0.00 in0.0 mm 0.00 in0.0 mm
03:26 AM 57.9°F14.4°C 50.0°F10.0°C 75% 11.0 mph S17.7 kmh S 14.0 mph22.5 kmh 29.95 in1014.2 mb 0.00 in0.0 mm 0.00 in0.0 mm 0.00 in0.0 mm
03:25 AM 58.0°F14.4°C 50.1°F10.1°C 75% 12.0 mph SW19.3 kmh SW 14.0 mph22.5 kmh 29.95 in1014.2 mb 0.00 in0.0 mm 0.00 in0.0 mm 0.00 in0.0 mm
03:24 AM 58.1°F14.5°C 50.2°F10.1°C 75% 10.0 mph S16.1 kmh S 14.0 mph22.5 kmh 29.95 in1014.2 mb 0.00 in0.0 mm 0.00 in0.0 mm 0.00 in0.0 mm
03:23 AM 58.1°F14.5°C 50.2°F10.1°C 75% 8.0 mph SSW12.9 kmh SSW 14.0 mph22.5 kmh 29.95 in1014.2 mb 0.00 in0.0 mm 0.00 in0.0 mm 0.00 in0.0 mm
03:22 AM 58.2°F14.6°C 50.0°F10.0°C 74% 9.0 mph S14.5 kmh S 14.0 mph22.5 kmh 29.95 in1014.2 mb 0.00 in0.0 mm 0.00 in0.0 mm 0.00 in0.0 mm
03:21 AM 58.2°F14.6°C 50.3°F10.2°C 75% 10.0 mph SSE16.1 kmh SSE 14.0 mph22.5 kmh 29.95 in1014.2 mb 0.00 in0.0 mm 0.00 in0.0 mm 0.00 in0.0 mm
03:20 AM 58.3°F14.6°C 50.4°F10.2°C 75% 12.0 mph SW19.3 kmh SW 14.0 mph22.5 kmh 29.95 in1014.2 mb 0.00 in0.0 mm 0.00 in0.0 mm 0.00 in0.0 mm
03:19 AM 58.4°F14.7°C 50.1°F10.1°C 74% 9.0 mph S14.5 kmh S 14.0 mph22.5 kmh 29.95 in1014.2 mb 0.00 in0.0 mm 0.00 in0.0 mm 0.00 in0.0 mm
03:18 AM 58.4°F14.7°C 50.1°F10.1°C 74% 9.0 mph S14.5 kmh S 14.0 mph22.5 kmh 29.95 in1014.2 mb 0.00 in0.0 mm 0.00 in0.0 mm 0.00 in0.0 mm
03:17 AM 58.4°F14.7°C 50.1°F10.1°C 74% 8.0 mph S12.9 kmh S 14.0 mph22.5 kmh 29.95 in1014.2 mb 0.00 in0.0 mm 0.00 in0.0 mm 0.00 in0.0 mm
03:16 AM 58.5°F14.7°C 50.2°F10.1°C 74% 6.0 mph S9.7 kmh S 14.0 mph22.5 kmh 29.95 in1014.2 mb 0.00 in0.0 mm 0.00 in0.0 mm 0.00 in0.0 mm
03:15 AM 58.5°F14.7°C 50.2°F10.1°C 74% 12.0 mph S19.3 kmh S 14.0 mph22.5 kmh 29.95 in1014.2 mb 0.00 in0.0 mm 0.00 in0.0 mm 0.00 in0.0 mm
03:14 AM 58.6°F14.8°C 50.3°F10.2°C 74% 7.0 mph S11.3 kmh S 14.0 mph22.5 kmh 29.95 in1014.2 mb 0.00 in0.0 mm 0.00 in0.0 mm 0.00 in0.0 mm
03:13 AM 58.6°F14.8°C 50.3°F10.2°C 74% 9.0 mph S14.5 kmh S 14.0 mph22.5 kmh 29.95 in1014.2 mb 0.00 in0.0 mm 0.00 in0.0 mm 0.00 in0.0 mm
03:12 AM 58.7°F14.8°C 50.4°F10.2°C 74% 12.0 mph S19.3 kmh S 14.0 mph22.5 kmh 29.95 in1014.2 mb 0.00 in0.0 mm 0.00 in0.0 mm 0.00 in0.0 mm
03:11 AM 58.8°F14.9°C 50.5°F10.3°C 74% 12.0 mph S19.3 kmh S 14.0 mph22.5 kmh 29.95 in1014.2 mb 0.00 in0.0 mm 0.00 in0.0 mm 0.00 in0.0 mm
03:10 AM 58.9°F14.9°C 50.6°F10.3°C 74% 7.0 mph SSW11.3 kmh SSW 14.0 mph22.5 kmh 29.95 in1014.2 mb 0.00 in0.0 mm 0.00 in0.0 mm 0.00 in0.0 mm
03:09 AM 58.9°F14.9°C 50.6°F10.3°C 74% 7.0 mph SSW11.3 kmh SSW 14.0 mph22.5 kmh 29.95 in1014.2 mb 0.00 in0.0 mm 0.00 in0.0 mm 0.00 in0.0 mm
03:08 AM 59.0°F15.0°C 50.7°F10.4°C 74% 7.0 mph SSW11.3 kmh SSW 14.0 mph22.5 kmh 29.95 in1014.2 mb 0.00 in0.0 mm 0.00 in0.0 mm 0.00 in0.0 mm
03:07 AM 59.0°F15.0°C 50.7°F10.4°C 74% 6.0 mph SW9.7 kmh SW 14.0 mph22.5 kmh 29.95 in1014.2 mb 0.00 in0.0 mm 0.00 in0.0 mm 0.00 in0.0 mm
03:06 AM 59.0°F15.0°C 50.7°F10.4°C 74% 7.0 mph SSW11.3 kmh SSW 13.0 mph20.9 kmh 29.95 in1014.2 mb 0.00 in0.0 mm 0.00 in0.0 mm 0.00 in0.0 mm
03:05 AM 59.0°F15.0°C 50.7°F10.4°C 74% 7.0 mph S11.3 kmh S 13.0 mph20.9 kmh 29.95 in1014.2 mb 0.00 in0.0 mm 0.00 in0.0 mm 0.00 in0.0 mm
03:04 AM 59.1°F15.1°C 50.8°F10.4°C 74% 7.0 mph SSW11.3 kmh SSW 13.0 mph20.9 kmh 29.95 in1014.2 mb 0.00 in0.0 mm 0.00 in0.0 mm 0.00 in0.0 mm
03:03 AM 59.1°F15.1°C 50.8°F10.4°C 74% 7.0 mph SSW11.3 kmh SSW 13.0 mph20.9 kmh 29.95 in1014.2 mb 0.00 in0.0 mm 0.00 in0.0 mm 0.00 in0.0 mm
03:02 AM 59.1°F15.1°C 50.8°F10.4°C 74% 8.0 mph S12.9 kmh S 12.0 mph19.3 kmh 29.95 in1014.2 mb 0.00 in0.0 mm 0.00 in0.0 mm 0.00 in0.0 mm
03:01 AM 59.1°F15.1°C 50.8°F10.4°C 74% 7.0 mph S11.3 kmh S 12.0 mph19.3 kmh 29.95 in1014.2 mb 0.00 in0.0 mm 0.00 in0.0 mm 0.00 in0.0 mm
03:00 AM 59.1°F15.1°C 50.8°F10.4°C 74% 7.0 mph S11.3 kmh S 12.0 mph19.3 kmh 29.95 in1014.2 mb 0.00 in0.0 mm 0.00 in0.0 mm 0.00 in0.0 mm
02:59 AM 59.1°F15.1°C 50.8°F10.4°C 74% 12.0 mph SW19.3 kmh SW 12.0 mph19.3 kmh 29.95 in1014.2 mb 0.00 in0.0 mm 0.00 in0.0 mm 0.00 in0.0 mm
02:58 AM 59.0°F15.0°C 50.7°F10.4°C 74% 9.0 mph SW14.5 kmh SW 12.0 mph19.3 kmh 29.95 in1014.2 mb 0.00 in0.0 mm 0.00 in0.0 mm 0.00 in0.0 mm
02:57 AM 59.0°F15.0°C 50.7°F10.4°C 74% 8.0 mph SSW12.9 kmh SSW 12.0 mph19.3 kmh 29.95 in1014.2 mb 0.00 in0.0 mm 0.00 in0.0 mm 0.00 in0.0 mm
02:56 AM 58.9°F14.9°C 50.6°F10.3°C 74% 8.0 mph S12.9 kmh S 12.0 mph19.3 kmh 29.95 in1014.2 mb 0.00 in0.0 mm 0.00 in0.0 mm 0.00 in0.0 mm
02:55 AM 58.9°F14.9°C 50.6°F10.3°C 74% 7.0 mph S11.3 kmh S 12.0 mph19.3 kmh 29.95 in1014.2 mb 0.00 in0.0 mm 0.00 in0.0 mm 0.00 in0.0 mm
02:54 AM 58.9°F14.9°C 50.6°F10.3°C 74% 8.0 mph S12.9 kmh S 12.0 mph19.3 kmh 29.95 in1014.2 mb 0.00 in0.0 mm 0.00 in0.0 mm 0.00 in0.0 mm
02:53 AM 58.9°F14.9°C 50.6°F10.3°C 74% 10.0 mph S16.1 kmh S 11.0 mph17.7 kmh 29.95 in1014.2 mb 0.00 in0.0 mm 0.00 in0.0 mm 0.00 in0.0 mm
02:52 AM 58.9°F14.9°C 50.6°F10.3°C 74% 5.0 mph S8.0 kmh S 11.0 mph17.7 kmh 29.95 in1014.2 mb 0.00 in0.0 mm 0.00 in0.0 mm 0.00 in0.0 mm
02:51 AM 59.0°F15.0°C 50.7°F10.4°C 74% 7.0 mph S11.3 kmh S 11.0 mph17.7 kmh 29.95 in1014.2 mb 0.00 in0.0 mm 0.00 in0.0 mm 0.00 in0.0 mm
02:50 AM 59.0°F15.0°C 50.7°F10.4°C 74% 5.0 mph S8.0 kmh S 11.0 mph17.7 kmh 29.95 in1014.2 mb 0.00 in0.0 mm 0.00 in0.0 mm 0.00 in0.0 mm
02:49 AM 59.0°F15.0°C 50.7°F10.4°C 74% 9.0 mph S14.5 kmh S 11.0 mph17.7 kmh 29.95 in1014.2 mb 0.00 in0.0 mm 0.00 in0.0 mm 0.00 in0.0 mm
02:48 AM 59.1°F15.1°C 50.8°F10.4°C 74% 5.0 mph S8.0 kmh S 11.0 mph17.7 kmh 29.95 in1014.2 mb 0.00 in0.0 mm 0.00 in0.0 mm 0.00 in0.0 mm
02:47 AM 59.1°F15.1°C 50.8°F10.4°C 74% 7.0 mph SSW11.3 kmh SSW 13.0 mph20.9 kmh 29.95 in1014.2 mb 0.00 in0.0 mm 0.00 in0.0 mm 0.00 in0.0 mm
02:46 AM 59.1°F15.1°C 50.8°F10.4°C 74% 6.0 mph SSW9.7 kmh SSW 13.0 mph20.9 kmh 29.95 in1014.2 mb 0.00 in0.0 mm 0.00 in0.0 mm 0.00 in0.0 mm
02:45 AM 59.2°F15.1°C 50.9°F10.5°C 74% 5.0 mph S8.0 kmh S 13.0 mph20.9 kmh 29.95 in1014.2 mb 0.00 in0.0 mm 0.00 in0.0 mm 0.00 in0.0 mm
02:44 AM 59.2°F15.1°C 50.5°F10.3°C 73% 8.0 mph S12.9 kmh S 13.0 mph20.9 kmh 29.95 in1014.2 mb 0.00 in0.0 mm 0.00 in0.0 mm 0.00 in0.0 mm
02:43 AM 59.3°F15.2°C 50.6°F10.3°C 73% 9.0 mph S14.5 kmh S 13.0 mph20.9 kmh 29.95 in1014.2 mb 0.00 in0.0 mm 0.00 in0.0 mm 0.00 in0.0 mm
02:42 AM 59.3°F15.2°C 50.6°F10.3°C 73% 8.0 mph S12.9 kmh S 13.0 mph20.9 kmh 29.95 in1014.2 mb 0.00 in0.0 mm 0.00 in0.0 mm 0.00 in0.0 mm
02:41 AM 59.4°F15.2°C 50.7°F10.4°C 73% 7.0 mph S11.3 kmh S 13.0 mph20.9 kmh 29.95 in1014.2 mb 0.00 in0.0 mm 0.00 in0.0 mm 0.00 in0.0 mm
02:40 AM 59.5°F15.3°C 50.8°F10.4°C 73% 7.0 mph S11.3 kmh S 13.0 mph20.9 kmh 29.95 in1014.2 mb 0.00 in0.0 mm 0.00 in0.0 mm 0.00 in0.0 mm
02:39 AM 59.6°F15.3°C 50.9°F10.5°C 73% 7.0 mph S11.3 kmh S 13.0 mph20.9 kmh 29.95 in1014.2 mb 0.00 in0.0 mm 0.00 in0.0 mm 0.00 in0.0 mm
02:38 AM 59.7°F15.4°C 51.0°F10.6°C 73% 8.0 mph S12.9 kmh S 13.0 mph20.9 kmh 29.95 in1014.2 mb 0.00 in0.0 mm 0.00 in0.0 mm 0.00 in0.0 mm
02:37 AM 59.8°F15.4°C 51.1°F10.6°C 73% 7.0 mph S11.3 kmh S 13.0 mph20.9 kmh 29.95 in1014.2 mb 0.00 in0.0 mm 0.00 in0.0 mm 0.00 in0.0 mm
02:36 AM 59.8°F15.4°C 50.8°F10.4°C 72% 8.0 mph S12.9 kmh S 13.0 mph20.9 kmh 29.95 in1014.2 mb 0.00 in0.0 mm 0.00 in0.0 mm 0.00 in0.0 mm
02:35 AM 59.8°F15.4°C 50.8°F10.4°C 72% 8.0 mph SSW12.9 kmh SSW 13.0 mph20.9 kmh 29.95 in1014.2 mb 0.00 in0.0 mm 0.00 in0.0 mm 0.00 in0.0 mm
02:34 AM 59.9°F15.5°C 50.8°F10.4°C 72% 8.0 mph S12.9 kmh S 13.0 mph20.9 kmh 29.95 in1014.2 mb 0.00 in0.0 mm 0.00 in0.0 mm 0.00 in0.0 mm
02:33 AM 59.9°F15.5°C 50.8°F10.4°C 72% 9.0 mph SSW14.5 kmh SSW 13.0 mph20.9 kmh 29.95 in1014.2 mb 0.00 in0.0 mm 0.00 in0.0 mm 0.00 in0.0 mm
02:32 AM 59.8°F15.4°C 50.8°F10.4°C 72% 9.0 mph S14.5 kmh S 13.0 mph20.9 kmh 29.95 in1014.2 mb 0.00 in0.0 mm 0.00 in0.0 mm 0.00 in0.0 mm
02:31 AM 59.8°F15.4°C 50.8°F10.4°C 72% 7.0 mph SSW11.3 kmh SSW 13.0 mph20.9 kmh 29.95 in1014.2 mb 0.00 in0.0 mm 0.00 in0.0 mm 0.00 in0.0 mm
02:30 AM 59.8°F15.4°C 50.8°F10.4°C 72% 10.0 mph S16.1 kmh S 13.0 mph20.9 kmh 29.95 in1014.2 mb 0.00 in0.0 mm 0.00 in0.0 mm 0.00 in0.0 mm
02:29 AM 59.8°F15.4°C 50.8°F10.4°C 72% 7.0 mph S11.3 kmh S 13.0 mph20.9 kmh 29.95 in1014.2 mb 0.00 in0.0 mm 0.00 in0.0 mm 0.00 in0.0 mm
02:28 AM 59.8°F15.4°C 50.8°F10.4°C 72% 8.0 mph S12.9 kmh S 13.0 mph20.9 kmh 29.95 in1014.2 mb 0.00 in0.0 mm 0.00 in0.0 mm 0.00 in0.0 mm
02:27 AM 59.9°F15.5°C 50.8°F10.4°C 72% 6.0 mph S9.7 kmh S 12.0 mph19.3 kmh 29.95 in1014.2 mb 0.00 in0.0 mm 0.00 in0.0 mm 0.00 in0.0 mm
02:26 AM 59.9°F15.5°C 50.8°F10.4°C 72% 6.0 mph S9.7 kmh S 15.0 mph24.1 kmh 29.95 in1014.2 mb 0.00 in0.0 mm 0.00 in0.0 mm 0.00 in0.0 mm
02:25 AM 59.9°F15.5°C 50.8°F10.4°C 72% 7.0 mph S11.3 kmh S 15.0 mph24.1 kmh 29.95 in1014.2 mb 0.00 in0.0 mm 0.00 in0.0 mm 0.00 in0.0 mm
02:24 AM 59.9°F15.5°C 50.8°F10.4°C 72% 7.0 mph SSW11.3 kmh SSW 15.0 mph24.1 kmh 29.95 in1014.2 mb 0.00 in0.0 mm 0.00 in0.0 mm 0.00 in0.0 mm
02:23 AM 59.8°F15.4°C 50.8°F10.4°C 72% 7.0 mph S11.3 kmh S 15.0 mph24.1 kmh 29.95 in1014.2 mb 0.00 in0.0 mm 0.00 in0.0 mm 0.00 in0.0 mm
02:22 AM 59.8°F15.4°C 50.8°F10.4°C 72% 9.0 mph S14.5 kmh S 15.0 mph24.1 kmh 29.95 in1014.2 mb 0.00 in0.0 mm 0.00 in0.0 mm 0.00 in0.0 mm
02:21 AM 59.7°F15.4°C 51.0°F10.6°C 73% 12.0 mph SW19.3 kmh SW 15.0 mph24.1 kmh 29.95 in1014.2 mb 0.00 in0.0 mm 0.00 in0.0 mm 0.00 in0.0 mm
02:20 AM 59.7°F15.4°C 51.0°F10.6°C 73% 7.0 mph S11.3 kmh S 15.0 mph24.1 kmh 29.95 in1014.2 mb 0.00 in0.0 mm 0.00 in0.0 mm 0.00 in0.0 mm
02:19 AM 59.7°F15.4°C 50.7°F10.4°C 72% 6.0 mph SSW9.7 kmh SSW 15.0 mph24.1 kmh 29.95 in1014.2 mb 0.00 in0.0 mm 0.00 in0.0 mm 0.00 in0.0 mm
02:18 AM 59.7°F15.4°C 50.7°F10.4°C 72% 6.0 mph S9.7 kmh S 15.0 mph24.1 kmh 29.95 in1014.2 mb 0.00 in0.0 mm 0.00 in0.0 mm 0.00 in0.0 mm
02:17 AM 59.7°F15.4°C 50.7°F10.4°C 72% 7.0 mph S11.3 kmh S 15.0 mph24.1 kmh 29.95 in1014.2 mb 0.00 in0.0 mm 0.00 in0.0 mm 0.00 in0.0 mm
02:16 AM 59.8°F15.4°C 50.8°F10.4°C 72% 7.0 mph S11.3 kmh S 15.0 mph24.1 kmh 29.95 in1014.2 mb 0.00 in0.0 mm 0.00 in0.0 mm 0.00 in0.0 mm
02:15 AM 59.8°F15.4°C 50.8°F10.4°C 72% 7.0 mph SSW11.3 kmh SSW 15.0 mph24.1 kmh 29.95 in1014.2 mb 0.00 in0.0 mm 0.00 in0.0 mm 0.00 in0.0 mm
02:14 AM 59.8°F15.4°C 50.8°F10.4°C 72% 7.0 mph S11.3 kmh S 15.0 mph24.1 kmh 29.95 in1014.2 mb 0.00 in0.0 mm 0.00 in0.0 mm 0.00 in0.0 mm
02:13 AM 59.7°F15.4°C 50.7°F10.4°C 72% 8.0 mph SSW12.9 kmh SSW 15.0 mph24.1 kmh 29.95 in1014.2 mb 0.00 in0.0 mm 0.00 in0.0 mm 0.00 in0.0 mm
02:12 AM 59.8°F15.4°C 50.8°F10.4°C 72% 6.0 mph SW9.7 kmh SW 15.0 mph24.1 kmh 29.95 in1014.2 mb 0.00 in0.0 mm 0.00 in0.0 mm 0.00 in0.0 mm
02:11 AM 59.8°F15.4°C 50.8°F10.4°C 72% 8.0 mph SW12.9 kmh SW 15.0 mph24.1 kmh 29.95 in1014.2 mb 0.00 in0.0 mm 0.00 in0.0 mm 0.00 in0.0 mm
02:10 AM 59.9°F15.5°C 50.8°F10.4°C 72% 9.0 mph SW14.5 kmh SW 15.0 mph24.1 kmh 29.95 in1014.2 mb 0.00 in0.0 mm 0.00 in0.0 mm 0.00 in0.0 mm
02:09 AM 60.0°F15.6°C 50.6°F10.3°C 71% 8.0 mph SSW12.9 kmh SSW 15.0 mph24.1 kmh 29.95 in1014.2 mb 0.00 in0.0 mm 0.00 in0.0 mm 0.00 in0.0 mm
02:08 AM 60.1°F15.6°C 50.7°F10.4°C 71% 7.0 mph S11.3 kmh S 15.0 mph24.1 kmh 29.95 in1014.2 mb 0.00 in0.0 mm 0.00 in0.0 mm 0.00 in0.0 mm
02:07 AM 60.2°F15.7°C 50.8°F10.4°C 71% 7.0 mph SSW11.3 kmh SSW 15.0 mph24.1 kmh 29.95 in1014.2 mb 0.00 in0.0 mm 0.00 in0.0 mm 0.00 in0.0 mm
02:06 AM 60.2°F15.7°C 50.8°F10.4°C 71% 7.0 mph S11.3 kmh S 12.0 mph19.3 kmh 29.95 in1014.2 mb 0.00 in0.0 mm 0.00 in0.0 mm 0.00 in0.0 mm
02:05 AM 60.3°F15.7°C 50.5°F10.3°C 70% 7.0 mph SSW11.3 kmh SSW 12.0 mph19.3 kmh 29.95 in1014.2 mb 0.00 in0.0 mm 0.00 in0.0 mm 0.00 in0.0 mm
02:04 AM 60.4°F15.8°C 50.6°F10.3°C 70% 6.0 mph S9.7 kmh S 12.0 mph19.3 kmh 29.95 in1014.2 mb 0.00 in0.0 mm 0.00 in0.0 mm 0.00 in0.0 mm
02:03 AM 60.4°F15.8°C 50.6°F10.3°C 70% 6.0 mph S9.7 kmh S 12.0 mph19.3 kmh 29.95 in1014.2 mb 0.00 in0.0 mm 0.00 in0.0 mm 0.00 in0.0 mm
02:02 AM 60.5°F15.8°C 50.7°F10.4°C 70% 7.0 mph S11.3 kmh S 12.0 mph19.3 kmh 29.95 in1014.2 mb 0.00 in0.0 mm 0.00 in0.0 mm 0.00 in0.0 mm
02:01 AM 60.5°F15.8°C 50.7°F10.4°C 70% 7.0 mph S11.3 kmh S 12.0 mph19.3 kmh 29.94 in1013.9 mb 0.00 in0.0 mm 0.00 in0.0 mm 0.00 in0.0 mm
02:00 AM 60.6°F15.9°C 50.8°F10.4°C 70% 8.0 mph SW12.9 kmh SW 12.0 mph19.3 kmh 29.94 in1013.9 mb 0.00 in0.0 mm 0.00 in0.0 mm 0.00 in0.0 mm
01:59 AM 60.6°F15.9°C 50.8°F10.4°C 70% 10.0 mph S16.1 kmh S 11.0 mph17.7 kmh 29.95 in1014.2 mb 0.00 in0.0 mm 0.00 in0.0 mm 0.00 in0.0 mm
01:58 AM 60.5°F15.8°C 50.7°F10.4°C 70% 7.0 mph SSW11.3 kmh SSW 11.0 mph17.7 kmh 29.94 in1013.9 mb 0.00 in0.0 mm 0.00 in0.0 mm 0.00 in0.0 mm
01:57 AM 60.5°F15.8°C 50.7°F10.4°C 70% 7.0 mph SSW11.3 kmh SSW 11.0 mph17.7 kmh 29.94 in1013.9 mb 0.00 in0.0 mm 0.00 in0.0 mm 0.00 in0.0 mm
01:56 AM 60.6°F15.9°C 50.8°F10.4°C 70% 8.0 mph S12.9 kmh S 11.0 mph17.7 kmh 29.94 in1013.9 mb 0.00 in0.0 mm 0.00 in0.0 mm 0.00 in0.0 mm
01:55 AM 60.7°F15.9°C 50.9°F10.5°C 70% 5.0 mph S8.0 kmh S 11.0 mph17.7 kmh 29.94 in1013.9 mb 0.00 in0.0 mm 0.00 in0.0 mm 0.00 in0.0 mm
01:54 AM 60.7°F15.9°C 50.5°F10.3°C 69% 6.0 mph SSW9.7 kmh SSW 11.0 mph17.7 kmh 29.94 in1013.9 mb 0.00 in0.0 mm 0.00 in0.0 mm 0.00 in0.0 mm
01:53 AM 60.8°F16.0°C 50.6°F10.3°C 69% 7.0 mph S11.3 kmh S 11.0 mph17.7 kmh 29.94 in1013.9 mb 0.00 in0.0 mm 0.00 in0.0 mm 0.00 in0.0 mm
01:52 AM 60.8°F16.0°C 50.6°F10.3°C 69% 7.0 mph SSW11.3 kmh SSW 11.0 mph17.7 kmh 29.94 in1013.9 mb 0.00 in0.0 mm 0.00 in0.0 mm 0.00 in0.0 mm
01:51 AM 60.9°F16.1°C 50.7°F10.4°C 69% 7.0 mph SSW11.3 kmh SSW 11.0 mph17.7 kmh 29.94 in1013.9 mb 0.00 in0.0 mm 0.00 in0.0 mm 0.00 in0.0 mm
01:50 AM 61.0°F16.1°C 50.8°F10.4°C 69% 7.0 mph S11.3 kmh S 13.0 mph20.9 kmh 29.94 in1013.9 mb 0.00 in0.0 mm 0.00 in0.0 mm 0.00 in0.0 mm
01:49 AM 61.0°F16.1°C 50.8°F10.4°C 69% 7.0 mph S11.3 kmh S 13.0 mph20.9 kmh 29.94 in1013.9 mb 0.00 in0.0 mm 0.00 in0.0 mm 0.00 in0.0 mm
01:48 AM 61.1°F16.2°C 50.8°F10.4°C 69% 7.0 mph S11.3 kmh S 13.0 mph20.9 kmh 29.94 in1013.9 mb 0.00 in0.0 mm 0.00 in0.0 mm 0.00 in0.0 mm
01:47 AM 61.1°F16.2°C 50.8°F10.4°C 69% 6.0 mph S9.7 kmh S 13.0 mph20.9 kmh 29.94 in1013.9 mb 0.00 in0.0 mm 0.00 in0.0 mm 0.00 in0.0 mm
01:46 AM 61.0°F16.1°C 50.8°F10.4°C 69% 7.0 mph S11.3 kmh S 13.0 mph20.9 kmh 29.94 in1013.9 mb 0.00 in0.0 mm 0.00 in0.0 mm 0.00 in0.0 mm
01:45 AM 61.1°F16.2°C 50.8°F10.4°C 69% 7.0 mph SSW11.3 kmh SSW 13.0 mph20.9 kmh 29.94 in1013.9 mb 0.00 in0.0 mm 0.00 in0.0 mm 0.00 in0.0 mm
01:44 AM 61.1°F16.2°C 50.8°F10.4°C 69% 6.0 mph S9.7 kmh S 13.0 mph20.9 kmh 29.94 in1013.9 mb 0.00 in0.0 mm 0.00 in0.0 mm 0.00 in0.0 mm
01:43 AM 61.1°F16.2°C 50.5°F10.3°C 68% 6.0 mph S9.7 kmh S 13.0 mph20.9 kmh 29.94 in1013.9 mb 0.00 in0.0 mm 0.00 in0.0 mm 0.00 in0.0 mm
01:42 AM 61.2°F16.2°C 50.9°F10.5°C 69% 10.0 mph SSW16.1 kmh SSW 13.0 mph20.9 kmh 29.94 in1013.9 mb 0.00 in0.0 mm 0.00 in0.0 mm 0.00 in0.0 mm
01:41 AM 61.2°F16.2°C 50.5°F10.3°C 68% 7.0 mph SSW11.3 kmh SSW 13.0 mph20.9 kmh 29.94 in1013.9 mb 0.00 in0.0 mm 0.00 in0.0 mm 0.00 in0.0 mm
01:40 AM 61.2°F16.2°C 50.5°F10.3°C 68% 6.0 mph S9.7 kmh S 13.0 mph20.9 kmh 29.94 in1013.9 mb 0.00 in0.0 mm 0.00 in0.0 mm 0.00 in0.0 mm
01:39 AM 61.3°F16.3°C 50.6°F10.3°C 68% 8.0 mph S12.9 kmh S 13.0 mph20.9 kmh 29.94 in1013.9 mb 0.00 in0.0 mm 0.00 in0.0 mm 0.00 in0.0 mm
01:38 AM 61.3°F16.3°C 50.6°F10.3°C 68% 9.0 mph S14.5 kmh S 13.0 mph20.9 kmh 29.94 in1013.9 mb 0.00 in0.0 mm 0.00 in0.0 mm 0.00 in0.0 mm
01:37 AM 61.3°F16.3°C 50.6°F10.3°C 68% 7.0 mph S11.3 kmh S 13.0 mph20.9 kmh 29.94 in1013.9 mb 0.00 in0.0 mm 0.00 in0.0 mm 0.00 in0.0 mm
01:36 AM 61.4°F16.3°C 50.7°F10.4°C 68% 7.0 mph SW11.3 kmh SW 13.0 mph20.9 kmh 29.94 in1013.9 mb 0.00 in0.0 mm 0.00 in0.0 mm 0.00 in0.0 mm
01:35 AM 61.4°F16.3°C 50.7°F10.4°C 68% 5.0 mph S8.0 kmh S 13.0 mph20.9 kmh 29.94 in1013.9 mb 0.00 in0.0 mm 0.00 in0.0 mm 0.00 in0.0 mm
01:34 AM 61.4°F16.3°C 50.3°F10.2°C 67% 7.0 mph S11.3 kmh S 13.0 mph20.9 kmh 29.94 in1013.9 mb 0.00 in0.0 mm 0.00 in0.0 mm 0.00 in0.0 mm
01:33 AM 61.4°F16.3°C 50.7°F10.4°C 68% 5.0 mph S8.0 kmh S 13.0 mph20.9 kmh 29.94 in1013.9 mb 0.00 in0.0 mm 0.00 in0.0 mm 0.00 in0.0 mm
01:32 AM 61.5°F16.4°C 50.8°F10.4°C 68% 5.0 mph S8.0 kmh S 13.0 mph20.9 kmh 29.94 in1013.9 mb 0.00 in0.0 mm 0.00 in0.0 mm 0.00 in0.0 mm
01:31 AM 61.5°F16.4°C 50.4°F10.2°C 67% 5.0 mph S8.0 kmh S 13.0 mph20.9 kmh 29.94 in1013.9 mb 0.00 in0.0 mm 0.00 in0.0 mm 0.00 in0.0 mm
01:30 AM 61.5°F16.4°C 50.4°F10.2°C 67% 6.0 mph S9.7 kmh S 13.0 mph20.9 kmh 29.94 in1013.9 mb 0.00 in0.0 mm 0.00 in0.0 mm 0.00 in0.0 mm
01:29 AM 61.5°F16.4°C 50.4°F10.2°C 67% 9.0 mph S14.5 kmh S 13.0 mph20.9 kmh 29.94 in1013.9 mb 0.00 in0.0 mm 0.00 in0.0 mm 0.00 in0.0 mm
01:28 AM 61.5°F16.4°C 50.8°F10.4°C 68% 6.0 mph S9.7 kmh S 13.0 mph20.9 kmh 29.94 in1013.9 mb 0.00 in0.0 mm 0.00 in0.0 mm 0.00 in0.0 mm
01:27 AM 61.6°F16.4°C 50.5°F10.3°C 67% 5.0 mph S8.0 kmh S 13.0 mph20.9 kmh 29.94 in1013.9 mb 0.00 in0.0 mm 0.00 in0.0 mm 0.00 in0.0 mm
01:26 AM 61.7°F16.5°C 50.6°F10.3°C 67% 6.0 mph SSW9.7 kmh SSW 13.0 mph20.9 kmh 29.94 in1013.9 mb 0.00 in0.0 mm 0.00 in0.0 mm 0.00 in0.0 mm
01:25 AM 61.8°F16.6°C 50.7°F10.4°C 67% 5.0 mph S8.0 kmh S 13.0 mph20.9 kmh 29.94 in1013.9 mb 0.00 in0.0 mm 0.00 in0.0 mm 0.00 in0.0 mm
01:24 AM 61.9°F16.6°C 50.8°F10.4°C 67% 5.0 mph S8.0 kmh S 13.0 mph20.9 kmh 29.94 in1013.9 mb 0.00 in0.0 mm 0.00 in0.0 mm 0.00 in0.0 mm
01:23 AM 61.9°F16.6°C 50.8°F10.4°C 67% 8.0 mph SSW12.9 kmh SSW 13.0 mph20.9 kmh 29.94 in1013.9 mb 0.00 in0.0 mm 0.00 in0.0 mm 0.00 in0.0 mm
01:22 AM 61.8°F16.6°C 50.7°F10.4°C 67% 5.0 mph SW8.0 kmh SW 13.0 mph20.9 kmh 29.94 in1013.9 mb 0.00 in0.0 mm 0.00 in0.0 mm 0.00 in0.0 mm
01:21 AM 61.8°F16.6°C 50.7°F10.4°C 67% 4.0 mph S6.4 kmh S 13.0 mph20.9 kmh 29.94 in1013.9 mb 0.00 in0.0 mm 0.00 in0.0 mm 0.00 in0.0 mm
01:20 AM 61.8°F16.6°C 50.7°F10.4°C 67% 5.0 mph S8.0 kmh S 11.0 mph17.7 kmh 29.94 in1013.9 mb 0.00 in0.0 mm 0.00 in0.0 mm 0.00 in0.0 mm
01:19 AM 61.9°F16.6°C 50.8°F10.4°C 67% 5.0 mph S8.0 kmh S 11.0 mph17.7 kmh 29.94 in1013.9 mb 0.00 in0.0 mm 0.00 in0.0 mm 0.00 in0.0 mm
01:18 AM 61.9°F16.6°C 50.8°F10.4°C 67% 5.0 mph S8.0 kmh S 11.0 mph17.7 kmh 29.94 in1013.9 mb 0.00 in0.0 mm 0.00 in0.0 mm 0.00 in0.0 mm
01:17 AM 62.0°F16.7°C 50.5°F10.3°C 66% 7.0 mph SSW11.3 kmh SSW 11.0 mph17.7 kmh 29.94 in1013.9 mb 0.00 in0.0 mm 0.00 in0.0 mm 0.00 in0.0 mm
01:16 AM 62.0°F16.7°C 50.5°F10.3°C 66% 6.0 mph SSW9.7 kmh SSW 11.0 mph17.7 kmh 29.94 in1013.9 mb 0.00 in0.0 mm 0.00 in0.0 mm 0.00 in0.0 mm
01:15 AM 62.0°F16.7°C 50.5°F10.3°C 66% 4.0 mph SW6.4 kmh SW 11.0 mph17.7 kmh 29.94 in1013.9 mb 0.00 in0.0 mm 0.00 in0.0 mm 0.00 in0.0 mm
01:14 AM 62.1°F16.7°C 50.6°F10.3°C 66% 7.0 mph SSW11.3 kmh SSW 11.0 mph17.7 kmh 29.94 in1013.9 mb 0.00 in0.0 mm 0.00 in0.0 mm 0.00 in0.0 mm
01:13 AM 62.1°F16.7°C 50.6°F10.3°C 66% 8.0 mph SW12.9 kmh SW 11.0 mph17.7 kmh 29.94 in1013.9 mb 0.00 in0.0 mm 0.00 in0.0 mm 0.00 in0.0 mm
01:12 AM 62.2°F16.8°C 50.7°F10.4°C 66% 7.0 mph SSW11.3 kmh SSW 11.0 mph17.7 kmh 29.94 in1013.9 mb 0.00 in0.0 mm 0.00 in0.0 mm 0.00 in0.0 mm
01:11 AM 62.2°F16.8°C 50.7°F10.4°C 66% 8.0 mph SW12.9 kmh SW 11.0 mph17.7 kmh 29.94 in1013.9 mb 0.00 in0.0 mm 0.00 in0.0 mm 0.00 in0.0 mm
01:10 AM 62.1°F16.7°C 50.6°F10.3°C 66% 5.0 mph S8.0 kmh S 11.0 mph17.7 kmh 29.94 in1013.9 mb 0.00 in0.0 mm 0.00 in0.0 mm 0.00 in0.0 mm
01:09 AM 62.0°F16.7°C 50.5°F10.3°C 66% 9.0 mph SW14.5 kmh SW 11.0 mph17.7 kmh 29.94 in1013.9 mb 0.00 in0.0 mm 0.00 in0.0 mm 0.00 in0.0 mm
01:08 AM 61.9°F16.6°C 50.4°F10.2°C 66% 6.0 mph S9.7 kmh S 11.0 mph17.7 kmh 29.94 in1013.9 mb 0.00 in0.0 mm 0.00 in0.0 mm 0.00 in0.0 mm
01:07 AM 61.9°F16.6°C 50.4°F10.2°C 66% 6.0 mph SSW9.7 kmh SSW 11.0 mph17.7 kmh 29.94 in1013.9 mb 0.00 in0.0 mm 0.00 in0.0 mm 0.00 in0.0 mm
01:06 AM 61.9°F16.6°C 50.8°F10.4°C 67% 9.0 mph SSW14.5 kmh SSW 11.0 mph17.7 kmh 29.94 in1013.9 mb 0.00 in0.0 mm 0.00 in0.0 mm 0.00 in0.0 mm
01:05 AM 62.0°F16.7°C 50.5°F10.3°C 66% 7.0 mph SW11.3 kmh SW 13.0 mph20.9 kmh 29.94 in1013.9 mb 0.00 in0.0 mm 0.00 in0.0 mm 0.00 in0.0 mm
01:04 AM 62.0°F16.7°C 50.5°F10.3°C 66% 6.0 mph S9.7 kmh S 13.0 mph20.9 kmh 29.94 in1013.9 mb 0.00 in0.0 mm 0.00 in0.0 mm 0.00 in0.0 mm
01:03 AM 62.2°F16.8°C 50.7°F10.4°C 66% 7.0 mph S11.3 kmh S 13.0 mph20.9 kmh 29.94 in1013.9 mb 0.00 in0.0 mm 0.00 in0.0 mm 0.00 in0.0 mm
01:02 AM 62.2°F16.8°C 50.7°F10.4°C 66% 7.0 mph SSW11.3 kmh SSW 13.0 mph20.9 kmh 29.94 in1013.9 mb 0.00 in0.0 mm 0.00 in0.0 mm 0.00 in0.0 mm
01:01 AM 62.1°F16.7°C 50.6°F10.3°C 66% 5.0 mph S8.0 kmh S 13.0 mph20.9 kmh 29.94 in1013.9 mb 0.00 in0.0 mm 0.00 in0.0 mm 0.00 in0.0 mm
01:00 AM 62.2°F16.8°C 50.7°F10.4°C 66% 7.0 mph SSW11.3 kmh SSW 13.0 mph20.9 kmh 29.94 in1013.9 mb 0.00 in0.0 mm 0.00 in0.0 mm 0.00 in0.0 mm
12:59 AM 62.2°F16.8°C 50.7°F10.4°C 66% 7.0 mph SSW11.3 kmh SSW 13.0 mph20.9 kmh 29.94 in1013.9 mb 0.00 in0.0 mm 0.00 in0.0 mm 0.00 in0.0 mm
12:58 AM 62.1°F16.7°C 50.6°F10.3°C 66% 7.0 mph S11.3 kmh S 13.0 mph20.9 kmh 29.94 in1013.9 mb 0.00 in0.0 mm 0.00 in0.0 mm 0.00 in0.0 mm
12:57 AM 62.1°F16.7°C 50.2°F10.1°C 65% 6.0 mph S9.7 kmh S 13.0 mph20.9 kmh 29.94 in1013.9 mb 0.00 in0.0 mm 0.00 in0.0 mm 0.00 in0.0 mm
12:56 AM 62.1°F16.7°C 50.6°F10.3°C 66% 4.0 mph SSW6.4 kmh SSW 13.0 mph20.9 kmh 29.94 in1013.9 mb 0.00 in0.0 mm 0.00 in0.0 mm 0.00 in0.0 mm
12:55 AM 62.2°F16.8°C 50.7°F10.4°C 66% 5.0 mph SSW8.0 kmh SSW 13.0 mph20.9 kmh 29.94 in1013.9 mb 0.00 in0.0 mm 0.00 in0.0 mm 0.00 in0.0 mm
12:54 AM 62.3°F16.8°C 50.8°F10.4°C 66% 6.0 mph SSW9.7 kmh SSW 13.0 mph20.9 kmh 29.94 in1013.9 mb 0.00 in0.0 mm 0.00 in0.0 mm 0.00 in0.0 mm
12:53 AM 62.4°F16.9°C 50.5°F10.3°C 65% 5.0 mph S8.0 kmh S 13.0 mph20.9 kmh 29.94 in1013.9 mb 0.00 in0.0 mm 0.00 in0.0 mm 0.00 in0.0 mm
12:52 AM 62.5°F16.9°C 50.6°F10.3°C 65% 7.0 mph SSW11.3 kmh SSW 13.0 mph20.9 kmh 29.94 in1013.9 mb 0.00 in0.0 mm 0.00 in0.0 mm 0.00 in0.0 mm
12:51 AM 62.6°F17.0°C 50.7°F10.4°C 65% 4.0 mph S6.4 kmh S 13.0 mph20.9 kmh 29.94 in1013.9 mb 0.00 in0.0 mm 0.00 in0.0 mm 0.00 in0.0 mm
12:50 AM 62.5°F16.9°C 50.6°F10.3°C 65% 9.0 mph SW14.5 kmh SW 13.0 mph20.9 kmh 29.93 in1013.5 mb 0.00 in0.0 mm 0.00 in0.0 mm 0.00 in0.0 mm
12:49 AM 62.6°F17.0°C 50.7°F10.4°C 65% 8.0 mph S12.9 kmh S 13.0 mph20.9 kmh 29.94 in1013.9 mb 0.00 in0.0 mm 0.00 in0.0 mm 0.00 in0.0 mm
12:48 AM 62.7°F17.1°C 50.8°F10.4°C 65% 7.0 mph S11.3 kmh S 13.0 mph20.9 kmh 29.93 in1013.5 mb 0.00 in0.0 mm 0.00 in0.0 mm 0.00 in0.0 mm
12:47 AM 62.7°F17.1°C 50.8°F10.4°C 65% 6.0 mph SW9.7 kmh SW 13.0 mph20.9 kmh 29.94 in1013.9 mb 0.00 in0.0 mm 0.00 in0.0 mm 0.00 in0.0 mm
12:46 AM 62.7°F17.1°C 50.3°F10.2°C 64% 6.0 mph S9.7 kmh S 13.0 mph20.9 kmh 29.94 in1013.9 mb 0.00 in0.0 mm 0.00 in0.0 mm 0.00 in0.0 mm
12:45 AM 62.7°F17.1°C 50.8°F10.4°C 65% 6.0 mph SSW9.7 kmh SSW 18.0 mph29.0 kmh 29.93 in1013.5 mb 0.00 in0.0 mm 0.00 in0.0 mm 0.00 in0.0 mm
12:44 AM 62.6°F17.0°C 50.7°F10.4°C 65% 7.0 mph SSW11.3 kmh SSW 18.0 mph29.0 kmh 29.93 in1013.5 mb 0.00 in0.0 mm 0.00 in0.0 mm 0.00 in0.0 mm
12:43 AM 62.6°F17.0°C 50.7°F10.4°C 65% 7.0 mph S11.3 kmh S 18.0 mph29.0 kmh 29.94 in1013.9 mb 0.00 in0.0 mm 0.00 in0.0 mm 0.00 in0.0 mm
12:42 AM 62.6°F17.0°C 50.7°F10.4°C 65% 6.0 mph S9.7 kmh S 18.0 mph29.0 kmh 29.93 in1013.5 mb 0.00 in0.0 mm 0.00 in0.0 mm 0.00 in0.0 mm
12:41 AM 62.6°F17.0°C 50.7°F10.4°C 65% 7.0 mph SW11.3 kmh SW 18.0 mph29.0 kmh 29.93 in1013.5 mb 0.00 in0.0 mm 0.00 in0.0 mm 0.00 in0.0 mm
12:40 AM 62.6°F17.0°C 50.7°F10.4°C 65% 5.0 mph SW8.0 kmh SW 18.0 mph29.0 kmh 29.93 in1013.5 mb 0.00 in0.0 mm 0.00 in0.0 mm 0.00 in0.0 mm
12:39 AM 62.6°F17.0°C 50.7°F10.4°C 65% 6.0 mph SSW9.7 kmh SSW 18.0 mph29.0 kmh 29.93 in1013.5 mb 0.00 in0.0 mm 0.00 in0.0 mm 0.00 in0.0 mm
12:38 AM 62.5°F16.9°C 50.6°F10.3°C 65% 9.0 mph S14.5 kmh S 18.0 mph29.0 kmh 29.93 in1013.5 mb 0.00 in0.0 mm 0.00 in0.0 mm 0.00 in0.0 mm
12:37 AM 62.5°F16.9°C 50.6°F10.3°C 65% 7.0 mph S11.3 kmh S 18.0 mph29.0 kmh 29.93 in1013.5 mb 0.00 in0.0 mm 0.00 in0.0 mm 0.00 in0.0 mm
12:36 AM 62.5°F16.9°C 50.6°F10.3°C 65% 7.0 mph S11.3 kmh S 18.0 mph29.0 kmh 29.93 in1013.5 mb 0.00 in0.0 mm 0.00 in0.0 mm 0.00 in0.0 mm
12:35 AM 62.5°F16.9°C 50.6°F10.3°C 65% 8.0 mph SW12.9 kmh SW 18.0 mph29.0 kmh 29.93 in1013.5 mb 0.00 in0.0 mm 0.00 in0.0 mm 0.00 in0.0 mm
12:34 AM 62.5°F16.9°C 50.6°F10.3°C 65% 5.0 mph SSW8.0 kmh SSW 18.0 mph29.0 kmh 29.93 in1013.5 mb 0.00 in0.0 mm 0.00 in0.0 mm 0.00 in0.0 mm
12:33 AM 62.5°F16.9°C 50.6°F10.3°C 65% 10.0 mph S16.1 kmh S 18.0 mph29.0 kmh 29.93 in1013.5 mb 0.00 in0.0 mm 0.00 in0.0 mm 0.00 in0.0 mm
12:32 AM 62.6°F17.0°C 50.7°F10.4°C 65% 12.0 mph SSE19.3 kmh SSE 18.0 mph29.0 kmh 29.93 in1013.5 mb 0.00 in0.0 mm 0.00 in0.0 mm 0.00 in0.0 mm
12:31 AM 62.7°F17.1°C 50.3°F10.2°C 64% 5.0 mph SSW8.0 kmh SSW 18.0 mph29.0 kmh 29.93 in1013.5 mb 0.00 in0.0 mm 0.00 in0.0 mm 0.00 in0.0 mm
12:30 AM 62.7°F17.1°C 50.3°F10.2°C 64% 9.0 mph SSW14.5 kmh SSW 18.0 mph29.0 kmh 29.93 in1013.5 mb 0.00 in0.0 mm 0.00 in0.0 mm 0.00 in0.0 mm
12:29 AM 62.7°F17.1°C 50.3°F10.2°C 64% 8.0 mph SSW12.9 kmh SSW 18.0 mph29.0 kmh 29.93 in1013.5 mb 0.00 in0.0 mm 0.00 in0.0 mm 0.00 in0.0 mm
12:28 AM 62.7°F17.1°C 50.3°F10.2°C 64% 6.0 mph SSW9.7 kmh SSW 18.0 mph29.0 kmh 29.93 in1013.5 mb 0.00 in0.0 mm 0.00 in0.0 mm 0.00 in0.0 mm
12:27 AM 62.7°F17.1°C 50.3°F10.2°C 64% 6.0 mph WSW9.7 kmh WSW 18.0 mph29.0 kmh 29.93 in1013.5 mb 0.00 in0.0 mm 0.00 in0.0 mm 0.00 in0.0 mm
12:26 AM 62.7°F17.1°C 50.3°F10.2°C 64% 15.0 mph S24.1 kmh S 18.0 mph29.0 kmh 29.93 in1013.5 mb 0.00 in0.0 mm 0.00 in0.0 mm 0.00 in0.0 mm
12:25 AM 62.7°F17.1°C 50.3°F10.2°C 64% 7.0 mph S11.3 kmh S 13.0 mph20.9 kmh 29.93 in1013.5 mb 0.00 in0.0 mm 0.00 in0.0 mm 0.00 in0.0 mm
12:24 AM 62.7°F17.1°C 50.3°F10.2°C 64% 7.0 mph SSW11.3 kmh SSW 10.0 mph16.1 kmh 29.93 in1013.5 mb 0.00 in0.0 mm 0.00 in0.0 mm 0.00 in0.0 mm
12:23 AM 62.6°F17.0°C 50.2°F10.1°C 64% 3.0 mph SW4.8 kmh SW 10.0 mph16.1 kmh 29.93 in1013.5 mb 0.00 in0.0 mm 0.00 in0.0 mm 0.00 in0.0 mm
12:22 AM 62.6°F17.0°C 50.2°F10.1°C 64% 10.0 mph SW16.1 kmh SW 10.0 mph16.1 kmh 29.93 in1013.5 mb 0.00 in0.0 mm 0.00 in0.0 mm 0.00 in0.0 mm
12:21 AM 62.6°F17.0°C 50.2°F10.1°C 64% 5.0 mph S8.0 kmh S 10.0 mph16.1 kmh 29.93 in1013.5 mb 0.00 in0.0 mm 0.00 in0.0 mm 0.00 in0.0 mm
12:20 AM 62.7°F17.1°C 50.3°F10.2°C 64% 5.0 mph SW8.0 kmh SW 10.0 mph16.1 kmh 29.93 in1013.5 mb 0.00 in0.0 mm 0.00 in0.0 mm 0.00 in0.0 mm
12:19 AM 62.6°F17.0°C 50.2°F10.1°C 64% 7.0 mph S11.3 kmh S 10.0 mph16.1 kmh 29.93 in1013.5 mb 0.00 in0.0 mm 0.00 in0.0 mm 0.00 in0.0 mm
12:18 AM 62.6°F17.0°C 50.2°F10.1°C 64% 4.0 mph SSW6.4 kmh SSW 11.0 mph17.7 kmh 29.93 in1013.5 mb 0.00 in0.0 mm 0.00 in0.0 mm 0.00 in0.0 mm
12:17 AM 62.6°F17.0°C 50.2°F10.1°C 64% 7.0 mph SSW11.3 kmh SSW 11.0 mph17.7 kmh 29.93 in1013.5 mb 0.00 in0.0 mm 0.00 in0.0 mm 0.00 in0.0 mm
12:16 AM 62.5°F16.9°C 50.2°F10.1°C 64% 7.0 mph SSW11.3 kmh SSW 11.0 mph17.7 kmh 29.93 in1013.5 mb 0.00 in0.0 mm 0.00 in0.0 mm 0.00 in0.0 mm
12:15 AM 62.5°F16.9°C 50.2°F10.1°C 64% 8.0 mph S12.9 kmh S 11.0 mph17.7 kmh 29.93 in1013.5 mb 0.00 in0.0 mm 0.00 in0.0 mm 0.00 in0.0 mm
12:14 AM 62.5°F16.9°C 50.2°F10.1°C 64% 4.0 mph SW6.4 kmh SW 11.0 mph17.7 kmh 29.93 in1013.5 mb 0.00 in0.0 mm 0.00 in0.0 mm 0.00 in0.0 mm
12:13 AM 62.6°F17.0°C 50.2°F10.1°C 64% 4.0 mph SSW6.4 kmh SSW 11.0 mph17.7 kmh 29.93 in1013.5 mb 0.00 in0.0 mm 0.00 in0.0 mm 0.00 in0.0 mm
12:12 AM 62.6°F17.0°C 50.2°F10.1°C 64% 7.0 mph S11.3 kmh S 11.0 mph17.7 kmh 29.93 in1013.5 mb 0.00 in0.0 mm 0.00 in0.0 mm 0.00 in0.0 mm
12:11 AM 62.6°F17.0°C 50.2°F10.1°C 64% 5.0 mph SSW8.0 kmh SSW 11.0 mph17.7 kmh 29.93 in1013.5 mb 0.00 in0.0 mm 0.00 in0.0 mm 0.00 in0.0 mm
12:10 AM 62.6°F17.0°C 50.2°F10.1°C 64% 5.0 mph SSW8.0 kmh SSW 11.0 mph17.7 kmh 29.93 in1013.5 mb 0.00 in0.0 mm 0.00 in0.0 mm 0.00 in0.0 mm
12:09 AM 62.5°F16.9°C 50.2°F10.1°C 64% 4.0 mph S6.4 kmh S 11.0 mph17.7 kmh 29.92 in1013.2 mb 0.00 in0.0 mm 0.00 in0.0 mm 0.00 in0.0 mm
12:08 AM 62.5°F16.9°C 50.2°F10.1°C 64% 8.0 mph SW12.9 kmh SW 12.0 mph19.3 kmh 29.93 in1013.5 mb 0.00 in0.0 mm 0.00 in0.0 mm 0.00 in0.0 mm
12:07 AM 62.5°F16.9°C 50.2°F10.1°C 64% 6.0 mph SSW9.7 kmh SSW 12.0 mph19.3 kmh 29.93 in1013.5 mb 0.00 in0.0 mm 0.00 in0.0 mm 0.00 in0.0 mm
12:06 AM 62.5°F16.9°C 50.2°F10.1°C 64% 6.0 mph S9.7 kmh S 12.0 mph19.3 kmh 29.93 in1013.5 mb 0.00 in0.0 mm 0.00 in0.0 mm 0.00 in0.0 mm
12:05 AM 62.5°F16.9°C 50.2°F10.1°C 64% 7.0 mph SSW11.3 kmh SSW 12.0 mph19.3 kmh 29.93 in1013.5 mb 0.00 in0.0 mm 0.00 in0.0 mm 0.00 in0.0 mm
12:04 AM 62.5°F16.9°C 50.2°F10.1°C 64% 4.0 mph SSW6.4 kmh SSW 12.0 mph19.3 kmh 29.93 in1013.5 mb 0.00 in0.0 mm 0.00 in0.0 mm 0.00 in0.0 mm
12:03 AM 62.4°F16.9°C 50.1°F10.1°C 64% 5.0 mph SSW8.0 kmh SSW 12.0 mph19.3 kmh 29.93 in1013.5 mb 0.00 in0.0 mm 0.00 in0.0 mm 0.00 in0.0 mm
12:02 AM 62.4°F16.9°C 50.1°F10.1°C 64% 7.0 mph S11.3 kmh S 12.0 mph19.3 kmh 29.93 in1013.5 mb 0.00 in0.0 mm 0.00 in0.0 mm 0.00 in0.0 mm
12:01 AM 62.4°F16.9°C 50.1°F10.1°C 64% 7.0 mph S11.3 kmh S 12.0 mph19.3 kmh 29.93 in1013.5 mb 0.00 in0.0 mm 0.00 in0.0 mm 0.00 in0.0 mm
12:00 AM 62.4°F16.9°C 50.1°F10.1°C 64% 6.0 mph S9.7 kmh S 12.0 mph19.3 kmh 29.93 in1013.5 mb 0.00 in0.0 mm 0.00 in0.0 mm 0.00 in0.0 mm